FX5392 / N631FE 7700 Squawk Report (21st of February, 2019)

Aircraft MD11 Reg No. N631FE Age 27 years old
Model MD-11 Jet engines 3 First flight 26-10-91
Registered 24-12-04 Rollout 10-91 Delivered 15-11-91
Construction No. 48454 Line No. 477 Series F
ADSHEX A841F5 Airline name FedEx Owner Federal Express Corp
Airfield based Memphis International~TN~N First tracked 2017-07-14 03:42:00

Flight history for N631FE

Route Flight No Date Playback
???? N/A 2019-10-21 03:57:00
???? N/A 2019-10-02 01:50:00
Memphis Intl (MEM) - Los Angeles Intl (LAX) FX1508 2019-08-08 19:29:00
Memphis Intl (MEM) - Los Angeles Intl (LAX) FX1508 2019-08-07 17:59:00
Orlando Intl (MCO) - Memphis Intl (MEM) FX1209 2019-08-07 03:51:00
Memphis Intl (MEM) - Eppley Airfield (OMA) FX358 2019-08-06 22:43:00
Metropolitan Oakland Intl (OAK) - Memphis Intl (MEM) FX614 2019-08-06 21:16:00
Los Angeles Intl (LAX) - Metropolitan Oakland Intl (OAK) FX1825 2019-08-06 06:57:00
???? FX326 2019-08-06 04:42:00
???? FX326 2019-08-05 22:36:00
Detroit Metro Wayne Co (DTW) - Memphis Intl (MEM) FX1218 2019-08-03 04:30:00
Memphis Intl (MEM) - Detroit Metro Wayne Co (DTW) FX505 2019-08-02 22:10:00
Sacramento Intl (SMF) - Memphis Intl (MEM) FX463 2019-08-02 17:41:00
Memphis Intl (MEM) - Sacramento Intl (SMF) FX1429 2019-08-02 13:25:00
Guadalajara International (GDL) - Memphis Intl (MEM) FX66 2019-08-02 04:20:00
Memphis Intl (MEM) - Guadalajara International (GDL) FX65 2019-08-02 04:31:00
Memphis Intl (MEM) - Guadalajara International (GDL) FX65 2019-08-01 12:01:00
Guadalajara International (GDL) - Memphis Intl (MEM) FX66 2019-08-01 04:45:00
Memphis Intl (MEM) - Guadalajara International (GDL) FX65 2019-07-31 12:13:00
???? FX147 2019-07-31 09:47:00
Time Lat Lon Altitude Heading Speed Vertical Rate
2019-02-21 06:12:20 GMT 49.018295 2.545323 0 264 15 0
2019-02-21 06:10:32 GMT 49.019276 2.554647 0 174 13 0
2019-02-21 06:10:09 GMT 49.020664 2.554480 0 174 10 0
2019-02-21 06:09:56 GMT 49.021076 2.554502 0 137 4 0
2019-02-21 06:09:44 GMT 49.021194 2.554502 0 109 2 0
2019-02-21 06:09:32 GMT 49.021294 2.554075 0 104 13 0
2019-02-21 06:09:24 GMT 49.021408 2.553406 0 106 13 0
2019-02-21 06:09:15 GMT 49.021564 2.552514 0 106 17 0
2019-02-21 06:09:05 GMT 49.021797 2.551240 0 104 18 0
2019-02-21 06:08:52 GMT 49.022083 2.549691 0 106 22 0
2019-02-21 06:08:46 GMT 49.022251 2.548684 0 104 22 0
2019-02-21 06:08:40 GMT 49.022369 2.547930 0 95 22 0
2019-02-21 06:08:19 GMT 49.022266 2.543443 0 84 48 0
2019-02-21 06:08:09 GMT 49.022038 2.538881 0 84 76 0
2019-02-21 06:08:04 GMT 49.021870 2.535981 0 84 90 0
2019-02-21 06:07:53 GMT 49.021439 2.528102 0 84 140 0
2019-02-21 06:07:42 GMT 49.020809 2.515074 0 87 160 -448
2019-02-21 06:07:33 GMT 49.020298 2.505822 150 84 168 -768
2019-02-21 06:07:26 GMT 49.019737 2.496282 275 86 170 -896
2019-02-21 06:07:23 GMT 49.019577 2.492699 325 86 170 -960
2019-02-21 06:07:17 GMT 49.019211 2.485586 425 84 169 -960
2019-02-21 06:07:12 GMT 49.018856 2.479658 475 84 169 -896
2019-02-21 06:07:07 GMT 49.018524 2.473614 575 85 170 -960
2019-02-21 06:07:02 GMT 49.018250 2.468896 650 85 170 -896
2019-02-21 06:06:56 GMT 49.017784 2.460432 750 85 171 -960
2019-02-21 06:06:52 GMT 49.017551 2.455589 800 85 172 -960
2019-02-21 06:06:49 GMT 49.017334 2.451853 875 85 173 -960
2019-02-21 06:06:46 GMT 49.017086 2.448289 900 85 173 -960
2019-02-21 06:06:42 GMT 49.016785 2.443331 975 85 174 -960
2019-02-21 06:06:32 GMT 49.016201 2.432243 1,125 85 175 -960
2019-02-21 06:06:29 GMT 49.015961 2.427345 1,175 85 176 -1024
2019-02-21 06:06:23 GMT 49.015594 2.419880 1,275 85 178 -896
2019-02-21 06:06:19 GMT 49.015362 2.416125 1,300 85 178 -960
2019-02-21 06:06:13 GMT 49.014908 2.407344 1,450 85 178 -960
2019-02-21 06:06:09 GMT 49.014679 2.402344 1,500 85 178 -960
2019-02-21 06:06:02 GMT 49.014221 2.394667 1,600 84 179 -1024
2019-02-21 06:05:59 GMT 49.013947 2.389667 1,700 85 181 -1024
2019-02-21 06:05:51 GMT 49.013409 2.380708 1,800 85 180 -960
2019-02-21 06:05:47 GMT 49.013123 2.374385 1,875 85 180 -960
2019-02-21 06:05:43 GMT 49.012756 2.369244 1,975 84 181 -896
2019-02-21 06:05:40 GMT 49.012390 2.361568 2,025 85 184 -1088
2019-02-21 06:05:37 GMT 49.012390 2.361568 2,025 85 184 -1088
2019-02-21 06:05:31 GMT 49.011932 2.353891 2,125 85 184 -1088
2019-02-21 06:05:25 GMT 49.011475 2.346004 2,225 85 184 -1024
2019-02-21 06:05:22 GMT 49.011314 2.342112 2,275 85 184 -1088
2019-02-21 06:05:19 GMT 49.011063 2.338186 2,325 85 184 -1088
2019-02-21 06:05:14 GMT 49.010754 2.331704 2,425 85 185 -1024
2019-02-21 06:05:11 GMT 49.010567 2.329102 2,475 85 185 -1088
2019-02-21 06:05:08 GMT 49.010288 2.323898 2,500 85 185 -1088
2019-02-21 06:05:02 GMT 49.009823 2.316091 2,650 85 186 -1152
2019-02-21 06:04:59 GMT 49.009644 2.311988 2,725 85 186 -1152
2019-02-21 06:04:56 GMT 49.009403 2.308141 2,775 85 186 -1088
2019-02-21 06:04:53 GMT 49.009079 2.302937 2,875 85 186 -1024
2019-02-21 06:04:49 GMT 49.008846 2.297660 2,925 85 185 -832
2019-02-21 06:04:45 GMT 49.008659 2.295058 3,000 85 185 -704
2019-02-21 06:04:41 GMT 49.008286 2.288481 3,025 85 184 -704
2019-02-21 06:04:38 GMT 49.008102 2.284578 3,050 85 184 -704
2019-02-21 06:04:34 GMT 49.007820 2.279446 3,075 85 187 -448
2019-02-21 06:04:30 GMT 49.007542 2.274098 3,125 85 183 -704
2019-02-21 06:04:27 GMT 49.007355 2.270226 3,150 85 186 -896
2019-02-21 06:04:22 GMT 49.006935 2.263473 3,225 85 194 -1088
2019-02-21 06:04:19 GMT 49.006565 2.258052 3,325 85 200 -1152
2019-02-21 06:04:15 GMT 49.006348 2.253747 3,400 85 203 -1152
2019-02-21 06:04:11 GMT 49.006100 2.249523 3,450 85 205 -1280
2019-02-21 06:04:08 GMT 49.005753 2.242197 3,550 85 209 -1344
2019-02-21 06:04:03 GMT 49.005447 2.237742 3,725 85 210 -1408
2019-02-21 06:04:00 GMT 49.005169 2.231959 3,775 85 213 -1472
2019-02-21 06:03:57 GMT 49.004929 2.227337 3,800 85 213 -1472
2019-02-21 06:03:52 GMT 49.004471 2.219889 3,925 84 214 -1600
2019-02-21 06:03:49 GMT 49.004196 2.215294 4,000 84 216 -1536
2019-02-21 06:03:46 GMT 49.003967 2.212266 4,075 84 216 -1472
2019-02-21 06:03:43 GMT 49.003601 2.206210 4,150 85 217 -1216
2019-02-21 06:03:39 GMT 49.003098 2.196984 4,275 85 219 -1152
2019-02-21 06:03:32 GMT 49.002594 2.187617 4,375 85 219 -960
2019-02-21 06:03:29 GMT 49.002560 2.186135 4,450 85 219 -896
2019-02-21 06:03:26 GMT 49.002274 2.181490 4,450 85 219 -768
2019-02-21 06:03:22 GMT 49.001862 2.173744 4,525 85 219 -704
2019-02-21 06:03:19 GMT 49.001583 2.167631 4,575 84 219 -320
2019-02-21 06:03:15 GMT 49.001312 2.163109 4,575 84 219 -320
2019-02-21 06:03:12 GMT 49.000626 2.153743 4,600 84 220 -320
2019-02-21 06:03:09 GMT 49.000626 2.153743 4,625 84 220 -320
2019-02-21 06:03:05 GMT 49.000328 2.149128 4,625 84 219 -448
2019-02-21 06:03:01 GMT 48.999847 2.141418 4,675 84 220 -768
2019-02-21 06:02:58 GMT 48.999580 2.136841 4,700 84 222 -1024
2019-02-21 06:02:55 GMT 48.999252 2.132193 4,750 84 222 -1024
2019-02-21 06:02:50 GMT 48.998840 2.125854 4,825 84 223 -832
2019-02-21 06:02:46 GMT 48.998108 2.113389 4,900 85 221 -320
2019-02-21 06:02:39 GMT 48.997814 2.105617 4,925 87 220 -512
2019-02-21 06:02:36 GMT 48.997559 2.097825 4,975 88 221 -1024
2019-02-21 06:02:33 GMT 48.997559 2.097825 5,000 88 222 -1152
2019-02-21 06:02:30 GMT 48.997486 2.093185 5,050 88 222 -1216
2019-02-21 06:02:27 GMT 48.997467 2.088388 5,100 89 223 -896
2019-02-21 06:02:24 GMT 48.997421 2.085360 5,150 89 223 -576
2019-02-21 06:02:21 GMT 48.997440 2.077572 5,175 91 220 256
2019-02-21 06:02:18 GMT 48.997486 2.074464 5,150 94 219 192
2019-02-21 06:02:15 GMT 48.997742 2.069726 5,150 101 218 -128
2019-02-21 06:02:12 GMT 48.998199 2.066838 5,650 109 217 -640
2019-02-21 06:02:08 GMT 49.000000 2.059647 5,225 115 217 -832
2019-02-21 06:02:05 GMT 49.001038 2.055711 5,250 123 217 -1088
2019-02-21 06:02:02 GMT 49.002747 2.051841 5,300 126 219 -896
2019-02-21 06:01:58 GMT 49.005707 2.045640 5,375 126 220 -256
2019-02-21 06:01:55 GMT 49.007217 2.043175 5,375 127 219 -192
2019-02-21 06:01:52 GMT 49.009033 2.039409 5,375 127 219 -384
2019-02-21 06:01:49 GMT 49.010925 2.035781 5,400 127 220 -576
2019-02-21 06:01:46 GMT 49.012478 2.031965 5,450 127 220 -448
2019-02-21 06:01:43 GMT 49.014313 2.028316 5,450 127 220 -448
2019-02-21 06:01:40 GMT 49.015594 2.025780 5,650 127 220 -384
2019-02-21 06:01:36 GMT 49.018623 2.019605 5,500 127 220 -384
2019-02-21 06:01:32 GMT 49.020767 2.015921 5,525 128 220 -512
2019-02-21 06:01:28 GMT 49.023743 2.009848 5,575 128 221 -768
2019-02-21 06:01:24 GMT 49.026489 2.005005 5,650 127 221 -640
2019-02-21 06:01:20 GMT 49.029190 1.999945 5,675 127 221 -320
2019-02-21 06:01:16 GMT 49.032959 1.992645 5,700 127 220 -320
2019-02-21 06:01:10 GMT 49.034866 1.988948 5,725 127 219 -640
2019-02-21 06:01:07 GMT 49.037849 1.982888 5,775 128 220 -768
2019-02-21 06:01:04 GMT 49.042458 1.974214 5,825 127 221 -640
2019-02-21 06:00:59 GMT 49.045670 1.966905 5,875 127 220 -256
2019-02-21 06:00:53 GMT 49.045670 1.966905 5,875 127 220 -192
2019-02-21 06:00:50 GMT 49.047577 1.963156 5,875 127 220 -320
2019-02-21 06:00:46 GMT 49.050232 1.958241 5,925 128 224 -448
2019-02-21 06:00:43 GMT 49.052307 1.954580 5,925 128 226 -512
2019-02-21 06:00:38 GMT 49.055958 1.948266 5,975 129 229 -384
2019-02-21 06:00:35 GMT 49.057213 1.945809 5,975 129 230 -576
2019-02-21 06:00:32 GMT 49.059219 1.942045 6,025 129 232 -640
2019-02-21 06:00:29 GMT 49.061417 1.938171 6,050 129 235 -768
2019-02-21 06:00:26 GMT 49.064102 1.933088 6,125 129 235 -640
2019-02-21 06:00:22 GMT 49.066383 1.927956 6,150 128 235 -448
2019-02-21 06:00:18 GMT 49.068832 1.924157 6,175 128 234 -192
2019-02-21 06:00:14 GMT 49.071972 1.917692 6,200 128 233 -384
2019-02-21 06:00:11 GMT 49.073738 1.915090 6,200 129 233 -576
2019-02-21 06:00:07 GMT 49.076660 1.908734 6,250 129 233 -768
2019-02-21 06:00:04 GMT 49.078815 1.904971 6,300 129 235 -768
2019-02-21 05:59:59 GMT 49.082474 1.898592 6,350 129 235 -448
2019-02-21 05:59:55 GMT 49.085266 1.893451 6,375 129 234 -320
2019-02-21 05:59:52 GMT 49.087379 1.889576 6,400 130 234 -384
2019-02-21 05:59:49 GMT 49.089523 1.885775 6,425 130 235 -576
2019-02-21 05:59:44 GMT 49.093014 1.879457 6,475 130 236 -768
2019-02-21 05:59:41 GMT 49.097343 1.871796 6,550 129 238 -512
2019-02-21 05:59:34 GMT 49.100460 1.866592 6,600 129 238 -448
2019-02-21 05:59:31 GMT 49.102249 1.862746 6,625 129 238 -448
2019-02-21 05:59:28 GMT 49.104324 1.858786 6,650 129 238 -512
2019-02-21 05:59:24 GMT 49.106689 1.854858 6,675 128 238 -576
2019-02-21 05:59:21 GMT 49.108887 1.849506 6,725 128 242 -640
2019-02-21 05:59:17 GMT 49.111542 1.845631 6,750 129 244 -576
2019-02-21 05:59:14 GMT 49.114006 1.840138 6,775 129 250 -384
2019-02-21 05:59:11 GMT 49.116165 1.836125 6,800 129 252 -448
2019-02-21 05:59:07 GMT 49.119232 1.830632 6,825 130 255 -640
2019-02-21 05:59:04 GMT 49.121502 1.826477 6,875 130 260 -640
2019-02-21 05:59:01 GMT 49.123764 1.822252 6,925 130 263 -832
2019-02-21 05:58:53 GMT 49.130722 1.811054 7,000 131 269 -640
2019-02-21 05:58:50 GMT 49.132370 1.808167 7,025 131 272 -704
2019-02-21 05:58:46 GMT 49.135803 1.802392 7,075 131 274 -832
2019-02-21 05:58:42 GMT 49.139706 1.795108 7,150 131 277 -704
2019-02-21 05:58:39 GMT 49.142166 1.790560 7,175 131 278 -768
2019-02-21 05:58:36 GMT 49.144592 1.786146 7,225 130 277 -704
2019-02-21 05:58:32 GMT 49.150543 1.775771 7,275 130 277 -704
2019-02-21 05:58:26 GMT 49.152973 1.771256 7,325 130 277 -704
2019-02-21 05:58:23 GMT 49.155533 1.766897 7,375 130 277 -768
2019-02-21 05:58:20 GMT 49.158092 1.762294 7,400 130 277 -896
2019-02-21 05:58:16 GMT 49.161770 1.756367 7,475 130 278 -960
2019-02-21 05:58:12 GMT 49.165466 1.748939 7,550 130 278 -896
2019-02-21 05:58:08 GMT 49.168755 1.744441 7,575 130 277 -896
2019-02-21 05:58:04 GMT 49.170639 1.740065 7,700 131 276 -1152
2019-02-21 05:58:01 GMT 49.176575 1.729841 7,725 131 276 -1152
2019-02-21 05:57:58 GMT 49.176575 1.729841 7,750 131 278 -1280
2019-02-21 05:57:55 GMT 49.179153 1.725346 7,800 131 277 -1344
2019-02-21 05:57:51 GMT 49.185371 1.715024 7,925 131 277 -1152
2019-02-21 05:57:48 GMT 49.185371 1.715024 7,950 131 276 -1024
2019-02-21 05:57:44 GMT 49.188679 1.709241 8,025 131 276 -1216
2019-02-21 05:57:41 GMT 49.190727 1.706350 8,125 131 276 -1728
2019-02-21 05:57:38 GMT 49.194122 1.700279 8,250 130 276 -1792
2019-02-21 05:57:35 GMT 49.196594 1.695838 8,275 130 277 -1664
2019-02-21 05:57:30 GMT 49.200455 1.688425 8,375 129 278 -1664
2019-02-21 05:57:27 GMT 49.203003 1.683866 8,500 129 278 -1600
2019-02-21 05:57:23 GMT 49.205761 1.679318 8,550 129 278 -1664
2019-02-21 05:57:20 GMT 49.208603 1.673247 8,650 129 280 -1472
2019-02-21 05:57:17 GMT 49.210968 1.668513 8,750 129 280 -1344
2019-02-21 05:57:14 GMT 49.213535 1.663995 8,825 129 281 -1280
2019-02-21 05:57:11 GMT 49.217926 1.656330 8,900 131 285 -1728
2019-02-21 05:57:04 GMT 49.222149 1.648672 9,050 131 285 -1728
2019-02-21 05:57:01 GMT 49.224426 1.644146 9,525 131 286 -1728
2019-02-21 05:56:58 GMT 49.227131 1.639637 9,200 131 286 -1600
2019-02-21 05:56:54 GMT 49.231087 1.633421 9,325 129 288 -1600
2019-02-21 05:56:51 GMT 49.233078 1.628582 10,175 125 289 -1920
2019-02-21 05:56:48 GMT 49.236069 1.623519 9,475 123 289 -1984
2019-02-21 05:56:45 GMT 49.237278 1.620194 9,575 120 289 -1920
2019-02-21 05:56:42 GMT 49.238983 1.614709 9,650 117 289 -1664
2019-02-21 05:56:39 GMT 49.243328 1.601836 9,825 115 292 -1536
2019-02-21 05:56:36 GMT 49.243328 1.601836 9,850 115 292 -1536
2019-02-21 05:56:33 GMT 49.245071 1.596257 9,900 115 293 -1408
2019-02-21 05:56:28 GMT 49.247635 1.588651 10,000 115 294 -1408
2019-02-21 05:56:25 GMT 49.249832 1.581257 10,100 115 296 -1536
2019-02-21 05:56:22 GMT 49.251297 1.577313 10,150 115 297 -1600
2019-02-21 05:56:19 GMT 49.253220 1.569777 10,250 115 297 -1664
2019-02-21 05:56:15 GMT 49.255646 1.562101 10,350 115 299 -1728
2019-02-21 05:56:12 GMT 49.257202 1.558228 10,525 115 299 -1856
2019-02-21 05:56:09 GMT 49.259216 1.550622 10,525 115 299 -1856
2019-02-21 05:56:05 GMT 49.261734 1.543016 10,650 115 300 -1664
2019-02-21 05:56:02 GMT 49.263767 1.537146 10,800 114 302 -1472
2019-02-21 05:55:58 GMT 49.266186 1.529413 10,900 115 303 -1728
2019-02-21 05:55:54 GMT 49.267776 1.523719 10,925 115 303 -1728
2019-02-21 05:55:50 GMT 49.270329 1.515752 11,100 115 304 -1856
2019-02-21 05:55:47 GMT 49.273357 1.506067 11,175 115 304 -1600
2019-02-21 05:55:44 GMT 49.274101 1.502380 11,225 115 304 -1408
2019-02-21 05:55:41 GMT 49.278534 1.488577 11,350 115 306 -1152
2019-02-21 05:55:37 GMT 49.278534 1.488577 11,350 115 308 -1024
2019-02-21 05:55:34 GMT 49.280293 1.482721 11,425 115 312 -704
2019-02-21 05:55:31 GMT 49.282242 1.476675 11,475 114 315 -576
2019-02-21 05:55:28 GMT 49.284107 1.470506 11,500 114 316 -640
2019-02-21 05:55:25 GMT 49.285553 1.466530 11,525 114 318 -768
2019-02-21 05:55:21 GMT 49.288067 1.458363 11,575 114 322 -832
2019-02-21 05:55:17 GMT 49.290756 1.447801 11,625 113 326 -640
2019-02-21 05:55:14 GMT 49.292629 1.441450 11,675 113 328 -768
2019-02-21 05:55:11 GMT 49.294464 1.435124 11,700 113 330 -832
2019-02-21 05:55:08 GMT 49.296211 1.428801 11,725 114 331 -832
2019-02-21 05:55:05 GMT 49.298264 1.422166 11,775 115 335 -832
2019-02-21 05:55:02 GMT 49.299957 1.418011 11,825 115 339 -768
2019-02-21 05:54:59 GMT 49.302246 1.409278 11,875 116 342 -960
2019-02-21 05:54:56 GMT 49.304077 1.404912 11,875 116 342 -960
2019-02-21 05:54:53 GMT 49.308456 1.389481 11,975 116 346 -768
2019-02-21 05:54:49 GMT 49.308456 1.389481 12,025 113 352 -576
2019-02-21 05:54:46 GMT 49.311436 1.380447 12,025 113 352 -576
2019-02-21 05:54:42 GMT 49.313370 1.373291 12,075 107 358 -896
2019-02-21 05:54:39 GMT 49.315063 1.363643 12,175 98 363 -960
2019-02-21 05:54:36 GMT 49.316135 1.356161 12,225 96 369 -960
2019-02-21 05:54:30 GMT 49.317947 1.333008 12,300 95 370 -1024
2019-02-21 05:54:27 GMT 49.317947 1.333008 12,325 95 371 -832
2019-02-21 05:54:21 GMT 49.319092 1.317021 12,425 95 379 -1024
2019-02-21 05:54:17 GMT 49.319778 1.306458 12,475 96 380 -1152
2019-02-21 05:54:13 GMT 49.320419 1.298338 12,550 96 383 -1152
2019-02-21 05:54:10 GMT 49.321072 1.287569 12,600 96 384 -1216
2019-02-21 05:54:07 GMT 49.321747 1.279485 12,675 96 386 -1280
2019-02-21 05:54:04 GMT 49.322479 1.268357 12,750 96 387 -1344
2019-02-21 05:54:01 GMT 49.323074 1.260247 12,825 96 389 -1408
2019-02-21 05:53:58 GMT 49.323540 1.254827 12,875 96 390 -1536
2019-02-21 05:53:55 GMT 49.324173 1.246596 13,000 97 392 -1792
2019-02-21 05:53:51 GMT 49.325043 1.235469 13,050 97 392 -1792
2019-02-21 05:53:48 GMT 49.325867 1.224412 13,125 96 393 -1856
2019-02-21 05:53:45 GMT 49.326324 1.218849 13,225 97 394 -1920
2019-02-21 05:53:42 GMT 49.326965 1.213426 13,325 97 395 -1920
2019-02-21 05:53:38 GMT 49.328102 1.199389 13,500 96 395 -1984
2019-02-21 05:53:35 GMT 49.328613 1.191312 13,600 96 395 -1984
2019-02-21 05:53:32 GMT 49.329311 1.182910 13,650 96 395 -1984
2019-02-21 05:53:27 GMT 49.330399 1.168917 13,825 96 396 -1920
2019-02-21 05:53:24 GMT 49.330986 1.160648 13,925 96 396 -1920
2019-02-21 05:53:21 GMT 49.331547 1.154865 14,000 96 396 -1920
2019-02-21 05:53:18 GMT 49.333035 1.132459 14,175 96 397 -1920
2019-02-21 05:53:14 GMT 49.333035 1.132459 14,250 96 401 -1984
2019-02-21 05:53:11 GMT 49.333649 1.124338 14,325 96 398 -1920
2019-02-21 05:53:07 GMT 49.334339 1.115763 14,525 96 399 -1984
2019-02-21 05:53:04 GMT 49.335205 1.101732 14,875 96 401 -1984
2019-02-21 05:52:59 GMT 49.335983 1.090393 14,700 96 401 -1984
2019-02-21 05:52:56 GMT 49.336620 1.081864 14,750 96 401 -1984
2019-02-21 05:52:53 GMT 49.337265 1.073421 14,950 95 411 -1984
2019-02-21 05:52:50 GMT 49.337875 1.064806 15,000 96 403 -1984
2019-02-21 05:52:47 GMT 49.338501 1.056307 15,100 96 403 -1984
2019-02-21 05:52:44 GMT 49.339180 1.047966 15,125 96 404 -1920
2019-02-21 05:52:39 GMT 49.340378 1.033630 15,350 96 405 -1984
2019-02-21 05:52:36 GMT 49.340904 1.024981 15,450 96 406 -2112
2019-02-21 05:52:33 GMT 49.341740 1.013561 15,525 96 406 -2112
2019-02-21 05:52:29 GMT 49.342712 1.002009 15,750 96 408 -1984
2019-02-21 05:52:26 GMT 49.342896 0.999333 15,825 96 408 -1920
2019-02-21 05:52:23 GMT 49.343582 0.987784 15,900 96 408 -1856
2019-02-21 05:52:16 GMT 49.345001 0.967520 16,125 95 410 -1984
2019-02-21 05:52:13 GMT 49.345596 0.958980 16,225 95 411 -1984
2019-02-21 05:52:10 GMT 49.346165 0.950317 16,675 95 411 -1984
2019-02-21 05:52:07 GMT 49.346832 0.941444 16,425 95 412 -1984
2019-02-21 05:52:03 GMT 49.347473 0.929824 16,475 95 415 -1984
2019-02-21 05:52:00 GMT 49.348026 0.923936 16,675 95 415 -1984
2019-02-21 05:51:56 GMT 49.348801 0.912358 17,075 96 419 -1920
2019-02-21 05:51:53 GMT 49.349670 0.900597 16,900 96 416 -2048
2019-02-21 05:51:49 GMT 49.350262 0.891989 18,300 96 421 -2048
2019-02-21 05:51:45 GMT 49.351425 0.874136 17,150 96 419 -1920
2019-02-21 05:51:42 GMT 49.351845 0.868354 17,225 96 419 -1920
2019-02-21 05:51:39 GMT 49.352402 0.862354 17,275 96 419 -1920
2019-02-21 05:51:36 GMT 49.353790 0.841792 17,450 96 420 -1984
2019-02-21 05:51:33 GMT 49.353790 0.841792 17,700 96 421 -2048
2019-02-21 05:51:28 GMT 49.354916 0.826721 17,625 96 422 -1984
2019-02-21 05:51:25 GMT 49.355484 0.817848 17,775 96 422 -1920
2019-02-21 05:51:22 GMT 49.356033 0.811932 18,850 95 427 -1856
2019-02-21 05:51:19 GMT 49.356812 0.799889 17,950 96 423 -1856
2019-02-21 05:51:15 GMT 49.357681 0.788128 18,075 96 424 -1920
2019-02-21 05:51:12 GMT 49.358231 0.782142 18,150 96 424 -1984
2019-02-21 05:51:06 GMT 49.359615 0.761237 18,450 96 426 -2048
2019-02-21 05:51:02 GMT 49.360500 0.749094 18,850 95 427 -1856
2019-02-21 05:50:56 GMT 49.361713 0.731169 18,700 95 427 -1920
2019-02-21 05:50:52 GMT 49.362644 0.719243 18,825 95 427 -1856
2019-02-21 05:50:48 GMT 49.363297 0.707100 18,900 95 428 -1856
2019-02-21 05:50:45 GMT 49.363953 0.698054 19,025 96 429 -1920
2019-02-21 05:50:42 GMT 49.364643 0.688886 19,075 96 429 -1920
2019-02-21 05:50:39 GMT 49.365326 0.679814 19,350 96 431 -1920
2019-02-21 05:50:34 GMT 49.366196 0.667701 19,575 96 433 -1984
2019-02-21 05:50:31 GMT 49.366879 0.658529 20,325 96 437 -1920
2019-02-21 05:50:27 GMT 49.368301 0.637207 19,875 95 437 -1920
2019-02-21 05:50:21 GMT 49.369022 0.628028 19,800 96 435 -1920
2019-02-21 05:50:18 GMT 49.369766 0.615523 19,925 96 436 -1920
2019-02-21 05:50:15 GMT 49.370373 0.609380 20,000 96 436 -1920
2019-02-21 05:50:10 GMT 49.371368 0.594177 20,850 95 437 -1920
2019-02-21 05:50:07 GMT 49.372238 0.581782 20,250 96 437 -1920
2019-02-21 05:50:04 GMT 49.372978 0.572518 20,425 96 437 -1920
2019-02-21 05:50:01 GMT 49.373566 0.563261 20,450 96 437 -1920
2019-02-21 05:49:55 GMT 49.374748 0.547799 20,625 96 438 -1920
2019-02-21 05:49:52 GMT 49.375397 0.538682 20,725 96 438 -1920
2019-02-21 05:49:49 GMT 49.377090 0.513822 23,375 95 433 -1856
2019-02-21 05:49:45 GMT 49.377090 0.513822 23,375 95 433 -1856
2019-02-21 05:49:42 GMT 49.377457 0.507766 21,225 95 435 -1856
2019-02-21 05:49:38 GMT 49.378330 0.492361 21,300 95 433 -1920
2019-02-21 05:49:35 GMT 49.378967 0.483187 21,275 95 434 -1856
2019-02-21 05:49:31 GMT 49.379883 0.471074 21,425 95 433 -1856
2019-02-21 05:49:28 GMT 49.380295 0.464947 21,475 95 433 -1856
2019-02-21 05:49:25 GMT 49.381592 0.443573 21,675 95 433 -1920
2019-02-21 05:49:22 GMT 49.381592 0.443573 22,925 95 439 -1792
2019-02-21 05:49:19 GMT 49.382217 0.434171 21,825 95 433 -1984
2019-02-21 05:49:16 GMT 49.382755 0.425287 21,875 95 433 -1920
2019-02-21 05:49:13 GMT 49.383499 0.415931 21,975 95 433 -1856
2019-02-21 05:49:09 GMT 49.384323 0.403607 22,125 96 434 -1856
2019-02-21 05:49:05 GMT 49.384987 0.394640 22,200 96 434 -1856
2019-02-21 05:49:02 GMT 49.385826 0.382425 22,375 96 435 -1856
2019-02-21 05:48:58 GMT 49.386616 0.369921 22,375 96 435 -1856
2019-02-21 05:48:55 GMT 49.387253 0.360788 22,550 95 436 -1856
2019-02-21 05:48:52 GMT 49.387966 0.351635 22,625 95 437 -1856
2019-02-21 05:48:47 GMT 49.388805 0.339420 22,750 95 437 -1856
2019-02-21 05:48:44 GMT 49.389599 0.326916 22,800 95 438 -1856
2019-02-21 05:48:41 GMT 49.390762 0.308412 22,975 95 438 -1792
2019-02-21 05:48:38 GMT 49.390762 0.308412 23,025 95 438 -1792
2019-02-21 05:48:35 GMT 49.391273 0.302196 23,125 95 438 -1792
2019-02-21 05:48:32 GMT 49.392151 0.286771 23,200 95 438 -1792
2019-02-21 05:48:27 GMT 49.392929 0.274447 23,375 95 438 -1856
2019-02-21 05:48:24 GMT 49.393505 0.265190 23,425 95 438 -1856
2019-02-21 05:48:21 GMT 49.394165 0.255925 23,750 95 438 -1856
2019-02-21 05:48:18 GMT 49.394718 0.246397 23,800 95 439 -1856
2019-02-21 05:48:14 GMT 49.395508 0.234255 23,800 95 439 -1856
2019-02-21 05:48:11 GMT 49.396347 0.221823 23,875 95 439 -1792
2019-02-21 05:48:08 GMT 49.396812 0.215679 23,900 95 439 -1792
2019-02-21 05:48:05 GMT 49.397415 0.206205 24,000 95 440 -1792
2019-02-21 05:48:02 GMT 49.398067 0.196814 24,125 95 440 -1792
2019-02-21 05:47:59 GMT 49.398651 0.187824 24,225 95 441 -1792
2019-02-21 05:47:55 GMT 49.399475 0.175359 24,475 95 442 -1856
2019-02-21 05:47:51 GMT 49.400444 0.162627 24,475 95 442 -1792
2019-02-21 05:47:46 GMT 49.401421 0.147014 24,825 95 443 -1792
2019-02-21 05:47:43 GMT 49.402584 0.128294 24,800 95 444 -1792
2019-02-21 05:47:40 GMT 49.403275 0.119089 24,950 95 444 -1856
2019-02-21 05:47:36 GMT 49.403275 0.119089 24,975 95 444 -1856
2019-02-21 05:47:33 GMT 49.403843 0.109574 24,950 95 444 -1856
2019-02-21 05:47:30 GMT 49.404739 0.093806 25,125 95 445 -1792
2019-02-21 05:47:27 GMT 49.405151 0.087750 25,850 95 446 -1792
2019-02-21 05:47:23 GMT 49.405930 0.075003 25,750 95 446 -1792
2019-02-21 05:47:20 GMT 49.406681 0.065629 25,400 95 446 -1792
2019-02-21 05:47:17 GMT 49.407257 0.056199 25,500 95 447 -1792
2019-02-21 05:47:14 GMT 49.407799 0.046692 25,550 95 447 -1792
2019-02-21 05:47:11 GMT 49.408264 0.040404 25,750 95 452 -1856
2019-02-21 05:47:07 GMT 49.409271 0.024719 25,875 95 448 -1856
2019-02-21 05:47:03 GMT 49.410141 0.011761 26,100 95 449 -1792
2019-02-21 05:47:00 GMT 49.411476 -0.010408 26,100 95 449 -1792
2019-02-21 05:46:56 GMT 49.411476 -0.010408 26,150 95 449 -1792
2019-02-21 05:46:53 GMT 49.411972 -0.019719 26,325 95 460 64
2019-02-21 05:46:49 GMT 49.412796 -0.032607 26,350 95 449 -1856
2019-02-21 05:46:46 GMT 49.413383 -0.041849 26,425 95 449 -1856
2019-02-21 05:46:43 GMT 49.413940 -0.051692 26,700 95 451 -1792
2019-02-21 05:46:40 GMT 49.414764 -0.064228 26,625 95 451 -1792
2019-02-21 05:46:37 GMT 49.415062 -0.067436 26,675 95 451 -1792
2019-02-21 05:46:34 GMT 49.415760 -0.080157 26,775 95 451 -1792
2019-02-21 05:46:31 GMT 49.416367 -0.089863 26,875 95 452 -1920
2019-02-21 05:46:28 GMT 49.416924 -0.099311 26,950 95 452 -1920
2019-02-21 05:46:25 GMT 49.417763 -0.112104 27,100 95 453 -1920
2019-02-21 05:46:22 GMT 49.418274 -0.118609 27,300 95 453 -1792
2019-02-21 05:46:19 GMT 49.418926 -0.131402 27,250 95 454 -1728
2019-02-21 05:46:14 GMT 49.419762 -0.144268 27,400 95 455 -1280
2019-02-21 05:46:11 GMT 49.420277 -0.150701 27,400 95 457 -1408
2019-02-21 05:46:08 GMT 49.421066 -0.163422 27,500 95 458 -1984
2019-02-21 05:46:04 GMT 49.421856 -0.176432 27,600 95 459 -2176
2019-02-21 05:46:01 GMT 49.422417 -0.182792 27,725 95 460 -2048
2019-02-21 05:45:58 GMT 49.423302 -0.195875 27,950 95 461 -832
2019-02-21 05:45:55 GMT 49.423767 -0.202235 27,950 94 455 0
2019-02-21 05:45:52 GMT 49.424423 -0.212050 28,000 95 460 0
2019-02-21 05:45:49 GMT 49.425110 -0.225079 28,000 95 460 0
2019-02-21 05:45:46 GMT 49.425816 -0.235050 28,000 95 460 64
2019-02-21 05:45:42 GMT 49.426712 -0.247967 28,000 95 460 64
2019-02-21 05:45:38 GMT 49.427444 -0.260925 28,000 95 460 0
2019-02-21 05:45:34 GMT 49.428234 -0.273767 28,000 95 460 0
2019-02-21 05:45:30 GMT 49.428909 -0.283765 28,000 95 460 64
2019-02-21 05:45:27 GMT 49.429596 -0.296775 28,000 95 460 64
2019-02-21 05:45:23 GMT 49.430511 -0.309786 28,000 95 457 0
2019-02-21 05:45:20 GMT 49.431026 -0.319420 28,000 95 459 64
2019-02-21 05:45:16 GMT 49.431725 -0.332411 28,000 95 458 64
2019-02-21 05:45:13 GMT 49.432564 -0.345253 28,000 95 457 64
2019-02-21 05:45:10 GMT 49.433212 -0.354815 28,000 95 457 64
2019-02-21 05:45:07 GMT 49.433624 -0.361248 27,975 95 457 64
2019-02-21 05:45:03 GMT 49.434402 -0.374475 27,975 95 455 0
2019-02-21 05:45:00 GMT 49.435730 -0.397067 27,975 95 457 0
2019-02-21 05:44:57 GMT 49.435730 -0.397067 28,000 95 455 0
2019-02-21 05:44:54 GMT 49.436150 -0.403525 27,975 95 457 0
2019-02-21 05:44:51 GMT 49.436691 -0.413216 27,975 95 456 0
2019-02-21 05:44:48 GMT 49.438057 -0.435742 27,975 95 456 0
2019-02-21 05:44:45 GMT 49.438057 -0.435742 27,975 95 456 0
2019-02-21 05:44:41 GMT 49.438797 -0.445308 27,975 95 456 0
2019-02-21 05:44:35 GMT 49.439850 -0.464751 27,975 95 455 0
2019-02-21 05:44:32 GMT 49.440434 -0.474416 27,975 95 455 0
2019-02-21 05:44:29 GMT 49.440899 -0.480875 27,975 95 455 0
2019-02-21 05:44:26 GMT 49.441547 -0.493494 27,975 95 455 0
2019-02-21 05:44:23 GMT 49.442062 -0.500175 27,975 95 455 0
2019-02-21 05:44:20 GMT 49.442806 -0.512794 27,975 95 455 0
2019-02-21 05:44:16 GMT 49.443596 -0.525636 27,975 94 455 0
2019-02-21 05:44:13 GMT 49.444435 -0.538479 27,975 95 455 -64
2019-02-21 05:44:09 GMT 49.444977 -0.548160 27,975 95 455 0
2019-02-21 05:44:06 GMT 49.445366 -0.557853 28,000 95 455 0
2019-02-21 05:44:03 GMT 49.446030 -0.567531 28,000 95 455 0
2019-02-21 05:44:00 GMT 49.446575 -0.577228 27,975 94 455 0
2019-02-21 05:43:56 GMT 49.448067 -0.603060 28,000 94 455 0
2019-02-21 05:43:52 GMT 49.448067 -0.603060 28,000 94 455 0
2019-02-21 05:43:49 GMT 49.448685 -0.612777 28,000 94 455 0
2019-02-21 05:43:46 GMT 49.449139 -0.622286 28,000 95 455 -64
2019-02-21 05:43:43 GMT 49.449692 -0.632003 28,000 95 455 -64
2019-02-21 05:43:40 GMT 49.450104 -0.638508 28,000 94 455 0
2019-02-21 05:43:37 GMT 49.450745 -0.651229 28,000 94 455 0
2019-02-21 05:43:34 GMT 49.451324 -0.660813 28,000 94 455 0
2019-02-21 05:43:31 GMT 49.451790 -0.667345 28,000 94 455 -64
2019-02-21 05:43:28 GMT 49.452396 -0.680262 28,000 94 455 0
2019-02-21 05:43:24 GMT 49.453140 -0.693178 28,000 94 455 0
2019-02-21 05:43:21 GMT 49.453606 -0.699636 28,000 94 455 0
2019-02-21 05:43:18 GMT 49.454212 -0.712552 28,000 94 455 0
2019-02-21 05:43:15 GMT 49.454678 -0.719011 28,000 94 455 0
2019-02-21 05:43:12 GMT 49.455746 -0.738162 28,000 94 455 0
2019-02-21 05:43:09 GMT 49.455746 -0.738162 28,000 94 455 0
2019-02-21 05:43:06 GMT 49.456238 -0.747865 28,000 94 455 0
2019-02-21 05:43:03 GMT 49.457016 -0.760876 28,000 94 455 0
2019-02-21 05:42:59 GMT 49.457703 -0.773741 28,000 94 455 0
2019-02-21 05:42:56 GMT 49.458481 -0.786534 28,000 94 455 0
2019-02-21 05:42:53 GMT 49.458912 -0.796063 28,000 94 455 0
2019-02-21 05:42:50 GMT 49.459377 -0.802744 28,000 94 455 0
2019-02-21 05:42:46 GMT 49.459946 -0.812265 28,000 94 455 0
2019-02-21 05:42:43 GMT 49.460541 -0.825348 28,000 94 456 0
2019-02-21 05:42:39 GMT 49.461193 -0.834738 28,000 94 455 -64
2019-02-21 05:42:36 GMT 49.461845 -0.847729 28,000 94 456 0
2019-02-21 05:42:33 GMT 49.462418 -0.857584 28,000 94 456 0
2019-02-21 05:42:30 GMT 49.462963 -0.867178 28,000 94 456 0
2019-02-21 05:42:27 GMT 49.463470 -0.876882 28,000 94 456 0
2019-02-21 05:42:23 GMT 49.464157 -0.889603 28,000 94 456 0
2019-02-21 05:42:20 GMT 49.464733 -0.899246 28,000 94 456 0
2019-02-21 05:42:17 GMT 49.465347 -0.908974 28,000 94 456 0
2019-02-21 05:42:13 GMT 49.465988 -0.921912 28,000 94 456 64
2019-02-21 05:42:10 GMT 49.466549 -0.931611 28,000 94 456 0
2019-02-21 05:42:07 GMT 49.467133 -0.941210 28,000 94 456 0
2019-02-21 05:42:03 GMT 49.467911 -0.954148 28,000 94 456 0
2019-02-21 05:42:00 GMT 49.468365 -0.963976 28,000 94 457 0
2019-02-21 05:41:57 GMT 49.469109 -0.976744 28,000 94 457 0
2019-02-21 05:41:52 GMT 49.470409 -1.002799 28,000 94 457 0
2019-02-21 05:41:49 GMT 49.470409 -1.002799 28,000 94 457 0
2019-02-21 05:41:43 GMT 49.471344 -1.018765 28,000 94 457 0
2019-02-21 05:41:40 GMT 49.471714 -1.025514 28,000 94 457 0
2019-02-21 05:41:36 GMT 49.472626 -1.044713 28,000 94 457 0
2019-02-21 05:41:32 GMT 49.473404 -1.057723 28,000 94 457 0
2019-02-21 05:41:29 GMT 49.473724 -1.064011 28,000 94 456 0
2019-02-21 05:41:26 GMT 49.474091 -1.070733 28,000 94 456 64
2019-02-21 05:41:23 GMT 49.474777 -1.083671 28,000 94 456 0
2019-02-21 05:41:20 GMT 49.475300 -1.093140 28,000 94 456 0
2019-02-21 05:41:17 GMT 49.475784 -1.102897 28,000 94 456 0
2019-02-21 05:41:14 GMT 49.476196 -1.109475 28,000 94 456 0
2019-02-21 05:41:11 GMT 49.476791 -1.122123 28,000 94 456 0
2019-02-21 05:41:08 GMT 49.477394 -1.131963 28,000 94 457 0
2019-02-21 05:41:02 GMT 49.478466 -1.151263 28,000 94 457 0
2019-02-21 05:40:59 GMT 49.479034 -1.161081 28,000 94 457 0
2019-02-21 05:40:56 GMT 49.479584 -1.170786 28,000 95 457 0
2019-02-21 05:40:52 GMT 49.480179 -1.180452 28,000 95 457 0
2019-02-21 05:40:49 GMT 49.480747 -1.190309 28,000 95 457 0
2019-02-21 05:40:46 GMT 49.481323 -1.199823 28,000 94 456 0
2019-02-21 05:40:43 GMT 49.482056 -1.212905 28,000 94 456 -64
2019-02-21 05:40:40 GMT 49.482513 -1.222526 28,000 94 456 0
2019-02-21 05:40:37 GMT 49.483063 -1.232131 28,000 94 456 0
2019-02-21 05:40:34 GMT 49.483585 -1.241826 28,000 94 456 -128
2019-02-21 05:40:31 GMT 49.484051 -1.248359 29,950 94 482 64
2019-02-21 05:40:28 GMT 49.484657 -1.261349 28,025 94 455 -192
2019-02-21 05:40:25 GMT 49.485168 -1.271089 28,025 94 455 -192
2019-02-21 05:40:21 GMT 49.485855 -1.283955 28,025 94 454 -128
2019-02-21 05:40:18 GMT 49.486332 -1.293343 28,025 94 454 -64
2019-02-21 05:40:15 GMT 49.486816 -1.303036 28,300 94 456 -1408
2019-02-21 05:40:11 GMT 49.487457 -1.315974 28,050 94 455 -768
2019-02-21 05:40:08 GMT 49.488602 -1.335200 28,250 94 456 -1472
2019-02-21 05:40:01 GMT 49.489197 -1.348283 28,250 94 456 -1408
2019-02-21 05:39:58 GMT 49.489655 -1.354788 28,300 94 457 -1408
2019-02-21 05:39:55 GMT 49.490250 -1.367581 28,425 94 458 -1408
2019-02-21 05:39:52 GMT 49.490803 -1.377448 28,475 94 458 -1408
2019-02-21 05:39:49 GMT 49.491302 -1.387241 28,550 94 458 -1408
2019-02-21 05:39:46 GMT 49.491825 -1.396897 28,600 94 459 -1408
2019-02-21 05:39:42 GMT 49.492569 -1.409887 28,725 94 459 -1408
2019-02-21 05:39:38 GMT 49.493176 -1.422952 28,775 94 459 -1408
2019-02-21 05:39:35 GMT 49.493919 -1.436017 28,925 94 460 -1344
2019-02-21 05:39:32 GMT 49.494232 -1.442534 29,025 94 461 -1344
2019-02-21 05:39:29 GMT 49.494644 -1.452219 29,000 94 461 -1344
2019-02-21 05:39:26 GMT 49.495083 -1.461924 29,325 94 462 -1344
2019-02-21 05:39:23 GMT 49.495560 -1.471879 29,150 94 463 -1344
2019-02-21 05:39:20 GMT 49.496014 -1.481670 29,300 94 467 -1344
2019-02-21 05:39:17 GMT 49.496475 -1.491683 29,275 94 466 -1344
2019-02-21 05:39:14 GMT 49.497025 -1.501585 29,450 94 473 -1472
2019-02-21 05:39:11 GMT 49.497318 -1.508245 29,400 94 468 -1344
2019-02-21 05:39:08 GMT 49.498398 -1.531653 29,500 94 473 -1472
2019-02-21 05:39:05 GMT 49.498398 -1.531653 29,550 94 479 -1408
2019-02-21 05:39:02 GMT 49.498856 -1.538309 29,650 94 475 -1472
2019-02-21 05:38:59 GMT 49.499367 -1.548478 29,725 94 477 -1536
2019-02-21 05:38:56 GMT 49.500065 -1.561766 29,975 94 482 64
2019-02-21 05:38:53 GMT 49.500439 -1.568669 29,850 94 480 -640
2019-02-21 05:38:49 GMT 49.501137 -1.582105 29,950 94 481 -576
2019-02-21 05:38:46 GMT 49.501789 -1.595690 29,975 94 482 -320
2019-02-21 05:38:43 GMT 49.502243 -1.605883 30,000 94 482 64
2019-02-21 05:38:40 GMT 49.502766 -1.616252 30,000 94 482 64
2019-02-21 05:38:37 GMT 49.503231 -1.623230 29,950 93 483 0
2019-02-21 05:38:34 GMT 49.503742 -1.636740 29,975 94 482 64
2019-02-21 05:38:31 GMT 49.504349 -1.647082 29,975 94 482 64
2019-02-21 05:38:28 GMT 49.505402 -1.667464 29,975 94 482 64
2019-02-21 05:38:25 GMT 49.505402 -1.667464 29,975 94 482 64
2019-02-21 05:38:21 GMT 49.505905 -1.681053 29,975 94 482 64
2019-02-21 05:38:18 GMT 49.506489 -1.691449 29,975 94 482 64
2019-02-21 05:38:15 GMT 49.506958 -1.701435 29,975 94 482 0
2019-02-21 05:38:11 GMT 49.507553 -1.715096 29,975 94 482 0
2019-02-21 05:38:08 GMT 49.508118 -1.725670 29,975 94 482 64
2019-02-21 05:38:05 GMT 49.508678 -1.739329 29,950 94 482 0
2019-02-21 05:38:02 GMT 49.509190 -1.746084 29,950 94 482 0
2019-02-21 05:37:59 GMT 49.509659 -1.756367 29,950 94 482 0
2019-02-21 05:37:56 GMT 49.510029 -1.766572 29,950 94 482 0
2019-02-21 05:37:53 GMT 49.510620 -1.776605 29,950 94 482 0
2019-02-21 05:37:50 GMT 49.511097 -1.786911 29,950 94 482 0
2019-02-21 05:37:45 GMT 49.512077 -1.807325 29,950 94 482 0
2019-02-21 05:37:42 GMT 49.512402 -1.814377 29,950 94 483 0
2019-02-21 05:37:39 GMT 49.513054 -1.827962 29,950 94 483 0
2019-02-21 05:37:36 GMT 49.513378 -1.834717 29,950 94 483 0
2019-02-21 05:37:33 GMT 49.513916 -1.845125 29,950 94 483 0
2019-02-21 05:37:29 GMT 49.514404 -1.855279 29,950 93 483 0
2019-02-21 05:37:26 GMT 49.515007 -1.869012 29,950 94 483 0
2019-02-21 05:37:23 GMT 49.515846 -1.886308 29,950 93 483 0
2019-02-21 05:37:20 GMT 49.515846 -1.886308 29,950 93 483 0
2019-02-21 05:37:17 GMT 49.516388 -1.899695 29,950 93 483 0
2019-02-21 05:37:14 GMT 49.516918 -1.910211 29,950 93 483 0
2019-02-21 05:37:11 GMT 49.517303 -1.920367 29,950 93 483 0
2019-02-21 05:37:08 GMT 49.517803 -1.930476 29,975 93 483 0
2019-02-21 05:37:04 GMT 49.518684 -1.951112 29,975 93 482 0
2019-02-21 05:36:58 GMT 49.519245 -1.964623 29,975 93 482 0
2019-02-21 05:36:55 GMT 49.519638 -1.975154 29,975 93 481 0
2019-02-21 05:36:52 GMT 49.520130 -1.985408 29,975 93 481 0
2019-02-21 05:36:48 GMT 49.520687 -1.998918 29,975 93 481 0
2019-02-21 05:36:45 GMT 49.521057 -2.009197 29,975 93 481 0
2019-02-21 05:36:42 GMT 49.521526 -2.019629 29,975 93 481 0
2019-02-21 05:36:39 GMT 49.521927 -2.029869 29,975 93 481 -64
2019-02-21 05:36:36 GMT 49.522316 -2.039894 29,975 93 481 0
2019-02-21 05:36:33 GMT 49.522923 -2.053850 29,975 93 481 -64
2019-02-21 05:36:30 GMT 49.523247 -2.060530 29,975 93 481 0
2019-02-21 05:36:26 GMT 49.523808 -2.074041 29,975 93 481 0
2019-02-21 05:36:23 GMT 49.524216 -2.084367 29,975 93 481 0
2019-02-21 05:36:20 GMT 49.524597 -2.094677 29,975 93 481 0
2019-02-21 05:36:17 GMT 49.524994 -2.104821 29,975 93 481 0
2019-02-21 05:36:14 GMT 49.525436 -2.115314 29,975 93 481 0
2019-02-21 05:36:11 GMT 49.525772 -2.125349 29,975 93 481 0
2019-02-21 05:36:07 GMT 49.526741 -2.149238 29,975 93 481 0
2019-02-21 05:36:04 GMT 49.526741 -2.149238 29,975 94 482 0
2019-02-21 05:36:01 GMT 49.527145 -2.159825 29,975 93 482 0
2019-02-21 05:35:58 GMT 49.527786 -2.173414 29,975 93 482 0
2019-02-21 05:35:55 GMT 49.528015 -2.179991 29,975 94 482 0
2019-02-21 05:35:52 GMT 49.528557 -2.190436 29,975 94 482 0
2019-02-21 05:35:49 GMT 49.529114 -2.200735 29,975 95 481 0
2019-02-21 05:35:46 GMT 49.529625 -2.210924 29,975 95 482 0
2019-02-21 05:35:43 GMT 49.530231 -2.217679 29,975 95 482 0
2019-02-21 05:35:40 GMT 49.531071 -2.231412 29,975 96 482 0
2019-02-21 05:35:36 GMT 49.532001 -2.245145 29,975 96 483 -64
2019-02-21 05:35:33 GMT 49.532776 -2.255305 29,975 96 483 -64
2019-02-21 05:35:30 GMT 49.533535 -2.265336 30,000 96 482 0
2019-02-21 05:35:26 GMT 49.534607 -2.278995 30,000 96 483 -64
2019-02-21 05:35:22 GMT 49.535843 -2.296143 30,000 96 482 0
2019-02-21 05:35:19 GMT 49.536484 -2.302792 30,000 96 482 -64
2019-02-21 05:35:16 GMT 49.537121 -2.312993 30,000 96 482 -64
2019-02-21 05:35:13 GMT 49.537949 -2.323247 30,000 96 482 0
2019-02-21 05:35:09 GMT 49.539169 -2.340459 30,000 96 482 0
2019-02-21 05:35:06 GMT 49.539822 -2.347066 30,000 96 482 0
2019-02-21 05:35:03 GMT 49.540604 -2.357218 30,000 96 482 0
2019-02-21 05:35:00 GMT 49.541264 -2.367331 30,000 96 482 -64
2019-02-21 05:34:56 GMT 49.542480 -2.384611 30,000 96 482 -64
2019-02-21 05:34:53 GMT 49.542984 -2.391189 30,000 96 482 -64
2019-02-21 05:34:50 GMT 49.543777 -2.401403 30,000 96 482 -64
2019-02-21 05:34:47 GMT 49.544495 -2.411644 30,000 96 482 0
2019-02-21 05:34:43 GMT 49.545456 -2.425376 30,000 96 482 0
2019-02-21 05:34:40 GMT 49.546291 -2.435402 30,000 96 482 0
2019-02-21 05:34:37 GMT 49.547104 -2.445614 30,000 96 482 0
2019-02-21 05:34:33 GMT 49.547974 -2.459275 30,000 96 482 0
2019-02-21 05:34:30 GMT 49.549576 -2.479730 30,000 96 481 0
2019-02-21 05:34:27 GMT 49.549576 -2.479730 30,000 96 481 0
2019-02-21 05:34:24 GMT 49.550434 -2.490111 30,000 96 481 64
2019-02-21 05:34:21 GMT 49.551086 -2.500112 30,000 96 481 0
2019-02-21 05:34:18 GMT 49.551636 -2.507123 30,000 96 481 0
2019-02-21 05:34:15 GMT 49.552551 -2.520640 30,000 96 481 0
2019-02-21 05:34:12 GMT 49.553368 -2.530790 30,000 96 481 0
2019-02-21 05:34:08 GMT 49.554977 -2.554827 30,000 96 481 0
2019-02-21 05:34:05 GMT 49.554977 -2.554827 30,000 96 481 0
2019-02-21 05:34:01 GMT 49.555939 -2.568199 30,000 96 481 64
2019-02-21 05:33:58 GMT 49.556812 -2.578595 30,000 96 481 64
2019-02-21 05:33:55 GMT 49.557323 -2.585499 30,000 96 481 0
2019-02-21 05:33:52 GMT 49.558208 -2.598860 30,000 96 481 0
2019-02-21 05:33:49 GMT 49.559139 -2.612593 30,000 96 481 0
2019-02-21 05:33:46 GMT 49.559605 -2.619348 30,000 96 481 0
2019-02-21 05:33:42 GMT 49.560581 -2.633156 30,000 96 481 0
2019-02-21 05:33:39 GMT 49.561340 -2.643079 30,000 96 481 0
2019-02-21 05:33:36 GMT 49.562119 -2.653421 30,000 96 481 0
2019-02-21 05:33:33 GMT 49.562851 -2.663751 30,000 96 481 0
2019-02-21 05:33:30 GMT 49.563904 -2.677339 30,000 96 481 0
2019-02-21 05:33:27 GMT 49.564316 -2.684133 30,000 96 481 0
2019-02-21 05:33:24 GMT 49.564911 -2.694323 30,000 96 481 0
2019-02-21 05:33:21 GMT 49.565563 -2.700929 30,000 96 481 0
2019-02-21 05:33:18 GMT 49.566357 -2.711470 30,000 96 481 0
2019-02-21 05:33:14 GMT 49.567474 -2.728247 30,000 96 481 0
2019-02-21 05:33:10 GMT 49.568542 -2.742128 30,000 96 481 0
2019-02-21 05:33:07 GMT 49.569260 -2.752003 30,000 96 481 0
2019-02-21 05:33:04 GMT 49.569801 -2.762393 30,000 96 481 0
2019-02-21 05:33:00 GMT 49.570824 -2.775978 30,000 95 481 0
2019-02-21 05:32:56 GMT 49.572781 -2.803221 30,000 96 481 0
2019-02-21 05:32:52 GMT 49.572781 -2.803221 30,000 95 481 0
2019-02-21 05:32:49 GMT 49.573380 -2.813367 30,000 96 481 0
2019-02-21 05:32:44 GMT 49.574936 -2.833967 30,000 95 481 0
2019-02-21 05:32:41 GMT 49.575256 -2.840616 30,000 95 480 0
2019-02-21 05:32:38 GMT 49.575947 -2.851026 30,000 95 481 0
2019-02-21 05:32:35 GMT 49.576721 -2.860927 30,000 95 481 0
2019-02-21 05:32:32 GMT 49.577480 -2.871292 30,000 95 480 0
2019-02-21 05:32:29 GMT 49.578003 -2.878201 30,000 95 480 0
2019-02-21 05:32:26 GMT 49.578785 -2.891705 30,000 95 480 0
2019-02-21 05:32:23 GMT 49.579422 -2.901764 30,000 95 480 0
2019-02-21 05:32:20 GMT 49.580135 -2.912194 30,000 95 480 0
2019-02-21 05:32:17 GMT 49.580887 -2.922363 30,000 95 480 0
2019-02-21 05:32:13 GMT 49.581802 -2.936024 30,000 95 480 0
2019-02-21 05:32:10 GMT 49.582462 -2.945969 30,000 95 480 0
2019-02-21 05:32:07 GMT 49.583176 -2.956190 30,000 95 480 0
2019-02-21 05:32:03 GMT 49.584091 -2.969923 30,000 95 480 0
2019-02-21 05:31:58 GMT 49.585255 -2.986945 30,000 95 480 0
2019-02-21 05:31:55 GMT 49.585968 -2.996882 30,000 95 480 0
2019-02-21 05:31:52 GMT 49.586517 -3.003893 30,000 95 479 0
2019-02-21 05:31:49 GMT 49.587387 -3.017337 30,000 96 479 0
2019-02-21 05:31:45 GMT 49.588188 -3.027476 30,000 96 479 0
2019-02-21 05:31:42 GMT 49.588898 -3.037864 30,000 96 479 0
2019-02-21 05:31:39 GMT 49.590637 -3.065041 30,000 96 479 0
2019-02-21 05:31:35 GMT 49.590637 -3.065041 30,000 96 479 0
2019-02-21 05:31:32 GMT 49.591278 -3.071835 30,000 96 479 -64
2019-02-21 05:31:28 GMT 49.592285 -3.088717 30,000 96 479 0
2019-02-21 05:31:25 GMT 49.593018 -3.098940 30,000 96 479 0
2019-02-21 05:31:22 GMT 49.593658 -3.105734 30,000 96 479 0
2019-02-21 05:31:18 GMT 49.594986 -3.125972 30,000 96 479 0
2019-02-21 05:31:15 GMT 49.595490 -3.132766 30,000 96 478 0
2019-02-21 05:31:12 GMT 49.596291 -3.142906 30,000 96 479 0
2019-02-21 05:31:08 GMT 49.596954 -3.153076 30,000 96 479 0
2019-02-21 05:31:05 GMT 49.597824 -3.166665 30,000 96 478 0
2019-02-21 05:31:02 GMT 49.598522 -3.176830 30,000 96 478 0
2019-02-21 05:30:59 GMT 49.599243 -3.187047 30,000 96 478 0
2019-02-21 05:30:56 GMT 49.600014 -3.197021 30,000 96 478 0
2019-02-21 05:30:52 GMT 49.600945 -3.210532 30,025 96 478 0
2019-02-21 05:30:47 GMT 49.602081 -3.227523 30,025 96 478 0
2019-02-21 05:30:44 GMT 49.602585 -3.234245 30,025 96 478 -64
2019-02-21 05:30:41 GMT 49.603317 -3.244530 30,025 96 478 -64
2019-02-21 05:30:37 GMT 49.604416 -3.261638 30,025 96 478 -64
2019-02-21 05:30:34 GMT 49.605228 -3.271625 30,025 95 478 -64
2019-02-21 05:30:31 GMT 49.605644 -3.278380 30,025 95 478 -64
2019-02-21 05:30:27 GMT 49.606750 -3.295248 30,025 95 478 -64
2019-02-21 05:30:24 GMT 49.607300 -3.302042 30,025 95 478 0
2019-02-21 05:30:21 GMT 49.609039 -3.329219 30,025 95 477 0
2019-02-21 05:30:17 GMT 49.609039 -3.329219 30,025 95 477 0
2019-02-21 05:30:14 GMT 49.609882 -3.339398 30,025 95 477 0
2019-02-21 05:30:11 GMT 49.610367 -3.349312 30,025 95 477 0
2019-02-21 05:30:08 GMT 49.611183 -3.359367 30,025 95 477 0
2019-02-21 05:30:04 GMT 49.612022 -3.373025 30,025 95 477 0
2019-02-21 05:30:00 GMT 49.612862 -3.386758 30,025 95 477 0
2019-02-21 05:29:57 GMT 49.614304 -3.406949 30,025 95 477 -64
2019-02-21 05:29:53 GMT 49.614304 -3.406949 30,025 95 477 0
2019-02-21 05:29:50 GMT 49.615097 -3.420237 30,025 95 477 0
2019-02-21 05:29:47 GMT 49.615814 -3.430553 30,025 95 477 0
2019-02-21 05:29:44 GMT 49.616447 -3.440651 30,025 95 477 -64
2019-02-21 05:29:41 GMT 49.617004 -3.447629 30,025 95 477 -64
2019-02-21 05:29:38 GMT 49.617798 -3.460768 30,025 95 476 0
2019-02-21 05:29:35 GMT 49.618469 -3.471101 30,025 95 476 0
2019-02-21 05:29:32 GMT 49.619705 -3.491339 30,025 95 476 0
2019-02-21 05:29:29 GMT 49.619705 -3.491339 30,025 95 476 0
2019-02-21 05:29:26 GMT 49.620495 -3.501595 30,025 95 476 0
2019-02-21 05:29:22 GMT 49.621380 -3.515031 30,025 95 476 0
2019-02-21 05:29:19 GMT 49.621902 -3.525093 30,025 95 476 0
2019-02-21 05:29:16 GMT 49.622589 -3.535000 30,025 95 476 0
2019-02-21 05:29:13 GMT 49.623962 -3.555523 30,025 95 476 -64
2019-02-21 05:29:10 GMT 49.623962 -3.555523 30,025 95 476 0
2019-02-21 05:29:06 GMT 49.624733 -3.568998 30,050 95 475 0
2019-02-21 05:29:03 GMT 49.625290 -3.578869 30,025 95 475 0
2019-02-21 05:29:00 GMT 49.625851 -3.588966 30,025 95 475 0
2019-02-21 05:28:56 GMT 49.626938 -3.606118 30,025 95 475 0
2019-02-21 05:28:53 GMT 49.627350 -3.612550 30,025 95 475 0
2019-02-21 05:28:50 GMT 49.627991 -3.622890 30,025 95 475 0
2019-02-21 05:28:47 GMT 49.628540 -3.633005 30,025 95 475 0
2019-02-21 05:28:43 GMT 49.629593 -3.646377 30,025 95 475 0
2019-02-21 05:28:40 GMT 49.630085 -3.656369 30,025 95 475 0
2019-02-21 05:28:37 GMT 49.631561 -3.679769 30,025 95 474 0
2019-02-21 05:28:33 GMT 49.631561 -3.679769 30,025 95 474 64
2019-02-21 05:28:30 GMT 49.632179 -3.686804 30,025 95 474 0
2019-02-21 05:28:27 GMT 49.632889 -3.700007 30,025 95 474 0
2019-02-21 05:28:24 GMT 49.633530 -3.710261 30,025 95 474 0
2019-02-21 05:28:21 GMT 49.634369 -3.720431 30,025 95 474 0
2019-02-21 05:28:15 GMT 49.635544 -3.740483 30,025 95 474 0
2019-02-21 05:28:12 GMT 49.636139 -3.747278 30,025 95 474 0
2019-02-21 05:28:08 GMT 49.637207 -3.764079 30,025 95 473 0
2019-02-21 05:28:05 GMT 49.638931 -3.790654 30,050 95 473 -64
2019-02-21 05:28:00 GMT 49.638931 -3.790654 30,050 95 473 -64
2019-02-21 05:27:57 GMT 49.640095 -3.807653 30,050 95 473 -64
2019-02-21 05:27:54 GMT 49.640095 -3.807653 30,050 95 472 -64
2019-02-21 05:27:48 GMT 49.641399 -3.831037 30,050 94 471 0
2019-02-21 05:27:44 GMT 49.642143 -3.844547 30,050 94 471 0
2019-02-21 05:27:40 GMT 49.642887 -3.857834 30,050 94 471 0
2019-02-21 05:27:37 GMT 49.643726 -3.871196 30,050 95 472 0
2019-02-21 05:27:34 GMT 49.643959 -3.877803 30,050 96 472 0
2019-02-21 05:27:31 GMT 49.644611 -3.884632 30,050 97 471 0
2019-02-21 05:27:28 GMT 49.645432 -3.894509 30,050 98 472 0
2019-02-21 05:27:25 GMT 49.646423 -3.904303 30,050 99 472 0
2019-02-21 05:27:22 GMT 49.647869 -3.917888 30,050 101 473 0
2019-02-21 05:27:19 GMT 49.649094 -3.927612 30,050 101 473 0
2019-02-21 05:27:15 GMT 49.650570 -3.937411 30,000 103 473 0
2019-02-21 05:27:12 GMT 49.652523 -3.950476 30,050 104 473 64
2019-02-21 05:27:09 GMT 49.654312 -3.960282 30,050 105 474 64
2019-02-21 05:27:06 GMT 49.656647 -3.973148 30,025 107 473 0
2019-02-21 05:27:02 GMT 49.658669 -3.982841 30,025 108 474 0
2019-02-21 05:26:59 GMT 49.661179 -3.992591 30,025 109 474 0
2019-02-21 05:26:55 GMT 49.663509 -4.001993 30,025 111 474 0
2019-02-21 05:26:51 GMT 49.666489 -4.014761 30,025 112 475 0
2019-02-21 05:26:48 GMT 49.673519 -4.039406 30,025 115 475 0
2019-02-21 05:26:44 GMT 49.673519 -4.039406 30,025 115 476 0
2019-02-21 05:26:41 GMT 49.676422 -4.048390 30,025 118 476 64
2019-02-21 05:26:38 GMT 49.680084 -4.057444 30,025 122 477 0
2019-02-21 05:26:34 GMT 49.683807 -4.069247 30,000 120 477 64
2019-02-21 05:26:31 GMT 49.687134 -4.078096 30,000 125 478 64
2019-02-21 05:26:28 GMT 49.690884 -4.086617 30,000 123 478 0
2019-02-21 05:26:24 GMT 49.695770 -4.097975 30,000 124 478 0
2019-02-21 05:26:21 GMT 49.699356 -4.106429 30,000 125 477 0
2019-02-21 05:26:18 GMT 49.703079 -4.114825 30,000 125 478 64
2019-02-21 05:26:15 GMT 49.705967 -4.120244 30,000 125 478 64
2019-02-21 05:26:12 GMT 49.710995 -4.131379 30,000 125 478 64
2019-02-21 05:26:08 GMT 49.716438 -4.142588 30,000 125 478 64
2019-02-21 05:26:05 GMT 49.721001 -4.153649 30,000 125 478 64
2019-02-21 05:26:01 GMT 49.729568 -4.170202 30,000 125 478 64
2019-02-21 05:25:57 GMT 49.729568 -4.170202 30,000 125 478 64
2019-02-21 05:25:54 GMT 49.733757 -4.181411 30,000 125 477 64
2019-02-21 05:25:50 GMT 49.739063 -4.192398 29,975 125 478 128
2019-02-21 05:25:47 GMT 49.742981 -4.200897 29,975 125 477 64
2019-02-21 05:25:44 GMT 49.747166 -4.209174 29,975 125 477 64
2019-02-21 05:25:40 GMT 49.752750 -4.220383 29,975 125 477 64
2019-02-21 05:25:37 GMT 49.756622 -4.228724 29,975 125 477 64
2019-02-21 05:25:33 GMT 49.760605 -4.239711 29,975 125 477 0
2019-02-21 05:25:30 GMT 49.764481 -4.248146 29,975 125 477 64
2019-02-21 05:25:27 GMT 49.771500 -4.261900 29,975 125 477 0
2019-02-21 05:25:24 GMT 49.771500 -4.261900 29,975 125 477 0
2019-02-21 05:25:21 GMT 49.775330 -4.270267 29,975 125 477 64
2019-02-21 05:25:18 GMT 49.780540 -4.281550 29,975 125 477 0
2019-02-21 05:25:15 GMT 49.784225 -4.289800 29,950 125 477 0
2019-02-21 05:25:11 GMT 49.789764 -4.301003 29,975 125 477 0
2019-02-21 05:25:07 GMT 49.794525 -4.311845 29,975 125 476 0
2019-02-21 05:25:02 GMT 49.800934 -4.325718 29,975 125 476 0
2019-02-21 05:24:59 GMT 49.803726 -4.331286 29,975 125 476 0
2019-02-21 05:24:56 GMT 49.808193 -4.342569 29,975 125 476 0
2019-02-21 05:24:53 GMT 49.812012 -4.350730 29,975 125 476 0
2019-02-21 05:24:50 GMT 49.815876 -4.359123 29,975 125 476 0
2019-02-21 05:24:46 GMT 49.820206 -4.367427 29,975 125 476 0
2019-02-21 05:24:43 GMT 49.825150 -4.378702 29,975 125 476 -64
2019-02-21 05:24:39 GMT 49.829189 -4.386960 29,975 125 476 0
2019-02-21 05:24:35 GMT 49.834496 -4.397946 29,975 125 476 -64
2019-02-21 05:24:32 GMT 49.838287 -4.406457 29,975 125 476 -64
2019-02-21 05:24:29 GMT 49.842270 -4.414574 29,975 125 476 -64
2019-02-21 05:24:26 GMT 49.847298 -4.425857 29,975 125 476 -64
2019-02-21 05:24:23 GMT 49.850967 -4.433995 29,975 125 475 -64
2019-02-21 05:24:19 GMT 49.855728 -4.445198 29,975 125 475 128
2019-02-21 05:24:15 GMT 49.860672 -4.456329 29,975 125 476 128
2019-02-21 05:24:12 GMT 49.864384 -4.464680 29,975 125 476 -64
2019-02-21 05:24:09 GMT 49.868134 -4.472881 29,975 125 475 0
2019-02-21 05:24:05 GMT 49.873352 -4.484012 29,975 125 476 0
2019-02-21 05:24:02 GMT 49.876953 -4.492443 29,975 125 476 0
2019-02-21 05:23:59 GMT 49.881180 -4.500853 29,975 125 476 0
2019-02-21 05:23:56 GMT 49.885658 -4.509071 29,975 125 476 0
2019-02-21 05:23:53 GMT 49.892315 -4.525625 29,975 125 476 0
2019-02-21 05:23:50 GMT 49.892315 -4.525625 29,975 125 476 0
2019-02-21 05:23:46 GMT 49.897064 -4.534029 29,975 125 476 0
2019-02-21 05:23:43 GMT 49.901138 -4.545160 29,975 125 476 0
2019-02-21 05:23:39 GMT 49.905537 -4.553462 29,975 125 476 0
2019-02-21 05:23:36 GMT 49.910378 -4.564819 29,975 125 476 -64
2019-02-21 05:23:33 GMT 49.914368 -4.573059 29,975 125 475 -64
2019-02-21 05:23:28 GMT 49.920479 -4.587089 29,975 125 476 0
2019-02-21 05:23:24 GMT 49.926346 -4.598224 29,975 125 476 0
2019-02-21 05:23:21 GMT 49.929382 -4.606669 29,975 125 476 0
2019-02-21 05:23:18 GMT 49.933186 -4.615074 29,975 125 476 0
2019-02-21 05:23:14 GMT 49.942108 -4.634424 29,975 125 476 0
2019-02-21 05:23:11 GMT 49.942108 -4.634424 29,975 125 476 0
2019-02-21 05:23:08 GMT 49.945896 -4.642763 29,975 125 476 0
2019-02-21 05:23:05 GMT 49.949707 -4.651120 29,975 125 477 0
2019-02-21 05:23:02 GMT 49.952774 -4.656758 29,975 125 477 0
2019-02-21 05:22:59 GMT 49.957352 -4.667961 29,975 125 477 0
2019-02-21 05:22:56 GMT 49.961399 -4.676390 29,975 125 477 0
2019-02-21 05:22:52 GMT 49.965546 -4.684874 29,975 125 477 0
2019-02-21 05:22:48 GMT 49.973373 -4.701642 29,975 125 477 0
2019-02-21 05:22:44 GMT 49.976715 -4.709943 29,975 125 477 0
2019-02-21 05:22:41 GMT 49.979321 -4.715659 29,975 125 478 0
2019-02-21 05:22:38 GMT 49.984814 -4.726868 29,975 125 477 0
2019-02-21 05:22:35 GMT 49.988525 -4.735180 29,975 125 477 0
2019-02-21 05:22:32 GMT 49.991192 -4.740972 29,975 124 478 0
2019-02-21 05:22:27 GMT 49.997818 -4.757731 29,975 124 478 0
2019-02-21 05:22:24 GMT 50.001572 -4.766062 29,975 124 478 0
2019-02-21 05:22:21 GMT 50.005508 -4.774571 29,975 124 478 0
2019-02-21 05:22:18 GMT 50.012924 -4.791340 29,975 124 478 0
2019-02-21 05:22:15 GMT 50.012924 -4.791340 29,975 124 477 0
2019-02-21 05:22:12 GMT 50.016701 -4.799689 29,975 124 478 0
2019-02-21 05:22:08 GMT 50.021301 -4.808326 29,975 124 478 0
2019-02-21 05:22:04 GMT 50.026756 -4.822478 29,975 124 478 0
2019-02-21 05:22:01 GMT 50.029831 -4.827897 29,975 124 478 0
2019-02-21 05:21:58 GMT 50.034485 -4.839478 29,975 124 479 0
2019-02-21 05:21:55 GMT 50.042351 -4.856105 29,975 124 479 -64
2019-02-21 05:21:52 GMT 50.042351 -4.856105 29,975 124 479 0
2019-02-21 05:21:48 GMT 50.047424 -4.867463 29,975 124 479 -64
2019-02-21 05:21:43 GMT 50.054443 -4.881544 29,975 124 479 0
2019-02-21 05:21:40 GMT 50.056549 -4.887254 29,975 124 479 -64
2019-02-21 05:21:35 GMT 50.064056 -4.904094 30,000 125 479 -128
2019-02-21 05:21:31 GMT 50.069866 -4.918386 30,000 125 479 -64
2019-02-21 05:21:27 GMT 50.074036 -4.926790 30,000 125 479 -64
2019-02-21 05:21:24 GMT 50.082947 -4.946372 30,000 125 479 -64
2019-02-21 05:21:20 GMT 50.082947 -4.946372 30,000 124 479 -64
2019-02-21 05:21:16 GMT 50.087448 -4.954906 30,000 125 479 0
2019-02-21 05:21:13 GMT 50.091843 -4.966109 30,000 125 479 -128
2019-02-21 05:21:10 GMT 50.095608 -4.974654 29,975 124 479 192
2019-02-21 05:21:07 GMT 50.099533 -4.983095 30,000 124 479 192
2019-02-21 05:21:02 GMT 50.105164 -4.994515 30,000 124 479 192
2019-02-21 05:20:59 GMT 50.108967 -5.003011 29,975 124 479 0
2019-02-21 05:20:54 GMT 50.115189 -5.016993 30,000 124 480 0
2019-02-21 05:20:50 GMT 50.121677 -5.031293 30,000 124 480 0
2019-02-21 05:20:47 GMT 50.125076 -5.039978 30,000 124 480 64
2019-02-21 05:20:42 GMT 50.130756 -5.051261 29,975 124 481 64
2019-02-21 05:20:39 GMT 50.134552 -5.059855 29,975 124 481 0
2019-02-21 05:20:36 GMT 50.139645 -5.071155 29,975 124 481 0
2019-02-21 05:20:32 GMT 50.143696 -5.082439 29,975 124 481 0
2019-02-21 05:20:29 GMT 50.148010 -5.090862 29,975 125 482 0
2019-02-21 05:20:25 GMT 50.153046 -5.102354 29,975 125 482 0
2019-02-21 05:20:21 GMT 50.158173 -5.113774 29,975 124 481 0
2019-02-21 05:20:18 GMT 50.162613 -5.122231 29,975 124 481 64
2019-02-21 05:20:13 GMT 50.167439 -5.133585 29,975 124 482 0
2019-02-21 05:20:10 GMT 50.171310 -5.142180 29,975 124 482 0
2019-02-21 05:20:06 GMT 50.177399 -5.156374 29,975 124 482 0
2019-02-21 05:20:01 GMT 50.184082 -5.170585 29,975 124 482 0
2019-02-21 05:19:58 GMT 50.187641 -5.179163 29,975 124 482 0
2019-02-21 05:19:55 GMT 50.190811 -5.187643 29,975 124 482 64
2019-02-21 05:19:52 GMT 50.195938 -5.199208 29,975 124 482 128
2019-02-21 05:19:48 GMT 50.199791 -5.207891 29,975 124 482 0
2019-02-21 05:19:45 GMT 50.203354 -5.213663 29,975 124 482 0
2019-02-21 05:19:41 GMT 50.208218 -5.224890 29,975 124 483 64
2019-02-21 05:19:38 GMT 50.212826 -5.236470 29,975 124 483 0
2019-02-21 05:19:33 GMT 50.219330 -5.250959 29,975 124 483 0
2019-02-21 05:19:28 GMT 50.225395 -5.265198 29,975 124 483 0
2019-02-21 05:19:24 GMT 50.230049 -5.273883 29,975 124 483 64
2019-02-21 05:19:20 GMT 50.236633 -5.290929 29,975 124 483 0
2019-02-21 05:19:17 GMT 50.239243 -5.296783 29,975 124 483 64
2019-02-21 05:19:12 GMT 50.245598 -5.311147 29,975 124 484 0
2019-02-21 05:19:08 GMT 50.251465 -5.322653 29,975 124 484 0
2019-02-21 05:19:04 GMT 50.255173 -5.331333 29,975 124 484 0
2019-02-21 05:19:01 GMT 50.260208 -5.342825 29,975 124 484 0
2019-02-21 05:18:58 GMT 50.262772 -5.348390 29,975 124 484 0
2019-02-21 05:18:52 GMT 50.271065 -5.368677 29,975 124 484 0
2019-02-21 05:18:49 GMT 50.274628 -5.377374 29,975 124 484 0
2019-02-21 05:18:46 GMT 50.277878 -5.383012 29,950 124 484 0
2019-02-21 05:18:42 GMT 50.283630 -5.397479 29,975 124 484 -64
2019-02-21 05:18:38 GMT 50.288315 -5.406141 29,975 124 484 -64
2019-02-21 05:18:34 GMT 50.293919 -5.420491 29,975 124 484 0
2019-02-21 05:18:29 GMT 50.300949 -5.435052 29,975 124 484 0
2019-02-21 05:18:24 GMT 50.306816 -5.449219 29,975 124 484 0
2019-02-21 05:18:20 GMT 50.312218 -5.461022 29,975 124 484 -64
2019-02-21 05:18:16 GMT 50.321804 -5.483959 29,975 124 484 0
2019-02-21 05:18:12 GMT 50.321804 -5.483959 29,975 124 484 0
2019-02-21 05:18:09 GMT 50.325623 -5.492586 29,975 124 484 0
2019-02-21 05:18:06 GMT 50.329720 -5.501255 29,975 124 485 0
2019-02-21 05:18:02 GMT 50.334236 -5.512761 29,975 124 484 -64
2019-02-21 05:17:59 GMT 50.339081 -5.521642 29,975 124 485 -64
2019-02-21 05:17:56 GMT 50.342426 -5.530206 29,975 124 485 -64
2019-02-21 05:17:53 GMT 50.345673 -5.538916 29,975 124 485 0
2019-02-21 05:17:49 GMT 50.356155 -5.561901 29,975 124 485 0
2019-02-21 05:17:45 GMT 50.356155 -5.561901 29,975 124 485 0
2019-02-21 05:17:40 GMT 50.362770 -5.576230 30,000 124 485 0
2019-02-21 05:17:36 GMT 50.368313 -5.587810 30,000 124 484 -64
2019-02-21 05:17:30 GMT 50.375248 -5.605106 30,000 124 486 0
2019-02-21 05:17:27 GMT 50.379181 -5.613652 30,000 124 486 0
2019-02-21 05:17:24 GMT 50.385906 -5.628192 30,025 124 485 -64
2019-02-21 05:17:21 GMT 50.385906 -5.628192 30,025 124 485 -64
2019-02-21 05:17:18 GMT 50.390121 -5.636781 30,025 124 485 -64
2019-02-21 05:17:15 GMT 50.398663 -5.657217 30,025 124 485 0
2019-02-21 05:17:12 GMT 50.398663 -5.657217 30,025 124 485 64
2019-02-21 05:17:09 GMT 50.402618 -5.665693 30,025 124 486 192
2019-02-21 05:17:06 GMT 50.405136 -5.671475 30,025 124 486 -64
2019-02-21 05:17:02 GMT 50.411373 -5.686019 30,025 124 487 0
2019-02-21 05:16:59 GMT 50.414120 -5.692031 30,025 124 487 0
2019-02-21 05:16:56 GMT 50.418587 -5.703537 30,025 124 487 -64
2019-02-21 05:16:51 GMT 50.424175 -5.715266 30,025 124 487 0
2019-02-21 05:16:48 GMT 50.433151 -5.735586 30,025 124 487 -64
2019-02-21 05:16:45 GMT 50.433151 -5.735586 30,025 124 487 0
2019-02-21 05:16:39 GMT 50.440521 -5.753150 30,025 124 488 0
2019-02-21 05:16:36 GMT 50.444237 -5.762032 30,025 124 488 0
2019-02-21 05:16:31 GMT 50.450180 -5.776568 30,025 124 488 0
2019-02-21 05:16:26 GMT 50.457413 -5.791280 30,025 124 488 0
2019-02-21 05:16:21 GMT 50.463043 -5.805696 30,025 124 488 0
2019-02-21 05:16:18 GMT 50.466862 -5.814737 30,025 124 488 0
2019-02-21 05:16:15 GMT 50.470215 -5.820527 30,025 124 488 0
2019-02-21 05:16:11 GMT 50.475632 -5.835041 30,025 124 488 0
2019-02-21 05:16:08 GMT 50.479523 -5.843984 30,025 124 488 0
2019-02-21 05:16:05 GMT 50.483414 -5.852605 30,050 124 488 -64
2019-02-21 05:16:01 GMT 50.488541 -5.864459 30,050 124 488 0
2019-02-21 05:15:58 GMT 50.492512 -5.873232 30,050 124 488 0
2019-02-21 05:15:55 GMT 50.496414 -5.882022 30,050 124 487 0
2019-02-21 05:15:50 GMT 50.501953 -5.893587 30,050 124 487 0
2019-02-21 05:15:47 GMT 50.510899 -5.914133 30,025 124 487 64
2019-02-21 05:15:41 GMT 50.513489 -5.919968 30,025 124 487 0
2019-02-21 05:15:38 GMT 50.517651 -5.931578 30,025 124 487 0
2019-02-21 05:15:34 GMT 50.522232 -5.940423 30,025 123 487 0
2019-02-21 05:15:30 GMT 50.527893 -5.955035 30,025 124 486 0
2019-02-21 05:15:26 GMT 50.533665 -5.966615 30,025 124 486 0
2019-02-21 05:15:23 GMT 50.535713 -5.972628 30,050 124 486 -64
2019-02-21 05:15:19 GMT 50.540833 -5.984134 30,050 124 485 0
2019-02-21 05:15:16 GMT 50.544800 -5.993042 30,050 124 485 0
2019-02-21 05:15:12 GMT 50.550190 -6.007591 30,050 124 485 0
2019-02-21 05:15:09 GMT 50.554138 -6.016460 30,050 124 485 0
2019-02-21 05:15:06 GMT 50.557205 -6.022170 30,050 124 484 0
2019-02-21 05:15:01 GMT 50.564117 -6.039589 30,050 124 484 64
2019-02-21 05:14:57 GMT 50.568439 -6.048419 30,025 124 483 64
2019-02-21 05:14:54 GMT 50.573280 -6.059851 30,025 124 483 128
2019-02-21 05:14:50 GMT 50.577797 -6.071579 30,025 124 483 128
2019-02-21 05:14:47 GMT 50.586037 -6.088950 29,975 124 480 64
2019-02-21 05:14:44 GMT 50.586037 -6.088950 30,025 124 483 128
2019-02-21 05:14:39 GMT 50.591583 -6.103556 30,000 124 482 64
2019-02-21 05:14:35 GMT 50.596664 -6.115193 30,000 124 482 128
2019-02-21 05:14:31 GMT 50.601517 -6.126757 30,000 124 481 64
2019-02-21 05:14:27 GMT 50.607147 -6.138249 30,000 124 481 64
2019-02-21 05:14:23 GMT 50.611679 -6.149959 29,975 124 480 64
2019-02-21 05:14:20 GMT 50.615456 -6.158431 29,975 124 480 64
2019-02-21 05:14:17 GMT 50.619781 -6.167233 29,975 124 480 64
2019-02-21 05:14:13 GMT 50.624908 -6.178798 29,975 124 480 64
2019-02-21 05:14:08 GMT 50.629944 -6.190218 29,975 123 479 0
2019-02-21 05:14:05 GMT 50.634247 -6.201782 29,975 123 479 64
2019-02-21 05:14:01 GMT 50.639557 -6.213347 29,975 123 477 64
2019-02-21 05:13:58 GMT 50.642735 -6.221973 29,950 123 477 0
2019-02-21 05:13:53 GMT 50.649673 -6.236548 29,950 123 477 64
2019-02-21 05:13:49 GMT 50.653488 -6.245208 29,950 123 477 64
2019-02-21 05:13:46 GMT 50.657959 -6.256714 29,950 123 477 0
2019-02-21 05:13:42 GMT 50.666336 -6.276952 29,950 123 476 0
2019-02-21 05:13:39 GMT 50.666336 -6.276952 29,950 123 475 0
2019-02-21 05:13:36 GMT 50.672012 -6.288337 29,950 123 475 0
2019-02-21 05:13:32 GMT 50.674858 -6.296997 29,950 123 475 0
2019-02-21 05:13:29 GMT 50.678513 -6.305558 29,950 123 475 0
2019-02-21 05:13:25 GMT 50.683090 -6.314318 29,950 123 475 0
2019-02-21 05:13:22 GMT 50.687145 -6.325607 29,950 123 474 0
2019-02-21 05:13:18 GMT 50.692825 -6.337204 29,950 123 474 -64
2019-02-21 05:13:15 GMT 50.696045 -6.345644 29,950 123 473 0
2019-02-21 05:13:12 GMT 50.699623 -6.354294 29,950 123 473 0
2019-02-21 05:13:08 GMT 50.703461 -6.363088 29,950 123 473 64
2019-02-21 05:13:05 GMT 50.708679 -6.374446 29,950 123 473 0
2019-02-21 05:13:00 GMT 50.715088 -6.391445 29,950 123 473 0
2019-02-21 05:12:57 GMT 50.717468 -6.397309 29,950 123 473 0
2019-02-21 05:12:54 GMT 50.721455 -6.405792 29,950 123 472 0
2019-02-21 05:12:51 GMT 50.728226 -6.420173 29,950 123 473 0
2019-02-21 05:12:48 GMT 50.728226 -6.420173 29,950 123 473 0
2019-02-21 05:12:44 GMT 50.733032 -6.431456 29,950 123 472 0
2019-02-21 05:12:41 GMT 50.737335 -6.442962 29,950 123 472 0
2019-02-21 05:12:38 GMT 50.741566 -6.451492 29,950 123 472 0
2019-02-21 05:12:34 GMT 50.745338 -6.460342 29,950 123 472 64
2019-02-21 05:12:31 GMT 50.749603 -6.471541 29,950 123 472 0
2019-02-21 05:12:27 GMT 50.754501 -6.483121 29,950 123 473 0
2019-02-21 05:12:20 GMT 50.762100 -6.500269 29,950 123 473 64
2019-02-21 05:12:15 GMT 50.769012 -6.517565 29,950 123 473 0
2019-02-21 05:12:08 GMT 50.778717 -6.540577 29,950 123 473 -64
2019-02-21 05:12:04 GMT 50.782394 -6.548996 29,950 123 473 -64
2019-02-21 05:12:01 GMT 50.786720 -6.560745 29,975 123 473 0
2019-02-21 05:11:57 GMT 50.790985 -6.569379 29,950 123 473 0
2019-02-21 05:11:53 GMT 50.794914 -6.577911 29,950 123 473 0
2019-02-21 05:11:50 GMT 50.799294 -6.589508 29,975 123 473 0
2019-02-21 05:11:47 GMT 50.803024 -6.597958 29,975 123 473 -64
2019-02-21 05:11:43 GMT 50.807327 -6.609538 29,975 123 473 -64
2019-02-21 05:11:39 GMT 50.812454 -6.621118 29,975 123 474 0
2019-02-21 05:11:31 GMT 50.827148 -6.655711 29,975 123 474 0
2019-02-21 05:11:23 GMT 50.831726 -6.667291 29,975 123 474 0
2019-02-21 05:11:14 GMT 50.842724 -6.693192 29,975 123 475 0
2019-02-21 05:11:10 GMT 50.848312 -6.704712 29,975 123 475 0
2019-02-21 05:11:05 GMT 50.853928 -6.719179 29,975 123 475 0
2019-02-21 05:11:02 GMT 50.858135 -6.727905 29,975 123 475 0
2019-02-21 05:10:59 GMT 50.860886 -6.736549 29,975 123 475 0
2019-02-21 05:10:55 GMT 50.865555 -6.745383 29,975 123 475 0
2019-02-21 05:10:52 GMT 50.870377 -6.756973 29,975 123 476 0
2019-02-21 05:10:49 GMT 50.873520 -6.765425 29,975 123 476 0
2019-02-21 05:10:46 GMT 50.877499 -6.774292 29,975 123 476 0
2019-02-21 05:10:42 GMT 50.881874 -6.785965 29,975 123 476 0
2019-02-21 05:10:38 GMT 50.886063 -6.794450 29,975 123 476 0
2019-02-21 05:10:32 GMT 50.893978 -6.814880 29,975 123 476 0
2019-02-21 05:10:22 GMT 50.906223 -6.843948 29,975 123 477 -64
2019-02-21 05:10:14 GMT 50.915176 -6.864451 30,000 123 477 -64
2019-02-21 05:10:11 GMT 50.918606 -6.873093 30,000 123 477 0
2019-02-21 05:10:05 GMT 50.926987 -6.893327 30,000 123 477 0
2019-02-21 05:10:01 GMT 50.931381 -6.905056 30,000 123 477 0
2019-02-21 05:09:58 GMT 50.935501 -6.913834 30,000 123 477 -64
2019-02-21 05:09:54 GMT 50.941498 -6.928587 30,000 123 478 -64
2019-02-21 05:09:50 GMT 50.944061 -6.934452 30,000 123 477 -64
2019-02-21 05:09:47 GMT 50.948868 -6.946032 30,000 123 478 0
2019-02-21 05:09:44 GMT 50.952915 -6.954880 30,000 123 481 0
2019-02-21 05:09:41 GMT 50.956055 -6.963476 30,000 123 478 0
2019-02-21 05:09:37 GMT 50.961548 -6.975353 30,025 123 478 0
2019-02-21 05:09:27 GMT 50.977982 -7.016329 30,025 123 478 0
2019-02-21 05:09:20 GMT 50.981312 -7.024918 30,025 123 478 0
2019-02-21 05:09:13 GMT 50.990112 -7.045577 30,025 123 479 0
2019-02-21 05:09:10 GMT 50.993832 -7.054520 30,025 123 479 0
2019-02-21 05:09:06 GMT 50.998859 -7.066269 30,025 123 480 0
2019-02-21 05:09:02 GMT 51.003517 -7.078018 30,025 123 480 0
2019-02-21 05:08:57 GMT 51.009567 -7.092566 30,025 123 480 0
2019-02-21 05:08:53 GMT 51.013851 -7.101440 30,025 123 480 0
2019-02-21 05:08:49 GMT 51.019547 -7.116023 30,025 123 480 0
2019-02-21 05:08:42 GMT 51.027351 -7.133789 30,025 123 481 64
2019-02-21 05:08:39 GMT 51.032272 -7.145419 30,025 123 481 64
2019-02-21 05:08:32 GMT 51.046097 -7.180902 30,000 123 481 0
2019-02-21 05:08:27 GMT 51.046097 -7.180902 30,000 123 481 0
2019-02-21 05:08:18 GMT 51.057053 -7.207489 30,000 123 481 0
2019-02-21 05:08:11 GMT 51.065643 -7.228410 30,000 123 482 64
2019-02-21 05:08:08 GMT 51.068481 -7.234200 30,000 123 482 64
2019-02-21 05:08:02 GMT 51.076279 -7.254944 30,000 123 481 0
2019-02-21 05:07:59 GMT 51.080795 -7.263893 30,000 123 481 0
2019-02-21 05:07:50 GMT 51.090500 -7.287424 30,000 123 481 0
2019-02-21 05:07:47 GMT 51.094292 -7.296448 30,000 123 480 -64
2019-02-21 05:07:42 GMT 51.101185 -7.314148 30,000 123 480 0
2019-02-21 05:07:38 GMT 51.105793 -7.325974 30,000 123 481 0
2019-02-21 05:07:31 GMT 51.113750 -7.343903 30,000 123 480 0
2019-02-21 05:07:28 GMT 51.118080 -7.355499 30,000 123 480 0
2019-02-21 05:07:18 GMT 51.132019 -7.388157 30,000 122 479 0
2019-02-21 05:07:06 GMT 51.148819 -7.429504 30,000 122 479 64
2019-02-21 05:07:00 GMT 51.151550 -7.438507 30,000 122 479 64
2019-02-21 05:06:57 GMT 51.155640 -7.447097 30,000 122 479 0
2019-02-21 05:06:51 GMT 51.162506 -7.465061 30,000 122 479 0
2019-02-21 05:06:47 GMT 51.167358 -7.476716 30,000 122 479 0
2019-02-21 05:06:40 GMT 51.180176 -7.506334 30,000 122 479 64
2019-02-21 05:06:36 GMT 51.180176 -7.506334 30,000 122 479 64
2019-02-21 05:06:31 GMT 51.188702 -7.527084 30,000 123 478 64
2019-02-21 05:06:26 GMT 51.201645 -7.559633 30,000 122 477 0
2019-02-21 05:06:18 GMT 51.201645 -7.559633 30,000 122 477 0
2019-02-21 05:06:15 GMT 51.205135 -7.568207 30,000 122 477 0
2019-02-21 05:06:10 GMT 51.211838 -7.586136 30,000 122 477 0
2019-02-21 05:06:05 GMT 51.217331 -7.597733 30,000 122 477 0
2019-02-21 05:06:00 GMT 51.224499 -7.615662 30,000 122 477 0
2019-02-21 05:05:56 GMT 51.230804 -7.630376 30,000 122 477 0
2019-02-21 05:05:48 GMT 51.237808 -7.648117 30,000 122 477 0
2019-02-21 05:05:45 GMT 51.242340 -7.659920 30,000 122 477 0
2019-02-21 05:05:39 GMT 51.249252 -7.677513 30,000 122 476 0
2019-02-21 05:05:35 GMT 51.254059 -7.689539 30,000 122 476 0
2019-02-21 05:05:29 GMT 51.261108 -7.707206 30,000 122 476 -64
2019-02-21 05:05:25 GMT 51.265823 -7.719009 30,000 122 476 -64
2019-02-21 05:05:19 GMT 51.273193 -7.736602 30,000 122 476 0
2019-02-21 05:05:15 GMT 51.278183 -7.748702 30,000 122 477 0
2019-02-21 05:05:08 GMT 51.285782 -7.766369 30,000 122 477 0
2019-02-21 05:05:04 GMT 51.291302 -7.781143 30,000 122 476 0
2019-02-21 05:04:58 GMT 51.297684 -7.795765 30,000 122 477 0
2019-02-21 05:04:55 GMT 51.302353 -7.807642 30,000 122 478 0
2019-02-21 05:04:47 GMT 51.312435 -7.834625 30,000 122 479 0
2019-02-21 05:04:43 GMT 51.315323 -7.840347 30,000 122 479 0
2019-02-21 05:04:38 GMT 51.321838 -7.858429 30,000 122 479 64
2019-02-21 05:04:34 GMT 51.326916 -7.870178 30,000 122 479 0
2019-02-21 05:04:26 GMT 51.335678 -7.891153 30,000 122 479 0
2019-02-21 05:04:23 GMT 51.339344 -7.899933 30,000 122 479 0
2019-02-21 05:04:14 GMT 51.351074 -7.929688 30,000 122 479 64
2019-02-21 05:04:08 GMT 51.359940 -7.950687 30,000 122 479 64
2019-02-21 05:04:04 GMT 51.364838 -7.962564 30,000 123 479 0
2019-02-21 05:04:00 GMT 51.366806 -7.968428 30,000 123 479 0
2019-02-21 05:03:55 GMT 51.374084 -7.986170 30,000 123 479 0
2019-02-21 05:03:51 GMT 51.379486 -7.997973 30,000 123 476 -128
2019-02-21 05:03:47 GMT 51.383652 -8.009924 30,000 123 478 0
2019-02-21 05:03:43 GMT 51.388733 -8.021578 30,000 123 478 0
2019-02-21 05:03:40 GMT 51.391903 -8.030319 30,000 123 478 -64
2019-02-21 05:03:36 GMT 51.396561 -8.039246 30,075 123 476 -128
2019-02-21 05:03:30 GMT 51.403610 -8.057061 30,000 123 478 -64
2019-02-21 05:03:23 GMT 51.413315 -8.080519 30,025 123 478 -128
2019-02-21 05:03:20 GMT 51.415695 -8.086383 30,025 123 478 -192
2019-02-21 05:03:13 GMT 51.424255 -8.107300 30,050 123 478 64
2019-02-21 05:03:10 GMT 51.428444 -8.119125 30,025 122 477 0
2019-02-21 05:03:06 GMT 51.433567 -8.130798 30,050 123 478 -64
2019-02-21 05:03:02 GMT 51.438175 -8.142700 30,050 123 478 -64
2019-02-21 05:02:59 GMT 51.441292 -8.148727 30,050 123 477 -128
2019-02-21 05:02:55 GMT 51.447372 -8.163361 30,075 123 476 -128
2019-02-21 05:02:50 GMT 51.452698 -8.178253 30,075 123 477 -128
2019-02-21 05:02:45 GMT 51.458054 -8.190079 30,075 123 476 -128
2019-02-21 05:02:40 GMT 51.464893 -8.207626 30,100 123 476 -192
2019-02-21 05:02:35 GMT 51.471085 -8.222302 30,100 122 475 -256
2019-02-21 05:02:30 GMT 51.477047 -8.237228 30,125 122 475 -128
2019-02-21 05:02:24 GMT 51.483170 -8.252291 30,150 121 475 -256
2019-02-21 05:02:20 GMT 51.488777 -8.267212 30,150 121 474 64
2019-02-21 05:02:14 GMT 51.494568 -8.282281 30,150 121 475 192
2019-02-21 05:02:10 GMT 51.498917 -8.294158 30,125 121 475 192
2019-02-21 05:02:07 GMT 51.503998 -8.306184 30,125 122 475 128
2019-02-21 05:02:04 GMT 51.506420 -8.312225 30,125 122 474 192
2019-02-21 05:02:01 GMT 51.510590 -8.323851 30,100 122 475 192
2019-02-21 05:01:54 GMT 51.518803 -8.344650 30,075 122 476 192
2019-02-21 05:01:49 GMT 51.524780 -8.359556 30,075 122 476 192
2019-02-21 05:01:44 GMT 51.529976 -8.371735 30,050 122 473 -64
2019-02-21 05:01:40 GMT 51.534531 -8.383533 30,050 122 477 64
2019-02-21 05:01:34 GMT 51.542126 -8.404541 30,050 122 477 64
2019-02-21 05:01:30 GMT 51.546410 -8.416672 30,050 122 476 64
2019-02-21 05:01:23 GMT 51.555679 -8.437426 30,050 121 477 0
2019-02-21 05:01:20 GMT 51.558277 -8.446655 30,050 121 477 0
2019-02-21 05:01:13 GMT 51.570198 -8.476562 30,050 122 476 0
2019-02-21 05:01:10 GMT 51.570198 -8.476562 30,050 121 476 0
2019-02-21 05:01:07 GMT 51.573257 -8.485602 30,050 122 476 0
2019-02-21 05:01:04 GMT 51.578156 -8.497479 30,050 122 476 0
2019-02-21 05:00:59 GMT 51.582253 -8.506470 30,075 122 476 0
2019-02-21 05:00:53 GMT 51.589828 -8.527543 30,075 122 475 0
2019-02-21 05:00:48 GMT 51.595661 -8.542328 30,075 122 476 0
2019-02-21 05:00:42 GMT 51.602280 -8.557310 30,075 122 475 64
2019-02-21 05:00:37 GMT 51.607903 -8.572159 30,075 122 475 64
2019-02-21 05:00:32 GMT 51.614700 -8.590012 30,050 122 475 0
2019-02-21 05:00:27 GMT 51.620148 -8.601913 30,050 122 475 0
2019-02-21 05:00:22 GMT 51.627270 -8.619919 30,050 122 474 -64
2019-02-21 05:00:16 GMT 51.632858 -8.634660 30,050 122 474 0
2019-02-21 05:00:12 GMT 51.638489 -8.649445 30,050 122 474 0
2019-02-21 05:00:07 GMT 51.644943 -8.664353 30,050 122 472 -128
2019-02-21 05:00:01 GMT 51.651810 -8.682094 30,075 122 472 -64
2019-02-21 04:59:57 GMT 51.655975 -8.693897 30,100 122 472 -64
2019-02-21 04:59:52 GMT 51.661949 -8.708725 30,100 122 471 -128
2019-02-21 04:59:47 GMT 51.667648 -8.723664 30,100 122 471 -128
2019-02-21 04:59:41 GMT 51.674149 -8.738480 30,100 122 471 -192
2019-02-21 04:59:37 GMT 51.679413 -8.753283 30,100 122 471 -128
2019-02-21 04:59:30 GMT 51.686691 -8.771024 30,125 122 471 -128
2019-02-21 04:59:26 GMT 51.691452 -8.782901 30,125 122 471 -192
2019-02-21 04:59:21 GMT 51.697815 -8.800940 30,125 121 470 -64
2019-02-21 04:59:16 GMT 51.703663 -8.815765 30,150 121 471 192
2019-02-21 04:59:11 GMT 51.709259 -8.830707 30,125 120 473 128
2019-02-21 04:59:06 GMT 51.714787 -8.846130 30,125 119 474 -64
2019-02-21 04:58:59 GMT 51.721909 -8.864365 30,125 120 474 64
2019-02-21 04:58:55 GMT 51.726517 -8.879700 30,125 120 474 128
2019-02-21 04:58:50 GMT 51.732338 -8.894501 30,100 121 474 192
2019-02-21 04:58:46 GMT 51.737507 -8.906708 30,075 121 475 128
2019-02-21 04:58:39 GMT 51.745056 -8.927802 30,075 121 476 128
2019-02-21 04:58:35 GMT 51.749817 -8.939828 30,075 122 476 128
2019-02-21 04:58:29 GMT 51.757141 -8.957717 30,075 121 477 -128
2019-02-21 04:58:25 GMT 51.761444 -8.969743 30,075 121 477 -128
2019-02-21 04:58:19 GMT 51.768089 -8.984909 30,100 121 477 -128
2019-02-21 04:58:15 GMT 51.773392 -9.000178 30,100 121 477 -64
2019-02-21 04:58:11 GMT 51.778015 -9.012278 30,100 120 478 512
2019-02-21 04:58:08 GMT 51.780441 -9.018439 30,075 120 478 576
2019-02-21 04:58:05 GMT 51.784698 -9.030836 30,050 120 480 384
2019-02-21 04:58:00 GMT 51.790993 -9.046249 30,025 119 481 -64
2019-02-21 04:57:57 GMT 51.795185 -9.058685 30,050 119 481 -448
2019-02-21 04:57:54 GMT 51.796951 -9.064941 30,075 118 480 -448
2019-02-21 04:57:48 GMT 51.803143 -9.083710 30,125 118 479 -576
2019-02-21 04:57:44 GMT 51.807335 -9.096527 30,150 117 477 256
2019-02-21 04:57:39 GMT 51.812210 -9.112343 30,150 117 476 320
2019-02-21 04:57:34 GMT 51.817482 -9.128113 30,125 117 476 192
2019-02-21 04:57:28 GMT 51.823059 -9.143743 30,075 117 475 256
2019-02-21 04:57:25 GMT 51.826401 -9.156362 30,075 117 476 192
2019-02-21 04:57:18 GMT 51.833542 -9.178391 30,050 117 474 0
2019-02-21 04:57:14 GMT 51.837872 -9.191208 30,075 116 473 -64
2019-02-21 04:57:08 GMT 51.843643 -9.209824 30,075 116 472 0
2019-02-21 04:57:03 GMT 51.849197 -9.225769 30,075 116 470 -64
2019-02-21 04:56:57 GMT 51.854027 -9.241333 30,075 116 469 -128
2019-02-21 04:56:53 GMT 51.857750 -9.253769 30,100 116 468 -128
2019-02-21 04:56:48 GMT 51.863243 -9.272614 30,100 116 466 -64
2019-02-21 04:56:44 GMT 51.867245 -9.284973 30,100 116 466 448
2019-02-21 04:56:37 GMT 51.874512 -9.306905 30,050 116 465 576
2019-02-21 04:56:33 GMT 51.877396 -9.316184 30,025 116 466 256
2019-02-21 04:56:27 GMT 51.883484 -9.337859 30,025 116 467 -320
2019-02-21 04:56:23 GMT 51.887192 -9.347287 30,050 116 468 -448
2019-02-21 04:56:16 GMT 51.894993 -9.372201 30,125 116 467 -384
2019-02-21 04:56:13 GMT 51.897400 -9.381561 30,150 117 468 64
2019-02-21 04:56:06 GMT 51.903763 -9.400177 30,075 116 470 576
2019-02-21 04:56:03 GMT 51.907242 -9.412842 30,050 117 474 640
2019-02-21 04:55:56 GMT 51.917221 -9.444733 30,025 116 482 64
2019-02-21 04:55:53 GMT 51.917221 -9.444733 30,000 116 484 0
2019-02-21 04:55:45 GMT 51.924740 -9.467390 30,025 116 486 -128
2019-02-21 04:55:42 GMT 51.927612 -9.477310 30,025 116 486 -192
2019-02-21 04:55:36 GMT 51.933609 -9.496689 30,075 116 486 -128
2019-02-21 04:55:32 GMT 51.937637 -9.509964 30,075 116 486 -64
2019-02-21 04:55:26 GMT 51.944614 -9.532680 30,075 116 479 -128
2019-02-21 04:55:22 GMT 51.948387 -9.545785 30,100 115 483 0
2019-02-21 04:55:16 GMT 51.954205 -9.565247 30,100 116 482 64
2019-02-21 04:55:12 GMT 51.958023 -9.578116 30,075 116 481 0
2019-02-21 04:55:02 GMT 51.968948 -9.613571 30,075 115 479 384
2019-02-21 04:54:54 GMT 51.974899 -9.633179 30,050 115 479 256
2019-02-21 04:54:51 GMT 51.978424 -9.645844 30,025 115 479 320
2019-02-21 04:54:44 GMT 51.984978 -9.668440 30,000 115 478 -128
2019-02-21 04:54:41 GMT 51.988449 -9.678116 30,025 115 478 -192
2019-02-21 04:54:31 GMT 52.000031 -9.716797 30,100 115 474 -320
2019-02-21 04:54:20 GMT 52.008205 -9.745579 30,100 115 471 320
2019-02-21 04:54:13 GMT 52.014496 -9.767914 30,075 115 471 192
2019-02-21 04:54:10 GMT 52.017426 -9.777440 30,050 115 470 128
2019-02-21 04:54:00 GMT 52.027588 -9.812546 30,025 114 469 128
2019-02-21 04:53:52 GMT 52.033127 -9.831924 30,025 114 469 -64
2019-02-21 04:53:49 GMT 52.036930 -9.847988 30,025 114 469 -192
2019-02-21 04:53:44 GMT 52.041027 -9.860700 30,075 113 467 -576
2019-02-21 04:53:39 GMT 52.046288 -9.880005 30,150 112 466 -128
2019-02-21 04:53:34 GMT 52.049637 -9.892718 30,150 113 465 -128
2019-02-21 04:53:31 GMT 52.051849 -9.902420 30,150 113 465 -128
2019-02-21 04:53:28 GMT 52.054825 -9.915314 30,175 112 464 -512
2019-02-21 04:53:21 GMT 52.061230 -9.937840 30,225 112 463 -64
2019-02-21 04:53:18 GMT 52.062580 -9.944196 30,200 112 463 704
2019-02-21 04:53:10 GMT 52.072220 -9.983292 30,100 107 472 0
2019-02-21 04:52:59 GMT 52.076111 -10.007019 30,075 104 478 128
2019-02-21 04:52:49 GMT 52.080364 -10.039150 30,100 96 489 -64
2019-02-21 04:52:40 GMT 52.082596 -10.075797 30,025 92 497 1472
2019-02-21 04:52:32 GMT 52.083481 -10.101929 29,950 93 503 576
2019-02-21 04:52:29 GMT 52.083946 -10.113386 29,900 93 505 128
2019-02-21 04:52:19 GMT 52.085541 -10.154877 29,875 93 508 -1728
2019-02-21 04:52:09 GMT 52.087418 -10.192719 30,025 94 504 256
2019-02-21 04:51:58 GMT 52.089386 -10.230331 30,075 94 501 256
2019-02-21 04:51:48 GMT 52.091217 -10.267944 30,250 94 497 -576
2019-02-21 04:51:38 GMT 52.092514 -10.308707 30,125 91 499 576
2019-02-21 04:51:28 GMT 52.092651 -10.346296 30,125 86 501 -1344
2019-02-21 04:51:20 GMT 52.091583 -10.376430 30,225 86 501 -1344
2019-02-21 04:51:17 GMT 52.090851 -10.387726 30,200 82 501 448
2019-02-21 04:51:08 GMT 52.087391 -10.421238 30,050 77 509 512
2019-02-21 04:50:58 GMT 52.080830 -10.457886 30,000 67 517 192
2019-02-21 04:50:47 GMT 52.069981 -10.492728 30,025 57 524 -256
2019-02-21 04:50:37 GMT 52.043839 -10.543289 30,125 42 531 320
2019-02-21 04:50:27 GMT 52.036331 -10.553284 30,000 35 534 0
2019-02-21 04:50:17 GMT 52.015228 -10.574799 30,000 27 538 64
2019-02-21 04:50:07 GMT 51.992889 -10.591049 30,125 20 536 -1088
2019-02-21 04:49:56 GMT 51.968170 -10.603714 30,125 16 536 256
2019-02-21 04:49:46 GMT 51.944275 -10.613556 30,050 10 540 448
2019-02-21 04:49:39 GMT 51.924774 -10.617828 30,000 356 544 576
2019-02-21 04:49:36 GMT 51.918221 -10.618522 30,000 1 541 64
2019-02-21 04:49:26 GMT 51.893036 -10.617676 29,850 356 544 384
2019-02-21 04:49:16 GMT 51.867710 -10.611343 29,900 347 541 0
2019-02-21 04:49:05 GMT 51.842854 -10.600052 29,875 341 538 -192
2019-02-21 04:48:56 GMT 51.817154 -10.583768 29,900 336 533 -640
2019-02-21 04:48:45 GMT 51.796555 -10.565878 30,075 330 521 -1088
2019-02-21 04:48:35 GMT 51.776550 -10.544351 30,050 323 513 832
2019-02-21 04:48:28 GMT 51.764179 -10.527573 29,975 319 507 -64
2019-02-21 04:48:25 GMT 51.758102 -10.520077 29,975 317 504 -64
2019-02-21 04:48:15 GMT 51.742859 -10.492092 30,000 306 493 -192
2019-02-21 04:48:07 GMT 51.733658 -10.467224 29,975 299 483 320
2019-02-21 04:48:04 GMT 51.731003 -10.461063 29,975 297 482 64
2019-02-21 04:47:57 GMT 51.724239 -10.438614 30,000 297 477 -1088
2019-02-21 04:47:54 GMT 51.721069 -10.428920 30,050 297 475 -1088
2019-02-21 04:47:49 GMT 51.713196 -10.403682 30,100 297 471 704
2019-02-21 04:47:44 GMT 51.710972 -10.394211 30,050 297 471 640
2019-02-21 04:47:37 GMT 51.704086 -10.372356 30,075 297 468 -1216
2019-02-21 04:47:34 GMT 51.701103 -10.362930 30,150 297 465 -960
2019-02-21 04:47:26 GMT 51.693745 -10.338211 30,150 296 461 1344
2019-02-21 04:47:23 GMT 51.691372 -10.332184 30,125 296 461 1344
2019-02-21 04:47:13 GMT 51.681473 -10.298124 30,000 297 461 896
2019-02-21 04:47:07 GMT 51.675156 -10.279937 29,975 298 460 -896
2019-02-21 04:47:03 GMT 51.671722 -10.267614 30,000 298 457 -64
2019-02-21 04:46:56 GMT 51.664558 -10.246353 29,900 297 458 256
2019-02-21 04:46:53 GMT 51.662155 -10.237328 29,900 298 457 64
2019-02-21 04:46:46 GMT 51.654510 -10.213277 29,825 297 455 1536
2019-02-21 04:46:42 GMT 51.652130 -10.207190 29,750 297 456 1664
2019-02-21 04:46:36 GMT 51.645424 -10.185852 29,575 298 458 1408
2019-02-21 04:46:32 GMT 51.642353 -10.176697 29,500 298 458 1152
2019-02-21 04:46:26 GMT 51.634781 -10.152481 29,400 296 457 640
2019-02-21 04:46:23 GMT 51.632904 -10.146255 29,400 296 457 128
2019-02-21 04:46:15 GMT 51.625130 -10.118866 29,500 297 452 -832
2019-02-21 04:46:12 GMT 51.623451 -10.112762 29,525 297 451 -768
2019-02-21 04:46:02 GMT 51.613815 -10.082703 29,425 297 459 512
2019-02-21 04:45:52 GMT 51.604366 -10.051804 29,350 297 472 1024
2019-02-21 04:45:42 GMT 51.594452 -10.020065 29,300 297 482 -256
2019-02-21 04:45:34 GMT 51.585930 -9.994125 29,375 298 491 -4096
2019-02-21 04:45:31 GMT 51.582916 -9.984420 29,375 298 492 -4416
2019-02-21 04:45:21 GMT 51.573074 -9.952054 29,825 297 487 -7040
2019-02-21 04:45:11 GMT 51.563004 -9.920135 30,050 297 485 704
2019-02-21 04:45:00 GMT 51.552521 -9.887918 29,975 297 484 256
2019-02-21 04:44:50 GMT 51.542404 -9.855850 29,975 297 482 128
2019-02-21 04:44:40 GMT 51.532070 -9.820709 29,975 297 479 0
2019-02-21 04:44:30 GMT 51.521458 -9.788971 29,975 297 477 0
2019-02-21 04:44:20 GMT 51.512238 -9.757614 29,975 297 474 -64
2019-02-21 04:44:10 GMT 51.502232 -9.726181 29,975 298 471 -192
2019-02-21 04:43:59 GMT 51.491665 -9.695435 29,975 298 470 256
2019-02-21 04:43:49 GMT 51.480286 -9.661214 29,900 298 478 256
2019-02-21 04:43:39 GMT 51.470901 -9.629145 29,950 298 486 64
2019-02-21 04:43:29 GMT 51.460373 -9.597151 29,950 297 487 -128
2019-02-21 04:43:18 GMT 51.449890 -9.564935 29,950 298 487 -128
2019-02-21 04:43:08 GMT 51.439293 -9.532928 29,975 298 487 -64
2019-02-21 04:42:58 GMT 51.429062 -9.500798 29,975 298 487 -64
2019-02-21 04:42:48 GMT 51.418156 -9.465485 29,975 298 487 -64
2019-02-21 04:42:38 GMT 51.407730 -9.433441 30,000 298 488 -64
2019-02-21 04:42:28 GMT 51.397488 -9.401169 30,000 298 488 0
2019-02-21 04:42:18 GMT 51.387012 -9.369278 30,000 298 490 0
2019-02-21 04:42:07 GMT 51.376099 -9.333628 30,000 298 490 0
2019-02-21 04:41:57 GMT 51.365250 -9.301486 30,000 298 491 0
2019-02-21 04:41:47 GMT 51.355270 -9.269120 30,000 298 491 0
2019-02-21 04:41:37 GMT 51.344833 -9.237052 30,000 298 491 0
2019-02-21 04:41:26 GMT 51.333847 -9.204687 30,025 298 491 -64
2019-02-21 04:41:16 GMT 51.323364 -9.172545 30,025 298 491 -64
2019-02-21 04:41:06 GMT 51.312202 -9.136963 30,025 298 491 -64
2019-02-21 04:40:55 GMT 51.301071 -9.101727 30,025 298 491 -64
2019-02-21 04:40:45 GMT 51.289810 -9.069288 30,025 298 492 -64
2019-02-21 04:40:36 GMT 51.279327 -9.037146 30,025 298 492 -64
2019-02-21 04:40:25 GMT 51.268799 -9.004929 30,025 298 492 0
2019-02-21 04:40:18 GMT 51.262066 -8.982620 30,025 298 491 0
2019-02-21 04:40:15 GMT 51.258911 -8.973009 30,025 298 491 0
2019-02-21 04:40:07 GMT 51.250717 -8.947325 30,025 298 491 0
2019-02-21 04:40:04 GMT 51.247833 -8.940793 30,025 298 491 0
2019-02-21 04:39:58 GMT 51.240234 -8.915183 30,025 298 491 0
2019-02-21 04:39:55 GMT 51.237579 -8.908650 30,025 298 491 0
2019-02-21 04:39:47 GMT 51.229431 -8.882892 30,025 298 491 0
2019-02-21 04:39:44 GMT 51.225712 -8.873215 30,025 298 491 0
2019-02-21 04:39:40 GMT 51.222931 -8.863666 30,025 298 490 64
2019-02-21 04:39:34 GMT 51.215794 -8.841324 30,025 298 490 64
2019-02-21 04:39:29 GMT 51.211281 -8.828506 30,025 298 490 64
2019-02-21 04:39:24 GMT 51.205505 -8.809204 30,025 298 490 0
2019-02-21 04:39:17 GMT 51.198074 -8.786984 30,025 298 490 -64
2019-02-21 04:39:14 GMT 51.194569 -8.777161 30,025 298 491 0
2019-02-21 04:39:10 GMT 51.191116 -8.767758 30,025 298 490 0
2019-02-21 04:39:03 GMT 51.182602 -8.742148 30,025 298 490 0
2019-02-21 04:39:00 GMT 51.179436 -8.732452 30,025 298 490 0
2019-02-21 04:38:54 GMT 51.170059 -8.704067 30,025 298 489 -64
2019-02-21 04:38:50 GMT 51.170059 -8.704067 30,025 298 489 0
2019-02-21 04:38:43 GMT 51.161453 -8.678457 30,025 298 488 0
2019-02-21 04:38:40 GMT 51.159000 -8.669052 30,025 298 488 -64
2019-02-21 04:38:33 GMT 51.151566 -8.646611 30,025 298 488 0
2019-02-21 04:38:30 GMT 51.148479 -8.637161 30,025 298 488 0
2019-02-21 04:38:23 GMT 51.141129 -8.614989 30,025 298 487 -64
2019-02-21 04:38:20 GMT 51.137867 -8.605499 30,025 298 487 0
2019-02-21 04:38:12 GMT 51.129906 -8.583145 30,025 298 487 -64
2019-02-21 04:38:09 GMT 51.126343 -8.570524 30,025 298 487 -64
2019-02-21 04:38:03 GMT 51.118965 -8.548584 30,050 298 487 0
2019-02-21 04:37:55 GMT 51.111374 -8.526430 30,050 298 486 0
2019-02-21 04:37:52 GMT 51.108257 -8.516769 30,050 298 486 0
2019-02-21 04:37:49 GMT 51.104736 -8.507352 30,050 298 486 0
2019-02-21 04:37:44 GMT 51.099693 -8.491669 30,050 298 486 -64
2019-02-21 04:37:41 GMT 51.096680 -8.482039 30,050 298 485 -64
2019-02-21 04:37:38 GMT 51.094345 -8.475878 30,050 298 485 -64
2019-02-21 04:37:34 GMT 51.089359 -8.460007 30,050 298 485 0
2019-02-21 04:37:31 GMT 51.085075 -8.447571 30,050 298 485 0
2019-02-21 04:37:28 GMT 51.083542 -8.441391 30,050 298 485 0
2019-02-21 04:37:24 GMT 51.079163 -8.428497 30,050 298 484 0
2019-02-21 04:37:20 GMT 51.074554 -8.415909 30,050 298 484 0
2019-02-21 04:37:17 GMT 51.072006 -8.406768 30,050 298 484 0
2019-02-21 04:37:14 GMT 51.068504 -8.397217 30,050 298 484 0
2019-02-21 04:37:11 GMT 51.065002 -8.387690 30,050 298 483 0
2019-02-21 04:37:08 GMT 51.061611 -8.378296 30,050 298 483 0
2019-02-21 04:37:04 GMT 51.057796 -8.365936 30,050 298 483 64
2019-02-21 04:36:58 GMT 51.052025 -8.347168 30,050 298 483 64
2019-02-21 04:36:53 GMT 51.047043 -8.334503 30,050 298 483 64
2019-02-21 04:36:48 GMT 51.041176 -8.315735 30,025 298 483 0
2019-02-21 04:36:44 GMT 51.036209 -8.300022 30,025 298 483 128
2019-02-21 04:36:40 GMT 51.032288 -8.290787 30,025 298 483 128
2019-02-21 04:36:33 GMT 51.025772 -8.268919 30,000 299 482 64
2019-02-21 04:36:28 GMT 51.020229 -8.253326 30,025 299 482 64
2019-02-21 04:36:23 GMT 51.015152 -8.237668 30,000 299 482 64
2019-02-21 04:36:18 GMT 51.009846 -8.221893 30,000 299 483 64
2019-02-21 04:36:13 GMT 51.004623 -8.206342 30,000 299 483 64
2019-02-21 04:36:08 GMT 50.999233 -8.190765 30,000 299 482 64
2019-02-21 04:36:02 GMT 50.992950 -8.172150 29,975 299 482 64
2019-02-21 04:35:56 GMT 50.987320 -8.156606 29,975 299 481 64
2019-02-21 04:35:52 GMT 50.982925 -8.144284 29,975 299 481 64
2019-02-21 04:35:47 GMT 50.977341 -8.125503 29,975 299 481 64
2019-02-21 04:35:42 GMT 50.972397 -8.112958 29,975 299 481 64
2019-02-21 04:35:36 GMT 50.964970 -8.091125 29,975 299 480 0
2019-02-21 04:35:32 GMT 50.961758 -8.078766 29,975 299 480 0
2019-02-21 04:35:27 GMT 50.956100 -8.063297 29,950 299 480 0
2019-02-21 04:35:22 GMT 50.950726 -8.047638 29,950 299 480 0
2019-02-21 04:35:16 GMT 50.945297 -8.032268 29,950 299 480 0
2019-02-21 04:35:11 GMT 50.939621 -8.013710 29,950 299 480 0
2019-02-21 04:35:06 GMT 50.934292 -7.998276 29,950 299 480 0
2019-02-21 04:35:01 GMT 50.928223 -7.982829 29,950 299 480 -64
2019-02-21 04:34:56 GMT 50.924057 -7.970433 29,950 299 479 0
2019-02-21 04:34:51 GMT 50.918610 -7.952023 29,950 299 479 0
2019-02-21 04:34:46 GMT 50.913158 -7.936325 29,950 299 479 0
2019-02-21 04:34:41 GMT 50.907944 -7.920994 29,950 299 479 0
2019-02-21 04:34:36 GMT 50.902405 -7.905731 29,950 299 479 0
2019-02-21 04:34:30 GMT 50.896774 -7.890336 29,950 299 479 0
2019-02-21 04:34:26 GMT 50.891975 -7.874908 29,950 299 479 0
2019-02-21 04:34:20 GMT 50.885273 -7.856445 29,950 299 480 64
2019-02-21 04:34:15 GMT 50.875263 -7.825470 29,950 299 479 0
2019-02-21 04:34:10 GMT 50.875263 -7.825470 29,950 299 480 0
2019-02-21 04:34:05 GMT 50.870087 -7.810017 29,950 299 481 0
2019-02-21 04:34:00 GMT 50.864697 -7.794571 29,950 299 481 64
2019-02-21 04:33:55 GMT 50.859467 -7.779211 29,950 299 481 0
2019-02-21 04:33:50 GMT 50.854221 -7.763672 29,950 299 481 0
2019-02-21 04:33:45 GMT 50.848846 -7.748331 29,950 299 481 0
2019-02-21 04:33:39 GMT 50.843098 -7.732773 29,950 299 481 0
2019-02-21 04:33:34 GMT 50.837585 -7.717227 29,950 299 482 -64
2019-02-21 04:33:29 GMT 50.832203 -7.701950 29,950 299 482 0
2019-02-21 04:33:24 GMT 50.826965 -7.686347 29,950 299 482 0
2019-02-21 04:33:20 GMT 50.821636 -7.670822 29,950 299 482 0
2019-02-21 04:33:14 GMT 50.816208 -7.655392 29,950 299 483 0
2019-02-21 04:33:09 GMT 50.809753 -7.636686 29,950 299 483 -64
2019-02-21 04:33:04 GMT 50.805542 -7.624437 29,950 299 483 -64
2019-02-21 04:32:59 GMT 50.799637 -7.605731 29,975 299 484 -64
2019-02-21 04:32:54 GMT 50.794636 -7.590256 29,975 299 485 -128
2019-02-21 04:32:49 GMT 50.788971 -7.574776 29,975 299 485 -128
2019-02-21 04:32:44 GMT 50.783508 -7.559357 29,975 299 485 -128
2019-02-21 04:32:34 GMT 50.772991 -7.528229 30,000 299 485 -64
2019-02-21 04:32:28 GMT 50.766953 -7.512718 30,000 299 485 -64
2019-02-21 04:32:23 GMT 50.761818 -7.497025 30,000 299 486 -64
2019-02-21 04:32:18 GMT 50.755718 -7.478485 30,000 299 486 -64
2019-02-21 04:32:13 GMT 50.751019 -7.466125 30,025 299 486 -64
2019-02-21 04:32:08 GMT 50.744545 -7.447281 30,025 299 487 -64
2019-02-21 04:32:03 GMT 50.739624 -7.431806 30,025 299 488 0
2019-02-21 04:31:58 GMT 50.734398 -7.419128 30,025 299 488 0
2019-02-21 04:31:53 GMT 50.728729 -7.400554 30,025 299 489 0
2019-02-21 04:31:48 GMT 50.723270 -7.384872 30,025 299 489 0
2019-02-21 04:31:43 GMT 50.717422 -7.369451 30,025 299 489 0
2019-02-21 04:31:38 GMT 50.711960 -7.353668 30,025 299 490 0
2019-02-21 04:31:33 GMT 50.706711 -7.338051 30,025 299 490 0
2019-02-21 04:31:27 GMT 50.700974 -7.322235 30,025 299 490 0
2019-02-21 04:31:22 GMT 50.695221 -7.306725 30,025 299 490 0
2019-02-21 04:31:17 GMT 50.689800 -7.291183 30,025 299 490 0
2019-02-21 04:31:12 GMT 50.683933 -7.272339 30,025 299 490 0
2019-02-21 04:31:07 GMT 50.678375 -7.256692 30,025 299 491 0
2019-02-21 04:31:02 GMT 50.672668 -7.241058 30,025 299 491 0
2019-02-21 04:30:57 GMT 50.666611 -7.225245 30,025 299 491 0
2019-02-21 04:30:52 GMT 50.661823 -7.209778 30,025 299 491 0
2019-02-21 04:30:47 GMT 50.655579 -7.193877 30,050 299 491 0
2019-02-21 04:30:42 GMT 50.650791 -7.178229 30,050 299 491 0
2019-02-21 04:30:37 GMT 50.645187 -7.162508 30,050 299 491 0
2019-02-21 04:30:31 GMT 50.639477 -7.146829 30,050 299 491 0
2019-02-21 04:30:26 GMT 50.634018 -7.131283 30,025 299 490 0
2019-02-21 04:30:21 GMT 50.628445 -7.115652 30,025 299 491 0
2019-02-21 04:30:16 GMT 50.621647 -7.096945 30,025 299 491 0
2019-02-21 04:30:11 GMT 50.617458 -7.084400 30,025 299 491 0
2019-02-21 04:30:06 GMT 50.611126 -7.065619 30,025 300 490 0
2019-02-21 04:30:00 GMT 50.605499 -7.049970 30,050 300 490 0
2019-02-21 04:29:57 GMT 50.600655 -7.037485 30,025 300 490 0
2019-02-21 04:29:51 GMT 50.594650 -7.018890 30,050 299 490 0
2019-02-21 04:29:46 GMT 50.589062 -7.003413 30,025 299 490 -64
2019-02-21 04:29:41 GMT 50.583618 -6.987955 30,050 299 489 0
2019-02-21 04:29:36 GMT 50.578217 -6.972310 30,050 299 489 0
2019-02-21 04:29:30 GMT 50.571560 -6.953529 30,050 300 489 0
2019-02-21 04:29:25 GMT 50.566948 -6.941281 30,050 300 488 0
2019-02-21 04:29:20 GMT 50.561462 -6.925651 30,050 300 487 0
2019-02-21 04:29:15 GMT 50.555374 -6.907220 30,050 300 487 0
2019-02-21 04:29:10 GMT 50.550293 -6.894788 30,050 300 487 0
2019-02-21 04:29:05 GMT 50.544617 -6.879248 30,050 300 487 0
2019-02-21 04:29:00 GMT 50.538879 -6.860888 30,050 300 487 0
2019-02-21 04:28:54 GMT 50.532806 -6.845422 30,050 300 487 0
2019-02-21 04:28:50 GMT 50.527565 -6.829859 30,050 300 487 0
2019-02-21 04:28:44 GMT 50.521820 -6.814704 30,050 300 486 0
2019-02-21 04:28:40 GMT 50.516674 -6.799275 30,050 300 486 0
2019-02-21 04:28:34 GMT 50.510834 -6.783913 30,050 300 486 0
2019-02-21 04:28:29 GMT 50.505177 -6.768469 30,050 300 485 0
2019-02-21 04:28:24 GMT 50.499802 -6.753050 30,050 300 485 0
2019-02-21 04:28:20 GMT 50.494606 -6.737811 30,025 300 484 0
2019-02-21 04:28:14 GMT 50.487484 -6.719476 30,025 300 484 64
2019-02-21 04:28:08 GMT 50.478012 -6.691686 30,025 300 484 0
2019-02-21 04:28:02 GMT 50.474777 -6.682657 30,025 300 484 64
2019-02-21 04:27:59 GMT 50.471786 -6.673472 30,025 300 483 64
2019-02-21 04:27:53 GMT 50.465607 -6.658086 30,025 300 483 0
2019-02-21 04:27:49 GMT 50.460754 -6.643042 30,025 300 483 0
2019-02-21 04:27:44 GMT 50.455177 -6.627725 30,025 300 483 0
2019-02-21 04:27:39 GMT 50.449722 -6.612469 30,025 300 483 64
2019-02-21 04:27:34 GMT 50.444145 -6.596993 30,000 300 482 64
2019-02-21 04:27:31 GMT 50.440887 -6.587894 30,000 300 481 64
2019-02-21 04:27:26 GMT 50.431870 -6.563681 30,000 300 481 0
2019-02-21 04:27:21 GMT 50.430084 -6.557465 30,000 300 481 0
2019-02-21 04:27:18 GMT 50.427246 -6.551415 30,000 300 481 0
2019-02-21 04:27:14 GMT 50.421986 -6.536123 30,000 300 481 64
2019-02-21 04:27:08 GMT 50.415329 -6.518010 30,000 300 481 0
2019-02-21 04:27:03 GMT 50.410721 -6.502894 30,000 300 480 64
2019-02-21 04:26:58 GMT 50.404900 -6.487575 29,975 300 480 64
2019-02-21 04:26:53 GMT 50.399368 -6.472537 29,975 300 479 64
2019-02-21 04:26:48 GMT 50.394428 -6.457511 29,975 300 480 64
2019-02-21 04:26:43 GMT 50.388794 -6.442542 29,975 300 479 0
2019-02-21 04:26:38 GMT 50.383438 -6.427225 29,975 300 479 0
2019-02-21 04:26:32 GMT 50.377304 -6.412329 29,950 300 479 0
2019-02-21 04:26:28 GMT 50.372456 -6.397086 29,975 300 478 0
2019-02-21 04:26:23 GMT 50.361004 -6.367023 29,950 300 477 64
2019-02-21 04:26:17 GMT 50.361004 -6.367023 29,950 300 477 64
2019-02-21 04:26:10 GMT 50.353226 -6.346122 29,950 300 476 0
2019-02-21 04:26:07 GMT 50.349922 -6.337107 29,950 300 476 0
2019-02-21 04:26:03 GMT 50.344757 -6.321981 29,950 300 476 64
2019-02-21 04:25:57 GMT 50.339031 -6.307043 29,950 300 476 0
2019-02-21 04:25:50 GMT 50.330509 -6.282992 29,950 300 476 0
2019-02-21 04:25:47 GMT 50.328228 -6.277202 29,950 300 476 0
2019-02-21 04:25:42 GMT 50.322315 -6.259164 29,950 300 476 -64
2019-02-21 04:25:37 GMT 50.316833 -6.244065 29,950 300 475 0
2019-02-21 04:25:31 GMT 50.305939 -6.214142 29,950 300 476 0
2019-02-21 04:25:27 GMT 50.305939 -6.214142 29,950 300 476 0
2019-02-21 04:25:22 GMT 50.300484 -6.199407 29,950 300 476 64
2019-02-21 04:25:16 GMT 50.294632 -6.184508 29,950 300 476 0
2019-02-21 04:25:11 GMT 50.289127 -6.169417 29,950 300 476 -64
2019-02-21 04:25:06 GMT 50.283646 -6.154512 29,950 300 476 -128
2019-02-21 04:24:59 GMT 50.275864 -6.133624 29,975 300 475 -64
2019-02-21 04:24:56 GMT 50.272552 -6.124655 29,975 300 475 -64
2019-02-21 04:24:50 GMT 50.264965 -6.103796 29,975 300 476 -128
2019-02-21 04:24:45 GMT 50.260635 -6.091993 29,975 300 476 -128
2019-02-21 04:24:41 GMT 50.255539 -6.077174 30,000 300 476 -128
2019-02-21 04:24:35 GMT 50.249973 -6.062226 30,000 300 477 -64
2019-02-21 04:24:28 GMT 50.241409 -6.038249 30,000 300 478 -64
2019-02-21 04:24:25 GMT 50.239037 -6.032236 30,000 300 477 -64
2019-02-21 04:24:19 GMT 50.231461 -6.011401 30,000 300 478 0
2019-02-21 04:24:16 GMT 50.228188 -6.002247 30,025 300 478 0
2019-02-21 04:24:09 GMT 50.220383 -5.981261 30,000 300 478 0
2019-02-21 04:24:05 GMT 50.216736 -5.972406 30,000 300 478 0
2019-02-21 04:23:59 GMT 50.210125 -5.954293 30,025 300 479 0
2019-02-21 04:23:53 GMT 50.201561 -5.930539 30,000 300 479 0
2019-02-21 04:23:48 GMT 50.197952 -5.921559 30,000 300 480 0
2019-02-21 04:23:45 GMT 50.194107 -5.909488 30,025 300 480 0
2019-02-21 04:23:42 GMT 50.191132 -5.900475 30,000 300 480 0
2019-02-21 04:23:38 GMT 50.187057 -5.891635 30,000 300 480 0
2019-02-21 04:23:35 GMT 50.183212 -5.879637 30,000 300 481 64
2019-02-21 04:23:32 GMT 50.179962 -5.870559 30,000 300 481 64
2019-02-21 04:23:28 GMT 50.171677 -5.849425 30,000 300 481 64
2019-02-21 04:23:25 GMT 50.171677 -5.849425 30,000 300 481 0
2019-02-21 04:23:22 GMT 50.168743 -5.840570 30,000 300 481 0
2019-02-21 04:23:18 GMT 50.164227 -5.828470 30,000 301 481 64
2019-02-21 04:23:14 GMT 50.160278 -5.819574 30,000 300 482 64
2019-02-21 04:23:08 GMT 50.153194 -5.798332 30,000 300 482 0
2019-02-21 04:23:04 GMT 50.149338 -5.789361 30,000 300 482 0
2019-02-21 04:22:58 GMT 50.141506 -5.768268 30,000 300 482 0
2019-02-21 04:22:54 GMT 50.137550 -5.756391 30,000 301 483 64
2019-02-21 04:22:48 GMT 50.130707 -5.738278 30,000 301 482 0
2019-02-21 04:22:44 GMT 50.126659 -5.729222 30,000 301 482 0
2019-02-21 04:22:41 GMT 50.122971 -5.717372 30,000 301 482 0
2019-02-21 04:22:37 GMT 50.118977 -5.708140 30,000 301 482 0
2019-02-21 04:22:32 GMT 50.112183 -5.690176 30,000 301 482 0
2019-02-21 04:22:28 GMT 50.106537 -5.675089 30,000 301 482 64
2019-02-21 04:22:24 GMT 50.103569 -5.666124 30,000 301 482 64
2019-02-21 04:22:21 GMT 50.100952 -5.660055 30,000 301 482 0
2019-02-21 04:22:17 GMT 50.093536 -5.639239 30,000 301 482 -64
2019-02-21 04:22:11 GMT 50.088638 -5.626952 30,000 301 482 0
2019-02-21 04:22:07 GMT 50.084793 -5.615098 30,000 301 482 -64
2019-02-21 04:22:04 GMT 50.080673 -5.603100 30,000 301 482 0
2019-02-21 04:22:01 GMT 50.077927 -5.596956 30,000 301 483 0
2019-02-21 04:21:56 GMT 50.073166 -5.584958 30,000 301 483 0
2019-02-21 04:21:51 GMT 50.066483 -5.567033 30,000 301 483 -64
2019-02-21 04:21:46 GMT 50.061813 -5.555107 30,000 301 483 -64
2019-02-21 04:21:41 GMT 50.055222 -5.536965 30,000 301 483 0
2019-02-21 04:21:36 GMT 50.050079 -5.522040 30,000 301 483 0
2019-02-21 04:21:33 GMT 50.046432 -5.513185 30,000 301 483 0
2019-02-21 04:21:30 GMT 50.043514 -5.503928 30,000 301 483 0
2019-02-21 04:21:26 GMT 50.035172 -5.483117 30,000 301 483 0
2019-02-21 04:21:23 GMT 50.035172 -5.483117 30,000 301 483 0
2019-02-21 04:21:20 GMT 50.032745 -5.476901 30,000 301 483 0
2019-02-21 04:21:16 GMT 50.027317 -5.462061 30,000 301 483 0
2019-02-21 04:21:13 GMT 50.023865 -5.453122 30,000 301 483 0
2019-02-21 04:21:10 GMT 50.021030 -5.444097 30,000 301 483 0
2019-02-21 04:21:06 GMT 50.015911 -5.431923 30,000 301 483 0
2019-02-21 04:21:00 GMT 50.009300 -5.414033 30,000 301 483 0
2019-02-21 04:20:55 GMT 50.004227 -5.398985 30,000 301 484 0
2019-02-21 04:20:50 GMT 49.997990 -5.384192 30,000 301 484 0
2019-02-21 04:20:45 GMT 49.989422 -5.360215 30,000 301 484 64
2019-02-21 04:20:42 GMT 49.989422 -5.360215 30,000 301 484 0
2019-02-21 04:20:39 GMT 49.986534 -5.354128 30,000 301 484 0
2019-02-21 04:20:35 GMT 49.981430 -5.338994 30,000 301 484 0
2019-02-21 04:20:32 GMT 49.977737 -5.330076 30,000 301 484 0
2019-02-21 04:20:29 GMT 49.975315 -5.324212 30,000 301 484 0
2019-02-21 04:20:25 GMT 49.969620 -5.309143 30,000 301 484 0
2019-02-21 04:20:21 GMT 49.966240 -5.300161 30,000 301 484 64
2019-02-21 04:20:16 GMT 49.959255 -5.282123 30,000 301 484 0
2019-02-21 04:20:12 GMT 49.954834 -5.270246 30,000 301 484 0
2019-02-21 04:20:05 GMT 49.947327 -5.249441 30,000 301 484 0
2019-02-21 04:20:01 GMT 49.943474 -5.240182 30,000 301 484 0
2019-02-21 04:19:55 GMT 49.935516 -5.219229 30,000 301 484 0
2019-02-21 04:19:51 GMT 49.931625 -5.207447 30,000 301 484 0
2019-02-21 04:19:47 GMT 49.923271 -5.186586 30,000 301 484 0
2019-02-21 04:19:44 GMT 49.919907 -5.177379 30,000 301 484 0
2019-02-21 04:19:36 GMT 49.910522 -5.153455 30,000 301 484 0
2019-02-21 04:19:33 GMT 49.910522 -5.153455 30,000 301 484 0
2019-02-21 04:19:29 GMT 49.906174 -5.141529 30,000 301 484 0
2019-02-21 04:19:25 GMT 49.902008 -5.129820 30,000 301 484 0
2019-02-21 04:19:19 GMT 49.894958 -5.111895 30,000 301 484 0
2019-02-21 04:19:16 GMT 49.891663 -5.102778 30,000 301 484 0
2019-02-21 04:19:13 GMT 49.888092 -5.093753 30,000 301 484 0
2019-02-21 04:19:09 GMT 49.882027 -5.079024 30,000 301 484 -64
2019-02-21 04:19:05 GMT 49.879028 -5.069974 30,000 301 484 0
2019-02-21 04:19:02 GMT 49.875557 -5.060986 30,000 301 484 0
2019-02-21 04:18:58 GMT 49.870575 -5.049034 30,000 301 484 0
2019-02-21 04:18:54 GMT 49.866058 -5.037306 30,000 301 484 64
2019-02-21 04:18:48 GMT 49.859730 -5.019193 30,000 301 484 64
2019-02-21 04:18:44 GMT 49.854607 -5.007316 30,000 301 483 64
2019-02-21 04:18:41 GMT 49.852699 -5.001452 30,000 301 484 64
2019-02-21 04:18:38 GMT 49.847763 -4.989649 30,000 301 484 0
2019-02-21 04:18:34 GMT 49.844086 -4.977772 30,000 301 484 0
2019-02-21 04:18:30 GMT 49.839478 -4.965672 30,000 301 484 0
2019-02-21 04:18:27 GMT 49.836590 -4.959882 30,000 301 484 0
2019-02-21 04:18:24 GMT 49.832310 -4.947782 30,000 301 484 0
2019-02-21 04:18:21 GMT 49.829983 -4.941992 30,000 301 484 64
2019-02-21 04:18:18 GMT 49.825233 -4.929818 30,000 301 484 64
2019-02-21 04:18:13 GMT 49.820160 -4.915081 30,000 301 484 0
2019-02-21 04:18:10 GMT 49.816433 -4.905989 30,000 301 484 64
2019-02-21 04:18:07 GMT 49.813568 -4.900047 30,000 301 484 64
2019-02-21 04:18:04 GMT 49.810364 -4.891229 30,000 301 484 0
2019-02-21 04:18:01 GMT 49.806427 -4.879231 30,000 301 484 64
2019-02-21 04:17:58 GMT 49.803307 -4.873253 29,975 301 484 0
2019-02-21 04:17:55 GMT 49.798828 -4.861522 30,000 301 484 0
2019-02-21 04:17:51 GMT 49.794388 -4.849452 30,000 301 484 64
2019-02-21 04:17:47 GMT 49.790878 -4.840517 30,000 301 484 64
2019-02-21 04:17:43 GMT 49.785736 -4.825672 30,000 301 485 0
2019-02-21 04:17:39 GMT 49.781570 -4.816710 30,000 301 484 0
2019-02-21 04:17:33 GMT 49.773972 -4.796038 30,000 301 484 0
2019-02-21 04:17:27 GMT 49.767380 -4.778113 30,000 301 484 0
2019-02-21 04:17:23 GMT 49.762436 -4.766332 30,000 301 484 0
2019-02-21 04:17:17 GMT 49.755981 -4.748334 30,000 301 484 0
2019-02-21 04:17:14 GMT 49.752331 -4.739413 30,000 301 484 0
2019-02-21 04:17:11 GMT 49.748329 -4.730357 30,000 301 484 -64
2019-02-21 04:17:08 GMT 49.745487 -4.721671 30,000 301 484 0
2019-02-21 04:17:04 GMT 49.740833 -4.709794 30,000 301 484 0
2019-02-21 04:17:01 GMT 49.732864 -4.688921 30,000 301 484 0
2019-02-21 04:16:57 GMT 49.732864 -4.688921 30,000 301 484 0
2019-02-21 04:16:51 GMT 49.726089 -4.671141 30,000 301 484 0
2019-02-21 04:16:47 GMT 49.721649 -4.659143 30,000 301 485 -64
2019-02-21 04:16:44 GMT 49.717697 -4.650335 30,000 301 484 0
2019-02-21 04:16:41 GMT 49.714874 -4.641362 30,000 301 484 0
2019-02-21 04:16:36 GMT 49.709038 -4.626432 30,000 301 484 0
2019-02-21 04:16:33 GMT 49.705078 -4.617366 30,000 301 484 0
2019-02-21 04:16:30 GMT 49.703156 -4.611439 30,000 301 484 0
2019-02-21 04:16:26 GMT 49.694229 -4.587515 30,000 297 485 64
2019-02-21 04:16:23 GMT 49.694229 -4.587515 30,000 301 484 0
2019-02-21 04:16:19 GMT 49.690651 -4.578626 30,000 301 484 0
2019-02-21 04:16:16 GMT 49.686413 -4.566824 30,000 301 484 0
2019-02-21 04:16:11 GMT 49.680035 -4.548859 30,000 301 484 0
2019-02-21 04:16:06 GMT 49.673401 -4.533812 30,000 301 484 0
2019-02-21 04:16:02 GMT 49.671341 -4.527957 30,000 301 484 0
2019-02-21 04:15:59 GMT 49.667793 -4.519092 30,000 302 484 64
2019-02-21 04:15:55 GMT 49.662735 -4.504467 30,000 302 484 64
2019-02-21 04:15:50 GMT 49.656246 -4.489771 30,000 301 484 0
2019-02-21 04:15:45 GMT 49.651291 -4.474688 29,975 301 484 0
2019-02-21 04:15:42 GMT 49.647404 -4.465868 29,975 297 485 64
2019-02-21 04:15:39 GMT 49.644470 -4.456835 29,975 300 484 0
2019-02-21 04:15:36 GMT 49.641117 -4.447830 30,000 300 484 0
2019-02-21 04:15:32 GMT 49.636417 -4.435730 29,975 299 484 64
2019-02-21 04:15:29 GMT 49.633255 -4.426767 29,975 299 484 64
2019-02-21 04:15:26 GMT 49.629807 -4.417692 29,975 299 485 64
2019-02-21 04:15:22 GMT 49.625618 -4.405666 29,975 297 485 64
2019-02-21 04:15:18 GMT 49.621845 -4.393047 29,975 295 486 0
2019-02-21 04:15:15 GMT 49.614944 -4.371258 29,975 295 486 0
2019-02-21 04:15:11 GMT 49.614944 -4.371258 29,975 294 485 64
2019-02-21 04:15:07 GMT 49.611649 -4.358537 29,975 292 487 64
2019-02-21 04:15:04 GMT 49.609497 -4.352104 29,975 291 486 0
2019-02-21 04:15:00 GMT 49.605972 -4.335665 29,975 290 487 0
2019-02-21 04:14:56 GMT 49.602036 -4.319145 29,975 288 488 0
2019-02-21 04:14:52 GMT 49.600105 -4.309313 29,975 287 488 0
2019-02-21 04:14:48 GMT 49.598236 -4.299124 29,975 286 488 0
2019-02-21 04:14:45 GMT 49.594208 -4.272164 29,975 283 489 0
2019-02-21 04:14:41 GMT 49.594208 -4.272164 29,975 282 489 0
2019-02-21 04:14:38 GMT 49.593109 -4.265514 29,975 278 490 0
2019-02-21 04:14:35 GMT 49.590225 -4.237976 29,975 273 491 -64
2019-02-21 04:14:31 GMT 49.590225 -4.237976 29,975 278 491 0
2019-02-21 04:14:28 GMT 49.589401 -4.230965 29,975 278 490 0
2019-02-21 04:14:24 GMT 49.588284 -4.213628 29,975 274 491 -64
2019-02-21 04:14:21 GMT 49.587708 -4.203282 29,975 274 492 -64
2019-02-21 04:14:18 GMT 49.587341 -4.195982 29,975 274 491 -64
2019-02-21 04:14:14 GMT 49.586838 -4.178887 29,975 273 491 -64
2019-02-21 04:14:11 GMT 49.586609 -4.168372 29,975 273 491 -64
2019-02-21 04:14:08 GMT 49.586231 -4.157583 29,975 273 491 -64
2019-02-21 04:14:04 GMT 49.585907 -4.143776 30,000 273 491 -64
2019-02-21 04:13:58 GMT 49.585396 -4.122917 30,000 273 491 -64
2019-02-21 04:13:53 GMT 49.584652 -4.095005 30,000 273 490 -64
2019-02-21 04:13:50 GMT 49.584652 -4.095005 30,000 273 490 -64
2019-02-21 04:13:47 GMT 49.584419 -4.087953 30,000 273 490 -64
2019-02-21 04:13:43 GMT 49.583908 -4.070362 30,025 273 489 -64
2019-02-21 04:13:40 GMT 49.583672 -4.059968 30,025 273 490 -64
2019-02-21 04:13:37 GMT 49.583439 -4.053139 30,000 273 490 -64
2019-02-21 04:13:34 GMT 49.583069 -4.039331 30,025 273 490 -64
2019-02-21 04:13:31 GMT 49.582764 -4.028874 30,025 273 490 -64
2019-02-21 04:13:27 GMT 49.582462 -4.018398 30,025 273 489 -128
2019-02-21 04:13:24 GMT 49.582088 -4.004368 30,025 273 489 0
2019-02-21 04:13:21 GMT 49.581673 -3.990635 30,025 273 489 0
2019-02-21 04:13:18 GMT 49.581436 -3.983583 30,025 273 489 64
2019-02-21 04:13:13 GMT 49.580978 -3.965992 30,025 273 489 0
2019-02-21 04:13:10 GMT 49.580647 -3.955672 30,025 273 489 0
2019-02-21 04:13:06 GMT 49.580338 -3.945248 30,025 273 489 0
2019-02-21 04:13:03 GMT 49.580017 -3.934696 30,025 273 489 0
2019-02-21 04:13:00 GMT 49.579716 -3.920783 30,025 273 489 0
2019-02-21 04:12:57 GMT 49.579422 -3.910699 30,025 273 489 0
2019-02-21 04:12:53 GMT 49.579010 -3.896677 30,025 273 489 0
2019-02-21 04:12:50 GMT 49.578739 -3.886191 30,025 273 489 0
2019-02-21 04:12:47 GMT 49.578461 -3.875789 30,025 273 489 0
2019-02-21 04:12:43 GMT 49.578049 -3.862056 30,025 273 488 64
2019-02-21 04:12:40 GMT 49.577763 -3.851450 30,025 273 488 0
2019-02-21 04:12:37 GMT 49.577454 -3.841167 30,025 273 488 64
2019-02-21 04:12:32 GMT 49.576996 -3.827218 30,025 273 488 0
2019-02-21 04:12:29 GMT 49.576691 -3.816710 30,025 273 488 0
2019-02-21 04:12:26 GMT 49.576363 -3.803051 30,000 273 488 0
2019-02-21 04:12:23 GMT 49.575989 -3.792307 30,025 273 487 0
2019-02-21 04:12:19 GMT 49.575665 -3.782192 30,025 273 488 0
2019-02-21 04:12:16 GMT 49.575294 -3.768162 30,025 273 488 0
2019-02-21 04:12:13 GMT 49.574875 -3.754281 30,025 273 487 0
2019-02-21 04:12:10 GMT 49.574642 -3.747303 30,025 273 487 0
2019-02-21 04:12:06 GMT 49.574268 -3.733422 30,025 273 487 0
2019-02-21 04:12:01 GMT 49.573746 -3.716198 30,025 273 487 0
2019-02-21 04:11:58 GMT 49.573479 -3.705956 30,025 273 487 0
2019-02-21 04:11:55 GMT 49.573151 -3.698978 30,025 273 487 0
2019-02-21 04:11:52 GMT 49.572781 -3.685245 30,025 273 487 0
2019-02-21 04:11:48 GMT 49.572361 -3.671364 30,025 273 487 0
2019-02-21 04:11:45 GMT 49.572006 -3.661049 30,025 273 487 0
2019-02-21 04:11:42 GMT 49.571709 -3.650356 30,025 273 487 0
2019-02-21 04:11:38 GMT 49.571289 -3.636772 30,025 273 487 0
2019-02-21 04:11:35 GMT 49.570770 -3.619345 30,025 273 486 0
2019-02-21 04:11:29 GMT 49.570358 -3.605539 30,025 273 486 0
2019-02-21 04:11:26 GMT 49.570034 -3.595202 30,025 273 486 0
2019-02-21 04:11:23 GMT 49.569717 -3.584651 30,025 273 486 0
2019-02-21 04:11:20 GMT 49.569382 -3.574417 30,025 273 486 0
2019-02-21 04:11:17 GMT 49.569077 -3.564196 30,025 273 486 64
2019-02-21 04:11:14 GMT 49.568802 -3.556968 30,025 273 486 64
2019-02-21 04:11:11 GMT 49.568436 -3.543452 30,025 273 486 0
2019-02-21 04:11:07 GMT 49.568031 -3.533144 30,025 273 485 0
2019-02-21 04:11:04 GMT 49.567657 -3.522636 30,025 273 485 0
2019-02-21 04:11:01 GMT 49.567245 -3.508686 30,025 273 485 0
2019-02-21 04:10:58 GMT 49.566914 -3.498329 30,025 273 485 0
2019-02-21 04:10:55 GMT 49.566650 -3.491556 30,025 273 485 0
2019-02-21 04:10:52 GMT 49.566311 -3.481181 30,025 273 485 0
2019-02-21 04:10:49 GMT 49.565918 -3.467560 30,025 273 485 0
2019-02-21 04:10:46 GMT 49.565613 -3.457056 30,025 273 485 0
2019-02-21 04:10:43 GMT 49.565277 -3.446671 30,025 273 485 0
2019-02-21 04:10:40 GMT 49.564911 -3.436568 30,025 273 484 0
2019-02-21 04:10:36 GMT 49.564445 -3.422612 30,025 273 484 64
2019-02-21 04:10:33 GMT 49.564087 -3.412267 30,025 273 484 64
2019-02-21 04:10:30 GMT 49.563747 -3.402199 30,025 273 484 64
2019-02-21 04:10:27 GMT 49.563400 -3.391740 30,025 273 484 0
2019-02-21 04:10:23 GMT 49.562862 -3.374510 30,000 273 484 0
2019-02-21 04:10:20 GMT 49.562538 -3.367606 30,000 273 484 0
2019-02-21 04:10:17 GMT 49.562210 -3.357335 30,000 273 484 0
2019-02-21 04:10:14 GMT 49.561794 -3.347044 30,000 273 483 64
2019-02-21 04:10:11 GMT 49.561188 -3.326630 30,000 273 483 64
2019-02-21 04:10:08 GMT 49.561188 -3.326630 30,000 273 483 64
2019-02-21 04:10:05 GMT 49.560722 -3.312749 30,000 273 483 0
2019-02-21 04:10:02 GMT 49.560444 -3.305920 30,000 273 483 64
2019-02-21 04:09:59 GMT 49.560150 -3.295682 30,000 273 483 64
2019-02-21 04:09:55 GMT 49.559605 -3.281794 30,000 273 483 64
2019-02-21 04:09:51 GMT 49.559093 -3.264795 30,000 273 483 0
2019-02-21 04:09:47 GMT 49.558582 -3.250840 30,000 273 483 64
2019-02-21 04:09:42 GMT 49.558163 -3.237255 30,000 273 483 64
2019-02-21 04:09:39 GMT 49.557770 -3.227017 30,000 273 482 64
2019-02-21 04:09:36 GMT 49.557465 -3.216841 30,000 273 482 64
2019-02-21 04:09:32 GMT 49.556999 -3.203034 30,000 273 482 64
2019-02-21 04:09:29 GMT 49.556721 -3.196056 30,000 273 482 64
2019-02-21 04:09:26 GMT 49.556301 -3.182472 30,000 274 482 64
2019-02-21 04:09:22 GMT 49.555786 -3.168739 30,000 274 482 0
2019-02-21 04:09:19 GMT 49.555508 -3.161984 30,000 274 482 0
2019-02-21 04:09:16 GMT 49.555092 -3.148103 30,000 274 482 0
2019-02-21 04:09:12 GMT 49.554577 -3.134444 30,000 274 482 0
2019-02-21 04:09:09 GMT 49.554298 -3.127689 30,000 274 482 0
2019-02-21 04:09:06 GMT 49.553833 -3.113807 29,975 274 481 0
2019-02-21 04:09:02 GMT 49.553413 -3.100149 29,975 274 481 0
2019-02-21 04:08:59 GMT 49.553009 -3.089905 30,000 274 481 0
2019-02-21 04:08:56 GMT 49.552624 -3.079809 29,975 274 481 0
2019-02-21 04:08:53 GMT 49.552296 -3.072757 29,975 274 481 64
2019-02-21 04:08:50 GMT 49.551880 -3.059173 29,975 274 481 0
2019-02-21 04:08:47 GMT 49.551453 -3.049140 29,975 274 481 0
2019-02-21 04:08:44 GMT 49.551041 -3.038759 29,975 274 481 0
2019-02-21 04:08:41 GMT 49.550446 -3.021529 29,975 274 481 0
2019-02-21 04:08:38 GMT 49.550446 -3.021529 29,975 274 481 0
2019-02-21 04:08:35 GMT 49.549896 -3.007869 29,975 274 480 0
2019-02-21 04:08:32 GMT 49.549549 -2.997783 29,975 274 480 0
2019-02-21 04:08:29 GMT 49.549210 -2.987558 29,975 274 480 0
2019-02-21 04:08:26 GMT 49.548660 -2.973898 30,000 274 480 0
2019-02-21 04:08:21 GMT 49.548203 -2.960309 29,975 274 480 0
2019-02-21 04:08:18 GMT 49.547928 -2.953515 30,000 274 480 -64
2019-02-21 04:08:15 GMT 49.547470 -2.939638 30,000 274 479 0
2019-02-21 04:08:11 GMT 49.546921 -2.926122 30,000 274 479 0
2019-02-21 04:08:08 GMT 49.546570 -2.915757 30,000 274 479 0
2019-02-21 04:08:05 GMT 49.546059 -2.902098 30,000 274 479 -64
2019-02-21 04:08:01 GMT 49.545731 -2.892079 30,000 274 479 0
2019-02-21 04:07:58 GMT 49.545265 -2.881758 30,000 274 479 -64
2019-02-21 04:07:55 GMT 49.544861 -2.871479 30,000 274 478 0
2019-02-21 04:07:52 GMT 49.544567 -2.861270 30,000 274 479 0
2019-02-21 04:07:49 GMT 49.544220 -2.851314 30,000 274 479 0
2019-02-21 04:07:46 GMT 49.543716 -2.837797 30,000 274 478 0
2019-02-21 04:07:43 GMT 49.543358 -2.827346 30,000 274 478 0
2019-02-21 04:07:40 GMT 49.543034 -2.820740 30,000 274 478 64
2019-02-21 04:07:37 GMT 49.542709 -2.810476 30,000 274 478 0
2019-02-21 04:07:34 GMT 49.542240 -2.800326 30,000 274 478 0
2019-02-21 04:07:31 GMT 49.541931 -2.790094 30,000 274 478 0
2019-02-21 04:07:28 GMT 49.541496 -2.779689 30,000 274 478 0
2019-02-21 04:07:25 GMT 49.541107 -2.769783 30,000 274 478 0
2019-02-21 04:07:22 GMT 49.540707 -2.759350 30,000 274 478 0
2019-02-21 04:07:19 GMT 49.540329 -2.749112 30,000 274 478 64
2019-02-21 04:07:16 GMT 49.539822 -2.739085 30,000 274 478 0
2019-02-21 04:07:13 GMT 49.539459 -2.728946 30,000 274 478 0
2019-02-21 04:07:10 GMT 49.539078 -2.718745 30,000 274 478 -64
2019-02-21 04:07:06 GMT 49.538609 -2.705309 30,000 274 477 -64
2019-02-21 04:07:03 GMT 49.538223 -2.694903 30,000 274 478 -64
2019-02-21 04:07:00 GMT 49.537903 -2.688326 30,000 274 477 0
2019-02-21 04:06:57 GMT 49.537445 -2.677917 30,000 274 477 0
2019-02-21 04:06:54 GMT 49.536934 -2.664556 30,000 274 477 64
2019-02-21 04:06:51 GMT 49.536484 -2.654210 30,000 274 477 64
2019-02-21 04:06:48 GMT 49.536255 -2.647705 30,000 274 477 0
2019-02-21 04:06:45 GMT 49.535751 -2.633972 30,000 274 477 0
2019-02-21 04:06:42 GMT 49.535213 -2.623728 30,000 274 477 0
2019-02-21 04:06:39 GMT 49.534927 -2.613662 30,000 274 477 0
2019-02-21 04:06:36 GMT 49.534332 -2.599929 30,000 274 477 0
2019-02-21 04:06:33 GMT 49.534012 -2.593279 30,000 274 477 0
2019-02-21 04:06:30 GMT 49.533535 -2.582975 30,000 274 478 0
2019-02-21 04:06:27 GMT 49.533096 -2.572969 30,000 274 477 0
2019-02-21 04:06:24 GMT 49.532822 -2.566320 30,000 274 478 0
2019-02-21 04:06:21 GMT 49.532318 -2.552587 30,000 274 477 64
2019-02-21 04:06:18 GMT 49.531860 -2.542296 30,000 274 477 0
2019-02-21 04:06:14 GMT 49.531303 -2.528860 30,000 274 478 0
2019-02-21 04:06:10 GMT 49.530788 -2.515275 30,000 274 478 0
2019-02-21 04:06:07 GMT 49.529812 -2.495084 30,000 274 478 0
2019-02-21 04:06:04 GMT 49.529812 -2.495084 30,000 274 478 0
2019-02-21 04:06:00 GMT 49.528694 -2.467990 30,000 274 475 0
2019-02-21 04:05:56 GMT 49.528694 -2.467990 30,000 274 477 64
2019-02-21 04:05:53 GMT 49.528198 -2.457757 30,000 274 477 0
2019-02-21 04:05:50 GMT 49.527859 -2.447650 30,000 274 477 0
2019-02-21 04:05:47 GMT 49.527466 -2.440772 30,000 274 477 0
2019-02-21 04:05:44 GMT 49.526924 -2.427310 30,000 274 477 0
2019-02-21 04:05:41 GMT 49.526505 -2.417137 30,000 274 477 0
2019-02-21 04:05:38 GMT 49.526134 -2.407119 30,000 274 477 0
2019-02-21 04:05:35 GMT 49.525635 -2.397043 29,975 274 476 0
2019-02-21 04:05:32 GMT 49.525204 -2.386928 30,000 274 476 0
2019-02-21 04:05:29 GMT 49.524693 -2.373418 30,000 274 476 0
2019-02-21 04:05:26 GMT 49.524040 -2.359759 30,000 274 475 -64
2019-02-21 04:05:23 GMT 49.524040 -2.359759 30,000 274 475 64
2019-02-21 04:05:19 GMT 49.523392 -2.343051 30,000 274 475 0
2019-02-21 04:05:16 GMT 49.522968 -2.333036 30,000 274 474 64
2019-02-21 04:05:13 GMT 49.522522 -2.322813 29,975 274 474 64
2019-02-21 04:05:10 GMT 49.522133 -2.312771 29,975 274 474 64
2019-02-21 04:05:07 GMT 49.521759 -2.306015 29,975 274 474 0
2019-02-21 04:05:04 GMT 49.521198 -2.292505 30,000 274 474 -64
2019-02-21 04:04:59 GMT 49.520130 -2.265559 30,000 274 474 -64
2019-02-21 04:04:56 GMT 49.520130 -2.265559 30,000 274 474 -64
2019-02-21 04:04:53 GMT 49.519802 -2.258655 30,000 274 474 0
2019-02-21 04:04:49 GMT 49.519135 -2.241861 30,000 274 473 64
2019-02-21 04:04:46 GMT 49.518734 -2.232006 30,000 274 473 64
2019-02-21 04:04:43 GMT 49.518311 -2.221840 29,975 274 474 64
2019-02-21 04:04:40 GMT 49.517895 -2.211889 29,975 274 474 64
2019-02-21 04:04:37 GMT 49.517441 -2.201747 29,975 274 474 64
2019-02-21 04:04:34 GMT 49.517101 -2.191476 29,975 274 474 -64
2019-02-21 04:04:31 GMT 49.516663 -2.181581 29,975 274 474 -64
2019-02-21 04:04:28 GMT 49.516220 -2.171284 29,975 274 474 -64
2019-02-21 04:04:25 GMT 49.515884 -2.161343 30,000 274 474 -64
2019-02-21 04:04:22 GMT 49.515472 -2.151093 30,000 274 474 -128
2019-02-21 04:04:19 GMT 49.515106 -2.141105 30,000 274 474 -128
2019-02-21 04:04:16 GMT 49.514729 -2.130976 30,000 274 473 -128
2019-02-21 04:04:13 GMT 49.514282 -2.121012 30,025 274 473 -128
2019-02-21 04:04:10 GMT 49.513844 -2.110860 30,025 274 473 -64
2019-02-21 04:04:07 GMT 49.513504 -2.100846 30,025 274 474 0
2019-02-21 04:04:04 GMT 49.513054 -2.090743 30,025 274 474 -64
2019-02-21 04:04:01 GMT 49.512077 -2.070700 30,025 275 474 128
2019-02-21 04:03:58 GMT 49.512077 -2.070700 30,000 275 474 128
2019-02-21 04:03:55 GMT 49.511673 -2.060732 30,000 276 475 0
2019-02-21 04:03:52 GMT 49.511192 -2.050361 30,000 275 478 0
2019-02-21 04:03:49 GMT 49.510666 -2.040421 30,000 275 474 64
2019-02-21 04:03:45 GMT 49.509933 -2.026833 30,000 275 477 128
2019-02-21 04:03:42 GMT 49.509521 -2.020328 30,000 275 474 0
2019-02-21 04:03:38 GMT 49.508633 -2.003298 30,000 276 475 0
2019-02-21 04:03:35 GMT 49.508057 -1.993440 30,000 276 475 0
2019-02-21 04:03:32 GMT 49.507374 -1.983255 30,000 276 475 0
2019-02-21 04:03:29 GMT 49.506866 -1.973130 30,000 275 476 64
2019-02-21 04:03:26 GMT 49.506302 -1.963064 30,000 275 476 128
2019-02-21 04:03:23 GMT 49.505768 -1.952964 29,975 275 477 128
2019-02-21 04:03:20 GMT 49.504898 -1.939304 29,975 275 477 128
2019-02-21 04:03:17 GMT 49.504578 -1.932654 29,975 275 477 128
2019-02-21 04:03:13 GMT 49.503845 -1.919138 29,975 275 478 -64
2019-02-21 04:03:10 GMT 49.503323 -1.909097 30,000 275 478 0
2019-02-21 04:03:07 GMT 49.502438 -1.888609 30,000 275 478 0
2019-02-21 04:03:04 GMT 49.502438 -1.888609 30,000 275 478 0
2019-02-21 04:03:01 GMT 49.502022 -1.881780 30,000 274 477 0
2019-02-21 04:02:58 GMT 49.501556 -1.871796 30,000 274 477 0
2019-02-21 04:02:55 GMT 49.501007 -1.858352 30,000 274 477 0
2019-02-21 04:02:52 GMT 49.500275 -1.844619 30,000 274 477 0
2019-02-21 04:02:47 GMT 49.499771 -1.831175 30,000 274 474 -64
2019-02-21 04:02:44 GMT 49.499413 -1.821281 30,000 274 475 -64
2019-02-21 04:02:41 GMT 49.499039 -1.814262 30,000 274 474 -64
2019-02-21 04:02:38 GMT 49.498577 -1.801015 30,000 274 472 0
2019-02-21 04:02:35 GMT 49.497738 -1.780824 30,000 274 472 0
2019-02-21 04:02:32 GMT 49.497738 -1.780824 30,000 274 468 0
2019-02-21 04:02:29 GMT 49.497345 -1.770895 30,000 274 462 -192
2019-02-21 04:02:26 GMT 49.496994 -1.760708 30,000 274 470 64
2019-02-21 04:02:23 GMT 49.496529 -1.750612 30,000 274 470 0
2019-02-21 04:02:20 GMT 49.496246 -1.744080 30,000 274 470 0
2019-02-21 04:02:17 GMT 49.495876 -1.734133 30,000 274 462 -192
2019-02-21 04:02:14 GMT 49.495270 -1.720697 30,000 274 469 192
2019-02-21 04:02:11 GMT 49.494991 -1.714238 30,000 274 468 0
2019-02-21 04:02:08 GMT 49.494431 -1.700951 30,000 274 468 0
2019-02-21 04:02:05 GMT 49.493958 -1.690810 29,975 274 466 0
2019-02-21 04:02:02 GMT 49.493595 -1.680908 29,975 274 466 0
2019-02-21 04:01:59 GMT 49.493179 -1.671295 29,975 274 465 0
2019-02-21 04:01:56 GMT 49.492905 -1.664429 29,975 274 465 0
2019-02-21 04:01:53 GMT 49.492447 -1.651274 30,000 274 464 -64
2019-02-21 04:01:50 GMT 49.492058 -1.641417 30,000 274 463 0
2019-02-21 04:01:46 GMT 49.491501 -1.628426 30,000 274 462 0
2019-02-21 04:01:42 GMT 49.491035 -1.615361 30,000 274 461 -448
2019-02-21 04:01:39 GMT 49.490753 -1.608681 30,000 274 461 -320
2019-02-21 04:01:36 GMT 49.490337 -1.595616 30,025 274 461 -448
2019-02-21 04:01:33 GMT 49.489929 -1.585717 29,950 274 463 256
2019-02-21 04:01:30 GMT 49.489635 -1.575796 29,975 274 467 -64
2019-02-21 04:01:27 GMT 49.489243 -1.566130 29,950 274 467 -64
2019-02-21 04:01:24 GMT 49.488846 -1.556199 29,950 274 470 -64
2019-02-21 04:01:21 GMT 49.488327 -1.545892 29,975 274 473 64
2019-02-21 04:01:18 GMT 49.487961 -1.535933 30,000 275 472 0
2019-02-21 04:01:15 GMT 49.487457 -1.525943 30,000 275 472 0
2019-02-21 04:01:12 GMT 49.487000 -1.519221 30,000 275 472 0
2019-02-21 04:01:09 GMT 49.486313 -1.505994 30,000 275 472 0
2019-02-21 04:01:06 GMT 49.485168 -1.485973 30,000 276 472 0
2019-02-21 04:01:03 GMT 49.484516 -1.475954 30,000 276 472 0
2019-02-21 04:01:00 GMT 49.484516 -1.475954 30,000 275 473 -64
2019-02-21 04:00:57 GMT 49.483841 -1.465735 30,000 276 472 0
2019-02-21 04:00:53 GMT 49.482925 -1.452508 30,000 276 472 0
2019-02-21 04:00:50 GMT 49.482468 -1.442327 30,000 276 472 0
2019-02-21 04:00:47 GMT 49.481827 -1.432415 30,000 275 472 0
2019-02-21 04:00:44 GMT 49.481304 -1.422358 30,000 275 472 64
2019-02-21 04:00:41 GMT 49.480469 -1.408922 30,000 275 472 64
2019-02-21 04:00:38 GMT 49.480186 -1.402316 30,000 275 472 0
2019-02-21 04:00:35 GMT 49.479675 -1.392373 30,000 275 472 0
2019-02-21 04:00:32 GMT 49.479210 -1.382347 30,000 275 472 0
2019-02-21 04:00:29 GMT 49.477936 -1.358835 30,000 275 473 0
2019-02-21 04:00:26 GMT 49.477936 -1.358835 30,000 275 472 0
2019-02-21 04:00:22 GMT 49.477394 -1.348869 30,000 275 472 0
2019-02-21 04:00:19 GMT 49.476929 -1.338814 30,000 275 473 -64
2019-02-21 04:00:16 GMT 49.476322 -1.328900 30,000 275 473 0
2019-02-21 04:00:13 GMT 49.475876 -1.318721 30,000 275 473 0
2019-02-21 04:00:10 GMT 49.475346 -1.308561 30,000 275 473 0
2019-02-21 04:00:07 GMT 49.474869 -1.298627 30,000 275 473 -64
2019-02-21 04:00:04 GMT 49.474323 -1.288741 30,000 275 473 -64
2019-02-21 04:00:01 GMT 49.473770 -1.278606 30,000 275 473 -64
2019-02-21 03:59:58 GMT 49.473404 -1.271812 30,000 275 473 -64
2019-02-21 03:59:55 GMT 49.472672 -1.258513 30,000 275 473 -64
2019-02-21 03:59:52 GMT 49.472076 -1.245286 30,000 275 473 -64
2019-02-21 03:59:49 GMT 49.471710 -1.238419 30,000 275 473 -64
2019-02-21 03:59:46 GMT 49.471024 -1.224903 30,000 275 474 -64
2019-02-21 03:59:42 GMT 49.470505 -1.215029 30,000 275 474 -64
2019-02-21 03:59:39 GMT 49.469387 -1.194689 30,000 275 474 0
2019-02-21 03:59:36 GMT 49.469387 -1.194689 30,000 275 475 0
2019-02-21 03:59:33 GMT 49.468918 -1.184716 30,000 275 475 0
2019-02-21 03:59:29 GMT 49.468323 -1.171128 30,000 275 475 0
2019-02-21 03:59:26 GMT 49.467804 -1.161285 30,000 275 476 0
2019-02-21 03:59:23 GMT 49.467384 -1.154455 30,000 275 476 0
2019-02-21 03:59:20 GMT 49.466782 -1.140871 30,000 275 476 0
2019-02-21 03:59:17 GMT 49.466263 -1.130869 30,000 275 477 64
2019-02-21 03:59:14 GMT 49.465210 -1.110703 30,000 275 477 64
2019-02-21 03:59:11 GMT 49.465210 -1.110703 30,000 275 478 64
2019-02-21 03:59:08 GMT 49.464733 -1.100489 30,000 275 478 0
2019-02-21 03:59:05 GMT 49.464157 -1.090176 30,000 275 478 0
2019-02-21 03:59:02 GMT 49.463699 -1.083671 30,000 275 479 0
2019-02-21 03:58:58 GMT 49.462917 -1.066490 30,000 275 479 64
2019-02-21 03:58:55 GMT 49.462280 -1.056350 30,000 275 479 64
2019-02-21 03:58:52 GMT 49.461754 -1.046151 30,000 275 479 64
2019-02-21 03:58:48 GMT 49.461056 -1.032789 30,000 275 479 0
2019-02-21 03:58:45 GMT 49.460449 -1.022451 30,000 275 479 0
2019-02-21 03:58:42 GMT 49.459442 -1.002069 30,000 275 479 64
2019-02-21 03:58:39 GMT 49.459442 -1.002069 30,000 275 478 64
2019-02-21 03:58:36 GMT 49.458912 -0.992184 30,000 275 478 64
2019-02-21 03:58:33 GMT 49.458344 -0.981903 30,000 275 478 -64
2019-02-21 03:58:29 GMT 49.457611 -0.968315 30,000 275 477 0
2019-02-21 03:58:25 GMT 49.456631 -0.951357 30,000 275 477 64
2019-02-21 03:58:22 GMT 49.456192 -0.941355 29,975 275 477 0
2019-02-21 03:58:19 GMT 49.455780 -0.934488 29,975 275 477 64
2019-02-21 03:58:16 GMT 49.454636 -0.914467 29,975 275 477 0
2019-02-21 03:58:10 GMT 49.454025 -0.904219 30,000 275 477 -64
2019-02-21 03:58:07 GMT 49.453606 -0.897390 29,975 275 477 -64
2019-02-21 03:58:04 GMT 49.452862 -0.883954 30,000 275 477 -64
2019-02-21 03:58:00 GMT 49.452068 -0.870518 30,000 275 477 -128
2019-02-21 03:57:57 GMT 49.451523 -0.860186 30,000 275 477 -64
2019-02-21 03:57:54 GMT 49.450905 -0.850030 30,000 275 477 -64
2019-02-21 03:57:50 GMT 49.449966 -0.833226 30,000 275 477 0
2019-02-21 03:57:47 GMT 49.449692 -0.826577 30,000 275 477 128
2019-02-21 03:57:44 GMT 49.449043 -0.816403 29,975 275 477 128
2019-02-21 03:57:41 GMT 49.448593 -0.806122 29,975 275 478 64
2019-02-21 03:57:38 GMT 49.448021 -0.796212 29,975 275 478 64
2019-02-21 03:57:34 GMT 49.447227 -0.782702 30,000 275 478 -64
2019-02-21 03:57:31 GMT 49.446484 -0.769043 30,000 275 478 -64
2019-02-21 03:57:28 GMT 49.446297 -0.762436 30,000 275 478 -128
2019-02-21 03:57:25 GMT 49.445618 -0.752202 30,000 275 478 -128
2019-02-21 03:57:22 GMT 49.444344 -0.728438 30,025 276 478 -128
2019-02-21 03:57:18 GMT 49.444344 -0.728438 30,025 276 478 -128
2019-02-21 03:57:15 GMT 49.443176 -0.708099 30,025 275 478 -192
2019-02-21 03:57:12 GMT 49.443176 -0.708099 30,025 276 478 -64
2019-02-21 03:57:09 GMT 49.442596 -0.697921 30,025 276 478 -64
2019-02-21 03:57:06 GMT 49.441967 -0.688056 30,025 276 478 0
2019-02-21 03:57:03 GMT 49.440758 -0.667791 30,000 275 477 64
2019-02-21 03:57:00 GMT 49.440758 -0.667791 30,000 276 478 256
2019-02-21 03:56:57 GMT 49.440125 -0.657445 30,000 276 478 192
2019-02-21 03:56:53 GMT 49.439346 -0.644001 29,975 275 478 64
2019-02-21 03:56:50 GMT 49.438755 -0.633867 30,000 275 478 64
2019-02-21 03:56:46 GMT 49.437469 -0.610175 30,000 275 478 0
2019-02-21 03:56:43 GMT 49.437469 -0.610175 30,000 275 478 -64
2019-02-21 03:56:40 GMT 49.436802 -0.599794 30,000 275 478 0
2019-02-21 03:56:37 GMT 49.436325 -0.589937 30,000 275 477 64
2019-02-21 03:56:34 GMT 49.435730 -0.579529 30,000 275 477 64
2019-02-21 03:56:31 GMT 49.435181 -0.569410 30,000 275 477 64
2019-02-21 03:56:28 GMT 49.434723 -0.562688 30,000 275 477 0
2019-02-21 03:56:25 GMT 49.434082 -0.549316 30,000 275 476 0
2019-02-21 03:56:22 GMT 49.433449 -0.539295 30,000 275 476 0
2019-02-21 03:56:19 GMT 49.432285 -0.519030 30,000 275 476 0
2019-02-21 03:56:16 GMT 49.432285 -0.519030 30,000 275 475 0
2019-02-21 03:56:13 GMT 49.431587 -0.505520 30,000 275 475 64
2019-02-21 03:56:10 GMT 49.431213 -0.498987 30,000 275 475 0
2019-02-21 03:56:07 GMT 49.430649 -0.488747 30,000 275 475 0
2019-02-21 03:56:04 GMT 49.430050 -0.478722 30,000 276 474 0
2019-02-21 03:56:01 GMT 49.429214 -0.465286 30,000 276 474 0
2019-02-21 03:55:57 GMT 49.428589 -0.455138 30,000 276 474 -64
2019-02-21 03:55:53 GMT 49.427765 -0.441983 30,000 276 474 0
2019-02-21 03:55:50 GMT 49.427303 -0.431647 30,000 276 474 0
2019-02-21 03:55:47 GMT 49.426620 -0.421847 30,000 276 474 0
2019-02-21 03:55:43 GMT 49.425907 -0.411554 30,000 276 475 -128
2019-02-21 03:55:40 GMT 49.425163 -0.398182 30,000 276 476 192
2019-02-21 03:55:37 GMT 49.424561 -0.388113 30,000 276 476 320
2019-02-21 03:55:33 GMT 49.423859 -0.377944 30,000 276 476 384
2019-02-21 03:55:30 GMT 49.423069 -0.364645 30,000 276 477 128
2019-02-21 03:55:27 GMT 49.422363 -0.354380 29,975 276 477 -64
2019-02-21 03:55:24 GMT 49.421810 -0.344335 30,000 276 477 128
2019-02-21 03:55:21 GMT 49.421082 -0.334308 30,000 276 476 768
2019-02-21 03:55:18 GMT 49.420555 -0.324314 29,750 276 476 1344
2019-02-21 03:55:15 GMT 49.419807 -0.314122 29,725 276 476 1344
2019-02-21 03:55:12 GMT 49.419296 -0.304003 29,825 276 476 1408
2019-02-21 03:55:09 GMT 49.418610 -0.293884 29,675 276 477 1408
2019-02-21 03:55:06 GMT 49.418087 -0.284054 29,625 276 478 1472
2019-02-21 03:55:03 GMT 49.417557 -0.273884 29,575 276 477 1536
2019-02-21 03:55:00 GMT 49.417053 -0.267052 29,525 276 477 1536
2019-02-21 03:54:57 GMT 49.415619 -0.243289 29,375 276 480 1216
2019-02-21 03:54:54 GMT 49.415619 -0.243289 29,375 276 480 1280
2019-02-21 03:54:51 GMT 49.415039 -0.233248 29,225 276 480 1024
2019-02-21 03:54:47 GMT 49.414215 -0.219727 29,100 276 480 960
2019-02-21 03:54:43 GMT 49.413483 -0.205923 29,075 276 480 832
2019-02-21 03:54:40 GMT 49.412872 -0.195875 29,125 276 480 896
2019-02-21 03:54:37 GMT 49.412064 -0.185711 29,075 276 480 832
2019-02-21 03:54:33 GMT 49.411377 -0.172119 29,000 276 479 832
2019-02-21 03:54:29 GMT 49.410553 -0.158598 28,925 276 479 896
2019-02-21 03:54:26 GMT 49.409847 -0.148677 28,350 276 478 1024
2019-02-21 03:54:23 GMT 49.409225 -0.138315 28,875 276 479 896
2019-02-21 03:54:20 GMT 49.407944 -0.118314 28,825 276 478 960
2019-02-21 03:54:17 GMT 49.407944 -0.118314 28,775 276 478 1024
2019-02-21 03:54:14 GMT 49.407379 -0.107984 28,700 276 478 1024
2019-02-21 03:54:11 GMT 49.406754 -0.097821 28,625 276 477 1088
2019-02-21 03:54:08 GMT 49.405518 -0.077538 28,350 276 478 1024
2019-02-21 03:54:05 GMT 49.405518 -0.077538 28,325 276 479 1088
2019-02-21 03:54:02 GMT 49.404865 -0.067436 28,475 276 478 1152
2019-02-21 03:53:59 GMT 49.404282 -0.057467 28,450 276 478 1152
2019-02-21 03:53:56 GMT 49.403824 -0.050706 28,350 276 478 1024
2019-02-21 03:53:53 GMT 49.403000 -0.037255 28,325 276 478 1088
2019-02-21 03:53:50 GMT 49.402351 -0.026888 28,250 276 478 1088
2019-02-21 03:53:47 GMT 49.401855 -0.016832 28,225 276 478 1088
2019-02-21 03:53:44 GMT 49.401279 -0.006722 28,075 276 478 1088
2019-02-21 03:53:41 GMT 49.400482 0.003380 28,150 276 478 1088
2019-02-21 03:53:38 GMT 49.399979 0.013516 28,075 276 478 1024
2019-02-21 03:53:35 GMT 49.399139 0.027032 28,000 276 478 1024
2019-02-21 03:53:32 GMT 49.398560 0.033804 27,950 276 478 1024
2019-02-21 03:53:28 GMT 49.397919 0.043734 27,850 276 477 1024
2019-02-21 03:53:25 GMT 49.396271 0.070707 27,825 276 477 1088
2019-02-21 03:53:22 GMT 49.396271 0.070707 27,775 276 477 1152
2019-02-21 03:53:18 GMT 49.395721 0.077327 27,750 276 477 1216
2019-02-21 03:53:14 GMT 49.394718 0.094179 27,625 276 479 960
2019-02-21 03:53:11 GMT 49.394073 0.104300 27,575 276 477 1408
2019-02-21 03:53:08 GMT 49.393524 0.110990 27,525 276 478 1408
2019-02-21 03:53:05 GMT 49.392700 0.124582 27,350 276 479 1472
2019-02-21 03:53:02 GMT 49.392017 0.134872 27,350 276 479 1472
2019-02-21 03:52:59 GMT 49.391178 0.148315 27,250 276 479 1664
2019-02-21 03:52:56 GMT 49.390762 0.154893 27,200 276 479 1664
2019-02-21 03:52:53 GMT 49.390137 0.165147 27,125 276 480 1600
2019-02-21 03:52:50 GMT 49.389503 0.175275 27,025 276 480 1536
2019-02-21 03:52:47 GMT 49.388573 0.188864 26,450 276 479 768
2019-02-21 03:52:44 GMT 49.388153 0.195802 26,875 276 481 1344
2019-02-21 03:52:41 GMT 49.387779 0.202307 26,850 276 481 1216
2019-02-21 03:52:38 GMT 49.386898 0.216185 26,800 276 481 1024
2019-02-21 03:52:34 GMT 49.385925 0.233037 26,675 276 481 960
2019-02-21 03:52:31 GMT 49.385468 0.239798 26,650 276 480 832
2019-02-21 03:52:28 GMT 49.384056 0.263310 26,550 276 479 896
2019-02-21 03:52:25 GMT 49.384056 0.263310 26,550 276 479 896
2019-02-21 03:52:21 GMT 49.383316 0.273531 26,525 276 479 832
2019-02-21 03:52:18 GMT 49.382755 0.283621 26,475 276 479 960
2019-02-21 03:52:15 GMT 49.382126 0.293884 26,425 276 478 1088
2019-02-21 03:52:12 GMT 49.381496 0.303859 26,350 276 478 1088
2019-02-21 03:52:09 GMT 49.380798 0.314167 26,275 276 478 1088
2019-02-21 03:52:06 GMT 49.380241 0.324097 26,250 276 478 1152
2019-02-21 03:52:03 GMT 49.379608 0.334379 26,225 276 478 1216
2019-02-21 03:52:00 GMT 49.378983 0.341082 26,150 276 478 1280
2019-02-21 03:51:54 GMT 49.377632 0.364717 26,000 276 477 1152
2019-02-21 03:51:51 GMT 49.376999 0.374662 25,925 276 477 1280
2019-02-21 03:51:48 GMT 49.376423 0.384955 25,825 276 477 1280
2019-02-21 03:51:45 GMT 49.375717 0.394944 25,775 276 477 1280
2019-02-21 03:51:42 GMT 49.375027 0.405049 25,750 276 477 1344
2019-02-21 03:51:39 GMT 49.374344 0.415016 25,650 276 477 1408
2019-02-21 03:51:36 GMT 49.373676 0.425142 25,625 276 477 1344
2019-02-21 03:51:33 GMT 49.373165 0.431792 25,550 276 477 1408
2019-02-21 03:51:30 GMT 49.372417 0.445308 25,400 276 478 1728
2019-02-21 03:51:26 GMT 49.371368 0.462130 25,325 276 478 1792
2019-02-21 03:51:22 GMT 49.370773 0.468891 25,250 276 479 1792
2019-02-21 03:51:19 GMT 49.370136 0.478989 25,200 276 479 1728
2019-02-21 03:51:16 GMT 49.369492 0.489173 25,125 276 479 1664
2019-02-21 03:51:13 GMT 49.368713 0.502836 25,000 276 480 1536
2019-02-21 03:51:10 GMT 49.368042 0.513033 24,950 276 480 1536
2019-02-21 03:51:07 GMT 49.367386 0.523259 24,850 276 481 1536
2019-02-21 03:51:04 GMT 49.366646 0.533198 24,725 276 481 1536
2019-02-21 03:51:01 GMT 49.366013 0.543542 24,675 276 481 1536
2019-02-21 03:50:58 GMT 49.365295 0.553653 24,550 276 481 1536
2019-02-21 03:50:55 GMT 49.364639 0.563894 24,525 276 481 1536
2019-02-21 03:50:52 GMT 49.364182 0.570655 24,450 276 481 1536
2019-02-21 03:50:49 GMT 49.363525 0.580613 24,450 276 481 1472
2019-02-21 03:50:46 GMT 49.362595 0.594129 24,300 276 481 1216
2019-02-21 03:50:43 GMT 49.361984 0.604530 24,250 276 481 1152
2019-02-21 03:50:40 GMT 49.361294 0.614584 24,200 277 480 1024
2019-02-21 03:50:37 GMT 49.360611 0.624671 24,150 277 480 896
2019-02-21 03:50:34 GMT 49.359245 0.641688 24,075 277 476 1024
2019-02-21 03:50:31 GMT 49.358360 0.655132 24,025 277 478 512
2019-02-21 03:50:28 GMT 49.358360 0.655132 24,050 277 478 576
2019-02-21 03:50:25 GMT 49.357590 0.665166 24,025 277 475 1088
2019-02-21 03:50:22 GMT 49.356777 0.675226 24,000 277 476 832
2019-02-21 03:50:19 GMT 49.356125 0.685519 23,975 277 476 896
2019-02-21 03:50:15 GMT 49.354935 0.698759 23,700 277 472 832
2019-02-21 03:50:12 GMT 49.354263 0.708618 23,875 277 475 1088
2019-02-21 03:50:09 GMT 49.353607 0.718759 23,825 277 474 960
2019-02-21 03:50:05 GMT 49.352646 0.732140 23,725 277 473 832
2019-02-21 03:50:02 GMT 49.351845 0.742228 23,700 277 472 832
2019-02-21 03:49:59 GMT 49.351089 0.752000 23,650 277 472 832
2019-02-21 03:49:55 GMT 49.350128 0.765381 23,575 277 470 896
2019-02-21 03:49:52 GMT 49.349468 0.775187 23,500 277 470 960
2019-02-21 03:49:49 GMT 49.348866 0.781909 23,525 277 469 1088
2019-02-21 03:49:46 GMT 49.348160 0.791861 23,400 277 469 1152
2019-02-21 03:49:43 GMT 49.347336 0.805171 23,375 277 469 1216
2019-02-21 03:49:40 GMT 49.346741 0.811861 23,175 277 468 1024
2019-02-21 03:49:37 GMT 49.346008 0.824961 23,275 277 466 1408
2019-02-21 03:49:34 GMT 49.344543 0.844750 23,175 277 467 1024
2019-02-21 03:49:31 GMT 49.344543 0.844750 23,150 277 467 1024
2019-02-21 03:49:28 GMT 49.343929 0.854548 23,125 277 467 1088
2019-02-21 03:49:25 GMT 49.343277 0.861198 23,075 277 467 1152
2019-02-21 03:49:21 GMT 49.342300 0.877709 22,950 277 466 1408
2019-02-21 03:49:18 GMT 49.341202 0.890808 22,875 277 466 1344
2019-02-21 03:49:15 GMT 49.340927 0.897428 22,825 277 466 1344
2019-02-21 03:49:12 GMT 49.340332 0.903837 22,775 277 465 1216
2019-02-21 03:49:09 GMT 49.339554 0.916865 22,700 277 465 1152
2019-02-21 03:49:06 GMT 49.338638 0.930176 22,625 277 464 1088
2019-02-21 03:49:02 GMT 49.337925 0.939909 22,600 277 464 1088
2019-02-21 03:48:59 GMT 49.337364 0.946342 22,500 277 463 1152
2019-02-21 03:48:56 GMT 49.336479 0.959352 22,475 277 463 1152
2019-02-21 03:48:51 GMT 49.335297 0.975882 22,400 276 462 1088
2019-02-21 03:48:48 GMT 49.334061 0.995178 22,325 276 462 1088
2019-02-21 03:48:45 GMT 49.334061 0.995178 22,275 276 461 1152
2019-02-21 03:48:41 GMT 49.333145 1.008418 22,150 276 460 1152
2019-02-21 03:48:38 GMT 49.332478 1.018042 22,125 276 460 1216
2019-02-21 03:48:35 GMT 49.331909 1.027715 22,075 276 460 1280
2019-02-21 03:48:31 GMT 49.331173 1.037341 22,000 276 459 1280
2019-02-21 03:48:28 GMT 49.330338 1.050351 21,950 276 459 1280
2019-02-21 03:48:25 GMT 49.329849 1.060181 21,875 276 458 1152
2019-02-21 03:48:21 GMT 49.328934 1.072998 21,775 276 457 1088
2019-02-21 03:48:18 GMT 49.328384 1.079266 21,750 276 457 1088
2019-02-21 03:48:15 GMT 49.327606 1.092295 21,675 277 456 1344
2019-02-21 03:48:11 GMT 49.326645 1.105112 21,575 277 456 1408
2019-02-21 03:48:08 GMT 49.326099 1.111643 21,525 277 456 1344
2019-02-21 03:48:05 GMT 49.325363 1.124268 21,375 277 455 1280
2019-02-21 03:48:00 GMT 49.324005 1.140482 21,350 277 454 1216
2019-02-21 03:47:57 GMT 49.323395 1.149902 21,275 277 454 1280
2019-02-21 03:47:53 GMT 49.322609 1.159564 21,200 277 453 1408
2019-02-21 03:47:50 GMT 49.321724 1.172429 21,125 277 453 1472
2019-02-21 03:47:47 GMT 49.321014 1.182016 21,075 277 453 1536
2019-02-21 03:47:43 GMT 49.320232 1.191511 20,900 278 448 1472
2019-02-21 03:47:39 GMT 49.319183 1.207510 20,875 277 452 1600
2019-02-21 03:47:35 GMT 49.318039 1.220116 20,750 277 453 1664
2019-02-21 03:47:29 GMT 49.316620 1.239131 20,575 277 453 1664
2019-02-21 03:47:26 GMT 49.316071 1.245751 20,525 277 453 1600
2019-02-21 03:47:23 GMT 49.315155 1.258287 20,150 278 450 1280
2019-02-21 03:47:20 GMT 49.314514 1.264766 20,375 277 446 1408
2019-02-21 03:47:17 GMT 49.313690 1.277372 20,275 277 451 1216
2019-02-21 03:47:14 GMT 49.312878 1.286991 20,225 278 451 1152
2019-02-21 03:47:11 GMT 49.311996 1.296598 20,175 278 450 1152
2019-02-21 03:47:07 GMT 49.310898 1.309204 20,050 278 449 1344
2019-02-21 03:47:04 GMT 49.310318 1.318432 20,000 278 448 1472
2019-02-21 03:47:01 GMT 49.308929 1.334205 19,725 278 442 1216
2019-02-21 03:46:54 GMT 49.307713 1.349873 19,750 278 448 1472
2019-02-21 03:46:51 GMT 49.306129 1.368737 19,700 278 447 1472
2019-02-21 03:46:48 GMT 49.306129 1.368737 19,625 277 447 1408
2019-02-21 03:46:45 GMT 49.304501 1.387674 19,550 277 446 1408
2019-02-21 03:46:42 GMT 49.304501 1.387674 19,450 277 446 1472
2019-02-21 03:46:39 GMT 49.303848 1.397165 19,425 277 446 1472
2019-02-21 03:46:36 GMT 49.303196 1.406611 19,350 277 445 1472
2019-02-21 03:46:33 GMT 49.302589 1.412900 19,300 277 444 1408
2019-02-21 03:46:27 GMT 49.300964 1.434561 19,100 277 443 1408
2019-02-21 03:46:24 GMT 49.299240 1.456484 19,025 279 441 1216
2019-02-21 03:46:20 GMT 49.299240 1.456484 18,975 278 442 1152
2019-02-21 03:46:15 GMT 49.297897 1.471886 18,900 280 441 1280
2019-02-21 03:46:12 GMT 49.295425 1.490197 18,700 282 440 1600
2019-02-21 03:46:08 GMT 49.295425 1.490197 18,750 282 440 1472
2019-02-21 03:46:05 GMT 49.294117 1.499417 18,625 282 439 1600
2019-02-21 03:46:02 GMT 49.292629 1.511632 18,550 282 439 1664
2019-02-21 03:45:57 GMT 49.290859 1.523630 18,100 282 437 1664
2019-02-21 03:45:54 GMT 49.289612 1.532945 18,375 282 437 1664
2019-02-21 03:45:51 GMT 49.287140 1.551115 18,200 283 426 1600
2019-02-21 03:45:48 GMT 49.287140 1.551115 18,200 283 426 1600
2019-02-21 03:45:44 GMT 49.285583 1.563087 18,100 282 436 1728
2019-02-21 03:45:41 GMT 49.284294 1.572201 18,000 282 436 1792
2019-02-21 03:45:38 GMT 49.282898 1.584416 17,900 282 436 1792
2019-02-21 03:45:33 GMT 49.280777 1.599497 17,775 282 435 1792
2019-02-21 03:45:29 GMT 49.278896 1.614557 17,600 282 435 1792
2019-02-21 03:45:26 GMT 49.277664 1.623723 17,500 282 435 1664
2019-02-21 03:45:22 GMT 49.276566 1.629709 17,450 282 435 1536
2019-02-21 03:45:18 GMT 49.274471 1.644697 17,325 282 434 1472
2019-02-21 03:45:15 GMT 49.273125 1.656839 17,225 282 433 1472
2019-02-21 03:45:12 GMT 49.272285 1.662694 17,175 282 433 1408
2019-02-21 03:45:08 GMT 49.270561 1.674620 17,075 282 432 1344
2019-02-21 03:45:05 GMT 49.269562 1.680767 17,000 282 431 1280
2019-02-21 03:45:02 GMT 49.268330 1.689726 17,000 282 431 1280
2019-02-21 03:44:58 GMT 49.266464 1.704543 16,325 282 427 2240
2019-02-21 03:44:53 GMT 49.264481 1.719220 16,650 282 428 2368
2019-02-21 03:44:50 GMT 49.263252 1.728034 16,575 282 429 2304
2019-02-21 03:44:45 GMT 49.261185 1.743094 16,375 282 428 1792
2019-02-21 03:44:42 GMT 49.259949 1.752030 16,375 282 428 1792
2019-02-21 03:44:37 GMT 49.258133 1.763812 16,250 282 428 1664
2019-02-21 03:44:32 GMT 49.255852 1.781664 16,050 283 426 1600
2019-02-21 03:44:27 GMT 49.251617 1.810937 15,775 283 425 1728
2019-02-21 03:44:21 GMT 49.251617 1.810937 15,775 283 424 1856
2019-02-21 03:44:15 GMT 49.248688 1.831407 15,550 283 423 1856
2019-02-21 03:44:12 GMT 49.247314 1.843097 15,450 283 422 1792
2019-02-21 03:44:05 GMT 49.244568 1.860633 15,300 283 421 1792
2019-02-21 03:44:02 GMT 49.243057 1.872183 15,150 283 420 1856
2019-02-21 03:43:55 GMT 49.240631 1.886902 14,975 283 420 1792
2019-02-21 03:43:52 GMT 49.237930 1.907184 14,825 283 419 1856
2019-02-21 03:43:43 GMT 49.235367 1.924298 14,625 283 418 1984
2019-02-21 03:43:40 GMT 49.233810 1.935918 14,475 283 417 1984
2019-02-21 03:43:35 GMT 49.232208 1.947468 14,350 283 417 1920
2019-02-21 03:43:31 GMT 49.230469 1.958947 14,150 284 416 1856
2019-02-21 03:43:24 GMT 49.227177 1.978985 14,000 286 415 1856
2019-02-21 03:43:21 GMT 49.225571 1.987610 13,900 287 415 1920
2019-02-21 03:43:18 GMT 49.222984 2.001391 13,800 288 415 1856
2019-02-21 03:43:12 GMT 49.220566 2.012666 13,625 288 414 1792
2019-02-21 03:43:09 GMT 49.218704 2.020921 13,600 288 413 1728
2019-02-21 03:43:05 GMT 49.216370 2.032259 13,425 288 412 1664
2019-02-21 03:43:01 GMT 49.214218 2.043246 13,300 288 410 1728
2019-02-21 03:42:55 GMT 49.210464 2.059655 13,125 288 408 1600
2019-02-21 03:42:51 GMT 49.208176 2.070712 13,000 288 407 1152
2019-02-21 03:42:48 GMT 49.207031 2.076346 13,000 288 406 1152
2019-02-21 03:42:43 GMT 49.203434 2.095353 12,875 288 402 1216
2019-02-21 03:42:38 GMT 49.201244 2.106339 12,800 288 400 1216
2019-02-21 03:42:31 GMT 49.197708 2.122313 12,625 288 395 1344
2019-02-21 03:42:28 GMT 49.195892 2.133010 12,575 288 394 1344
2019-02-21 03:42:23 GMT 49.192795 2.146489 12,475 288 392 1216
2019-02-21 03:42:20 GMT 49.191330 2.154188 12,450 288 391 1152
2019-02-21 03:42:17 GMT 49.190212 2.159609 12,375 287 388 1088
2019-02-21 03:42:13 GMT 49.187851 2.172899 12,275 286 386 1088
2019-02-21 03:42:10 GMT 49.186535 2.180714 12,225 283 383 1088
2019-02-21 03:42:03 GMT 49.184071 2.201891 12,100 277 377 1152
2019-02-21 03:41:57 GMT 49.183140 2.212444 12,050 277 376 1152
2019-02-21 03:41:53 GMT 49.182175 2.225577 11,950 277 372 1152
2019-02-21 03:41:50 GMT 49.181213 2.241211 11,850 277 369 1216
2019-02-21 03:41:43 GMT 49.180435 2.251493 11,725 277 366 1280
2019-02-21 03:41:39 GMT 49.179703 2.261705 11,625 277 362 1472
2019-02-21 03:41:36 GMT 49.179134 2.269183 11,550 277 362 1536
2019-02-21 03:41:32 GMT 49.178604 2.276987 11,500 277 360 1408
2019-02-21 03:41:29 GMT 49.177917 2.286917 11,375 276 356 1408
2019-02-21 03:41:26 GMT 49.177364 2.294625 11,350 276 355 1344
2019-02-21 03:41:21 GMT 49.176434 2.309370 11,225 277 352 1152
2019-02-21 03:41:17 GMT 49.175735 2.319344 11,150 277 348 1152
2019-02-21 03:41:09 GMT 49.174198 2.338715 10,975 277 343 1024
2019-02-21 03:41:06 GMT 49.173920 2.343413 10,950 277 341 1088
2019-02-21 03:41:01 GMT 49.172897 2.357868 10,850 277 337 1024
2019-02-21 03:40:58 GMT 49.172337 2.362494 10,800 278 335 1024
2019-02-21 03:40:55 GMT 49.171738 2.369596 10,800 278 334 1024
2019-02-21 03:40:48 GMT 49.170044 2.392484 10,600 277 325 960
2019-02-21 03:40:41 GMT 49.169170 2.403838 10,500 277 320 1024
2019-02-21 03:40:38 GMT 49.168350 2.415020 10,475 277 317 960
2019-02-21 03:40:28 GMT 49.167126 2.430508 10,225 277 310 1152
2019-02-21 03:40:24 GMT 49.166519 2.436993 10,275 278 309 1280
2019-02-21 03:40:20 GMT 49.165634 2.447711 10,025 278 304 2112
2019-02-21 03:40:17 GMT 49.165100 2.454106 9,975 278 304 2112
2019-02-21 03:40:14 GMT 49.164734 2.458261 9,925 278 303 2048
2019-02-21 03:40:08 GMT 49.163490 2.473153 9,600 278 301 2368
2019-02-21 03:40:05 GMT 49.162811 2.479600 9,525 278 301 2496
2019-02-21 03:39:57 GMT 49.161163 2.498522 9,175 278 302 2624
2019-02-21 03:39:54 GMT 49.160839 2.502714 9,075 278 302 2560
2019-02-21 03:39:47 GMT 49.159607 2.515376 8,725 278 301 1920
2019-02-21 03:39:44 GMT 49.158932 2.523892 8,725 278 301 1920
2019-02-21 03:39:37 GMT 49.157730 2.538546 8,525 278 298 1600
2019-02-21 03:39:34 GMT 49.156860 2.546997 8,400 278 296 1664
2019-02-21 03:39:27 GMT 49.155899 2.559392 8,250 278 292 1792
2019-02-21 03:39:23 GMT 49.155167 2.567561 8,125 279 290 1792
2019-02-21 03:39:19 GMT 49.154137 2.577667 7,975 279 288 1792
2019-02-21 03:39:16 GMT 49.153671 2.581787 7,925 279 288 1792
2019-02-21 03:39:13 GMT 49.153061 2.587703 7,875 280 287 1920
2019-02-21 03:39:05 GMT 49.151249 2.605567 7,525 278 283 1600
2019-02-21 03:39:02 GMT 49.150925 2.609542 7,475 276 282 1472
2019-02-21 03:38:56 GMT 49.150459 2.621540 7,350 271 279 1536
2019-02-21 03:38:53 GMT 49.150642 2.629274 7,200 265 275 2112
2019-02-21 03:38:49 GMT 49.151138 2.634958 7,075 262 274 2496
2019-02-21 03:38:45 GMT 49.151871 2.642775 6,900 261 274 2624
2019-02-21 03:38:42 GMT 49.152412 2.648428 6,800 260 274 2624
2019-02-21 03:38:38 GMT 49.153343 2.656017 6,625 260 274 2432
2019-02-21 03:38:34 GMT 49.154228 2.663751 6,525 260 274 2304
2019-02-21 03:38:31 GMT 49.155624 2.679074 6,200 265 275 2304
2019-02-21 03:38:25 GMT 49.155624 2.684890 6,000 275 275 2304
2019-02-21 03:38:22 GMT 49.155624 2.684890 6,000 274 275 2240
2019-02-21 03:38:15 GMT 49.154324 2.698445 5,725 286 278 2496
2019-02-21 03:38:11 GMT 49.152008 2.707707 5,300 296 281 2304
2019-02-21 03:38:08 GMT 49.150410 2.712900 5,425 301 284 1984
2019-02-21 03:38:05 GMT 49.148922 2.716225 5,350 307 285 1600
2019-02-21 03:38:01 GMT 49.145370 2.724046 5,250 312 285 1344
2019-02-21 03:37:55 GMT 49.139938 2.731114 5,100 322 284 1536
2019-02-21 03:37:51 GMT 49.135796 2.735885 4,975 326 284 1472
2019-02-21 03:37:48 GMT 49.131790 2.740149 4,925 332 282 1216
2019-02-21 03:37:45 GMT 49.128525 2.743061 4,850 334 282 1152
2019-02-21 03:37:41 GMT 49.124344 2.745570 4,800 338 282 1088
2019-02-21 03:37:38 GMT 49.118912 2.749117 4,700 341 279 1088
2019-02-21 03:37:35 GMT 49.116348 2.750455 4,675 342 278 1088
2019-02-21 03:37:31 GMT 49.111313 2.752850 4,575 342 276 1152
2019-02-21 03:37:25 GMT 49.104172 2.756442 4,475 343 271 1024
2019-02-21 03:37:21 GMT 49.099365 2.758766 4,400 343 269 960
2019-02-21 03:37:18 GMT 49.095200 2.760532 4,375 343 266 1024
2019-02-21 03:37:15 GMT 49.092178 2.762216 4,300 343 264 960
2019-02-21 03:37:10 GMT 49.087143 2.764470 4,225 343 261 1024
2019-02-21 03:37:04 GMT 49.079094 2.768266 4,125 344 255 1152
2019-02-21 03:37:00 GMT 49.075790 2.769681 4,075 350 252 960
2019-02-21 03:36:54 GMT 49.068924 2.771865 3,950 354 252 832
2019-02-21 03:36:50 GMT 49.063637 2.772169 3,900 4 250 704
2019-02-21 03:36:44 GMT 49.056934 2.770723 3,825 13 248 832
2019-02-21 03:36:39 GMT 49.051907 2.768555 3,750 21 246 768
2019-02-21 03:36:34 GMT 49.046413 2.763857 3,700 33 243 640
2019-02-21 03:36:30 GMT 49.040039 2.756230 3,650 40 240 832
2019-02-21 03:36:27 GMT 49.040039 2.756230 3,600 46 239 1024
2019-02-21 03:36:24 GMT 49.038033 2.752509 3,550 53 238 960
2019-02-21 03:36:19 GMT 49.034729 2.745314 3,475 64 236 832
2019-02-21 03:36:16 GMT 49.033752 2.740727 3,425 69 235 768
2019-02-21 03:36:13 GMT 49.032761 2.735948 3,375 77 231 832
2019-02-21 03:36:10 GMT 49.032078 2.731187 3,325 82 228 896
2019-02-21 03:36:07 GMT 49.031570 2.726440 3,300 84 224 896
2019-02-21 03:36:03 GMT 49.031113 2.720032 3,250 85 223 832
2019-02-21 03:35:58 GMT 49.030773 2.712322 3,175 85 219 1024
2019-02-21 03:35:54 GMT 49.030289 2.704679 3,050 84 216 1536
2019-02-21 03:35:49 GMT 49.029980 2.700107 2,975 84 215 1536
2019-02-21 03:35:46 GMT 49.029655 2.694036 2,900 85 214 1536
2019-02-21 03:35:43 GMT 49.029469 2.691144 2,775 85 213 1536
2019-02-21 03:35:40 GMT 49.029190 2.685073 2,700 85 213 1536
2019-02-21 03:35:35 GMT 49.028778 2.677565 2,575 86 212 1536
2019-02-21 03:35:32 GMT 49.028641 2.674537 2,500 86 211 1536
2019-02-21 03:35:29 GMT 49.028442 2.670184 2,425 86 210 1600
2019-02-21 03:35:26 GMT 49.028214 2.664185 2,325 86 210 1728
2019-02-21 03:35:22 GMT 49.028000 2.659748 2,225 86 209 1792
2019-02-21 03:35:19 GMT 49.027771 2.653832 2,125 86 209 1792
2019-02-21 03:35:16 GMT 49.027607 2.649512 2,025 86 209 1728
2019-02-21 03:35:13 GMT 49.027451 2.645099 1,925 86 208 1664
2019-02-21 03:35:10 GMT 49.027176 2.639184 1,800 86 208 1536
2019-02-21 03:35:05 GMT 49.027046 2.634767 1,750 86 207 1600
2019-02-21 03:35:02 GMT 49.026855 2.630451 1,675 86 206 1728
2019-02-21 03:34:59 GMT 49.026672 2.624746 1,550 86 204 1856
2019-02-21 03:34:55 GMT 49.026443 2.618972 1,425 86 203 1984
2019-02-21 03:34:52 GMT 49.026306 2.616014 1,350 86 203 2112
2019-02-21 03:34:49 GMT 49.026077 2.610309 1,225 86 202 2112
2019-02-21 03:34:46 GMT 49.025986 2.607422 1,150 86 202 2112
2019-02-21 03:34:42 GMT 49.025711 2.601788 1,000 85 202 2048
2019-02-21 03:34:35 GMT 49.025162 2.590379 750 85 201 1728
2019-02-21 03:34:31 GMT 49.024860 2.586268 500 84 194 576
2019-02-21 03:34:25 GMT 49.024395 2.577884 575 84 194 576
2019-02-21 03:34:22 GMT 49.024021 2.572463 500 84 186 3136
2019-02-21 03:34:15 GMT 49.023422 2.563336 250 84 186 3136
2019-02-21 03:34:12 GMT 49.023186 2.559381 125 84 190 1920
2019-02-21 03:34:04 GMT 49.022644 2.550096 25 84 170
2019-02-21 03:33:59 GMT 49.022266 2.542736 0 84 170
2019-02-21 03:33:52 GMT 49.021835 2.535095 0 84 145
2019-02-21 03:33:37 GMT 49.021172 2.523169 0 84 98
2019-02-21 03:33:31 GMT 49.020939 2.519021 0 84 70
2019-02-21 03:33:21 GMT 49.020767 2.515552 0 87 27
2019-02-21 03:33:00 GMT 49.020721 2.514778 0 87 2
2019-02-21 03:32:51 GMT 49.020744 2.514531 0 73 7
2019-02-21 03:32:43 GMT 49.020733 2.514197 0 47 7
2019-02-21 03:32:40 GMT 49.020672 2.514098 0 47 7
2019-02-21 03:32:30 GMT 49.020451 2.513719 0 53 9
2019-02-21 03:32:19 GMT 49.020191 2.513159 0 45 11
2019-02-21 03:32:09 GMT 49.019829 2.512647 0 16 10
2019-02-21 03:31:59 GMT 49.019493 2.512490 0 0 7
2019-02-21 03:31:49 GMT 49.019245 2.512471 0 354 4
2019-02-21 03:31:13 GMT 49.019157 2.512490 0 354 0
2019-02-21 03:31:08 GMT 49.019154 2.512489 0 354 0
2019-02-21 03:30:58 GMT 49.019135 2.512490 0 354 3
2019-02-21 03:30:47 GMT 49.018913 2.512526 0 354 6
2019-02-21 03:30:37 GMT 49.018703 2.512562 0 354 3
2019-02-21 03:30:28 GMT 49.018608 2.512562 0 354 2
2019-02-21 03:30:17 GMT 49.018547 2.512577 0 354 0
2019-02-21 03:29:56 GMT 49.018513 2.512577 0 354 0
2019-02-21 03:29:47 GMT 49.018505 2.512580 0 354 0
2019-02-21 03:29:37 GMT 49.018421 2.512594 0 354 3
2019-02-21 03:29:27 GMT 49.018261 2.512612 0 357 5
2019-02-21 03:29:17 GMT 49.018021 2.512630 0 354 7
2019-02-21 03:29:05 GMT 49.017643 2.512689 0 351 9
2019-02-21 03:28:53 GMT 49.017189 2.512797 0 2 9
2019-02-21 03:28:50 GMT 49.017071 2.512823 0 11 9
2019-02-21 03:28:40 GMT 49.016655 2.512707 0 61 9
2019-02-21 03:28:29 GMT 49.016510 2.512189 0 84 7
2019-02-21 03:28:18 GMT 49.016499 2.511749 0 84 6
2019-02-21 03:28:08 GMT 49.016476 2.511397 0 84 5
2019-02-21 03:27:52 GMT 49.016457 2.511045 0 84 3
2019-02-21 03:27:25 GMT 49.016434 2.510701 0 84 7
2019-02-21 03:27:10 GMT 49.016376 2.509689 0 84 11
2019-02-21 03:27:07 GMT 49.016373 2.509443 0 84 13
2019-02-21 03:26:57 GMT 49.016315 2.508404 0 84 17
2019-02-21 03:26:46 GMT 49.016235 2.506978 0 84 18
2019-02-21 03:26:37 GMT 49.016190 2.506010 0 87 17
2019-02-21 03:26:30 GMT 49.016167 2.505226 0 78 16
2019-02-21 03:24:41 GMT 49.013931 2.497890 0 84 15
2019-02-21 03:24:30 GMT 49.013878 2.496713 0 84 16
2019-02-21 03:24:21 GMT 49.013828 2.495758 0 84 15
2019-02-21 03:24:11 GMT 49.013775 2.494671 0 73 16
2019-02-21 03:24:00 GMT 49.013443 2.493680 0 28 15
We lost coverage of the aircraft here for a total of 38 minutes
2019-02-21 02:46:10 GMT 49.012436 2.494618 0 87 0
We lost coverage of the aircraft here for a total of 7 minutes
2019-02-21 02:38:43 GMT 49.012466 2.494583 0 87 0
2019-02-21 02:37:59 GMT 49.012459 2.494583 0 87 0
2019-02-21 02:37:13 GMT 49.012478 2.494565 0 87 0
2019-02-21 02:35:58 GMT 49.012447 2.494601 0 87 0

Making use of Plane Finder data

You are free to use the raw flight data, aircraft information and images provided in this report for your own purposes provided the data is correctly attributed to Plane Finder. We ask that you please credit Plane Finder and link to planefinder.net in close proximity to the content.

Optionally one of the following logos (no smaller then 150x24px) can be used and must link to planefinder.net

Embedding the Plane Finder map

You are welcome to embed the Plane Finder playback map on your website to offer visitors a more interactive experience. We suggest using the following HTML code:

<iframe src="//planefinder.net/data/report/FX5392-N631FE-7700-squawk-2019-02-21/map" width="800" height="600" seamless="seamless"></iframe>

Where our data comes from

Plane Finder has a global network of data feeds and antenna radars that receive data broadcast directly from aircraft. The primary technologies used are ADS-B and MLAT. We also show feeds from the FAA and a FLARM glider feed.

Click here to find out more about the Plane Finder network.

How we collect our data